<?xml version="1.0" encoding="UTF-8" standalone="no" ?>
<gpx xmlns="http://www.topografix.com/GPX/1/1" xmlns:xsi="http://www.w3.org/2001/XMLSchema-instance" xsi:schemaLocation="http://www.topografix.com/GPX/1/1 http://www.topografix.com/GPX/1/1/gpx.xsd" version="1.1" creator="VisuGPX - https://www.visugpx.com">
  <metadata>
    <name>15-LES BURONS DU PUY GROS</name>
  </metadata>
  <trk>
    <name><![CDATA[15-LES BURONS DU PUY GROS_1]]></name>
    <trkseg>
      <trkpt lat="44.99849" lon="2.69298">
        <ele>1370.53</ele>
        <time>2022-07-10T07:58:58Z</time>
      </trkpt>
      <trkpt lat="44.99887" lon="2.69335">
        <ele>1366.59</ele>
        <time>2022-07-10T07:59:58Z</time>
      </trkpt>
      <trkpt lat="44.99891" lon="2.6934">
        <ele>1365.17</ele>
        <time>2022-07-10T08:00:07Z</time>
      </trkpt>
      <trkpt lat="44.99896" lon="2.69347">
        <ele>1364.7</ele>
        <time>2022-07-10T08:00:13Z</time>
      </trkpt>
      <trkpt lat="44.99903" lon="2.69356">
        <ele>1364.38</ele>
        <time>2022-07-10T08:00:20Z</time>
      </trkpt>
      <trkpt lat="44.99908" lon="2.69366">
        <ele>1363.57</ele>
        <time>2022-07-10T08:00:27Z</time>
      </trkpt>
      <trkpt lat="44.99919" lon="2.69387">
        <ele>1361.7</ele>
        <time>2022-07-10T08:00:42Z</time>
      </trkpt>
      <trkpt lat="44.9992" lon="2.6939">
        <ele>1361.45</ele>
        <time>2022-07-10T08:00:44Z</time>
      </trkpt>
      <trkpt lat="44.99921" lon="2.69393">
        <ele>1361.19</ele>
        <time>2022-07-10T08:00:46Z</time>
      </trkpt>
      <trkpt lat="44.99926" lon="2.694">
        <ele>1360.37</ele>
        <time>2022-07-10T08:00:51Z</time>
      </trkpt>
      <trkpt lat="44.99934" lon="2.69412">
        <ele>1359.52</ele>
        <time>2022-07-10T08:00:59Z</time>
      </trkpt>
      <trkpt lat="44.99948" lon="2.69437">
        <ele>1357.47</ele>
        <time>2022-07-10T08:01:17Z</time>
      </trkpt>
      <trkpt lat="44.99957" lon="2.69453">
        <ele>1356.8</ele>
        <time>2022-07-10T08:01:31Z</time>
      </trkpt>
      <trkpt lat="44.99958" lon="2.69455">
        <ele>1356.74</ele>
        <time>2022-07-10T08:01:32Z</time>
      </trkpt>
      <trkpt lat="44.99961" lon="2.69461">
        <ele>1356.61</ele>
        <time>2022-07-10T08:01:36Z</time>
      </trkpt>
      <trkpt lat="44.99971" lon="2.69482">
        <ele>1355.97</ele>
        <time>2022-07-10T08:01:50Z</time>
      </trkpt>
      <trkpt lat="44.99978" lon="2.69499">
        <ele>1355.49</ele>
        <time>2022-07-10T08:02:01Z</time>
      </trkpt>
      <trkpt lat="44.99981" lon="2.69505">
        <ele>1355.43</ele>
        <time>2022-07-10T08:02:05Z</time>
      </trkpt>
      <trkpt lat="44.99993" lon="2.69531">
        <ele>1354.65</ele>
        <time>2022-07-10T08:02:21Z</time>
      </trkpt>
      <trkpt lat="45.00006" lon="2.69551">
        <ele>1354.15</ele>
        <time>2022-07-10T08:02:37Z</time>
      </trkpt>
      <trkpt lat="45.00021" lon="2.69577">
        <ele>1353.39</ele>
        <time>2022-07-10T08:02:54Z</time>
      </trkpt>
      <trkpt lat="45.00038" lon="2.69602">
        <ele>1352.18</ele>
        <time>2022-07-10T08:03:12Z</time>
      </trkpt>
      <trkpt lat="45.00048" lon="2.69615">
        <ele>1351.39</ele>
        <time>2022-07-10T08:03:22Z</time>
      </trkpt>
      <trkpt lat="45.0006" lon="2.6963">
        <ele>1350.3</ele>
        <time>2022-07-10T08:03:35Z</time>
      </trkpt>
      <trkpt lat="45.0007" lon="2.69648">
        <ele>1349.12</ele>
        <time>2022-07-10T08:03:49Z</time>
      </trkpt>
      <trkpt lat="45.00079" lon="2.69662">
        <ele>1347.38</ele>
        <time>2022-07-10T08:04:04Z</time>
      </trkpt>
      <trkpt lat="45.00084" lon="2.69683">
        <ele>1345.98</ele>
        <time>2022-07-10T08:04:26Z</time>
      </trkpt>
      <trkpt lat="45.00086" lon="2.69684">
        <ele>1345.86</ele>
        <time>2022-07-10T08:04:47Z</time>
      </trkpt>
      <trkpt lat="45.00098" lon="2.6972">
        <ele>1344.87</ele>
        <time>2022-07-10T08:05:20Z</time>
      </trkpt>
      <trkpt lat="45.00098" lon="2.69721">
        <ele>1344.82</ele>
        <time>2022-07-10T08:05:21Z</time>
      </trkpt>
      <trkpt lat="45.00101" lon="2.69727">
        <ele>1344.67</ele>
        <time>2022-07-10T08:05:25Z</time>
      </trkpt>
      <trkpt lat="45.00114" lon="2.69755">
        <ele>1343.77</ele>
        <time>2022-07-10T08:05:43Z</time>
      </trkpt>
      <trkpt lat="45.0012" lon="2.69769">
        <ele>1343.19</ele>
        <time>2022-07-10T08:05:52Z</time>
      </trkpt>
      <trkpt lat="45.00132" lon="2.69794">
        <ele>1341.92</ele>
        <time>2022-07-10T08:06:09Z</time>
      </trkpt>
      <trkpt lat="45.00139" lon="2.6981">
        <ele>1340.96</ele>
        <time>2022-07-10T08:06:19Z</time>
      </trkpt>
      <trkpt lat="45.00142" lon="2.69817">
        <ele>1340.86</ele>
        <time>2022-07-10T08:06:23Z</time>
      </trkpt>
      <trkpt lat="45.00151" lon="2.69836">
        <ele>1340.25</ele>
        <time>2022-07-10T08:06:36Z</time>
      </trkpt>
      <trkpt lat="45.00158" lon="2.69845">
        <ele>1339.9</ele>
        <time>2022-07-10T08:06:43Z</time>
      </trkpt>
      <trkpt lat="45.00172" lon="2.69868">
        <ele>1338.28</ele>
        <time>2022-07-10T08:07:01Z</time>
      </trkpt>
      <trkpt lat="45.00184" lon="2.69896">
        <ele>1337.14</ele>
        <time>2022-07-10T08:07:19Z</time>
      </trkpt>
      <trkpt lat="45.00196" lon="2.69921">
        <ele>1336.9</ele>
        <time>2022-07-10T08:07:34Z</time>
      </trkpt>
      <trkpt lat="45.00201" lon="2.69935">
        <ele>1337.1</ele>
        <time>2022-07-10T08:07:42Z</time>
      </trkpt>
      <trkpt lat="45.00214" lon="2.6997">
        <ele>1337.59</ele>
        <time>2022-07-10T08:08:04Z</time>
      </trkpt>
      <trkpt lat="45.00218" lon="2.69979">
        <ele>1338.19</ele>
        <time>2022-07-10T08:08:10Z</time>
      </trkpt>
      <trkpt lat="45.00226" lon="2.70003">
        <ele>1339.64</ele>
        <time>2022-07-10T08:08:25Z</time>
      </trkpt>
      <trkpt lat="45.00232" lon="2.70023">
        <ele>1339.97</ele>
        <time>2022-07-10T08:08:38Z</time>
      </trkpt>
      <trkpt lat="45.00232" lon="2.70025">
        <ele>1339.97</ele>
        <time>2022-07-10T08:08:39Z</time>
      </trkpt>
      <trkpt lat="45.00234" lon="2.7003">
        <ele>1339.97</ele>
        <time>2022-07-10T08:08:42Z</time>
      </trkpt>
      <trkpt lat="45.00242" lon="2.70052">
        <ele>1339.5</ele>
        <time>2022-07-10T08:08:56Z</time>
      </trkpt>
      <trkpt lat="45.00244" lon="2.70055">
        <ele>1339.4</ele>
        <time>2022-07-10T08:08:58Z</time>
      </trkpt>
      <trkpt lat="45.00253" lon="2.70077">
        <ele>1337.52</ele>
        <time>2022-07-10T08:09:14Z</time>
      </trkpt>
      <trkpt lat="45.00261" lon="2.70092">
        <ele>1337.15</ele>
        <time>2022-07-10T08:09:25Z</time>
      </trkpt>
      <trkpt lat="45.00263" lon="2.70096">
        <ele>1337.05</ele>
        <time>2022-07-10T08:09:28Z</time>
      </trkpt>
      <trkpt lat="45.00269" lon="2.70114">
        <ele>1336.98</ele>
        <time>2022-07-10T08:09:41Z</time>
      </trkpt>
      <trkpt lat="45.00278" lon="2.70126">
        <ele>1337.43</ele>
        <time>2022-07-10T08:09:51Z</time>
      </trkpt>
      <trkpt lat="45.00279" lon="2.7013">
        <ele>1337.55</ele>
        <time>2022-07-10T08:09:54Z</time>
      </trkpt>
      <trkpt lat="45.0028" lon="2.70132">
        <ele>1337.69</ele>
        <time>2022-07-10T08:09:56Z</time>
      </trkpt>
      <trkpt lat="45.00284" lon="2.70143">
        <ele>1338.32</ele>
        <time>2022-07-10T08:10:02Z</time>
      </trkpt>
      <trkpt lat="45.00285" lon="2.70152">
        <ele>1338.59</ele>
        <time>2022-07-10T08:10:08Z</time>
      </trkpt>
      <trkpt lat="45.00288" lon="2.70156">
        <ele>1338.72</ele>
        <time>2022-07-10T08:10:12Z</time>
      </trkpt>
      <trkpt lat="45.00292" lon="2.70176">
        <ele>1339.65</ele>
        <time>2022-07-10T08:10:25Z</time>
      </trkpt>
      <trkpt lat="45.00294" lon="2.70182">
        <ele>1339.8</ele>
        <time>2022-07-10T08:10:29Z</time>
      </trkpt>
      <trkpt lat="45.00302" lon="2.70198">
        <ele>1340.21</ele>
        <time>2022-07-10T08:10:41Z</time>
      </trkpt>
      <trkpt lat="45.00312" lon="2.70222">
        <ele>1340.75</ele>
        <time>2022-07-10T08:10:57Z</time>
      </trkpt>
      <trkpt lat="45.00313" lon="2.70231">
        <ele>1341.1</ele>
        <time>2022-07-10T08:11:03Z</time>
      </trkpt>
      <trkpt lat="45.00314" lon="2.70233">
        <ele>1341.23</ele>
        <time>2022-07-10T08:11:05Z</time>
      </trkpt>
      <trkpt lat="45.00315" lon="2.70238">
        <ele>1341.48</ele>
        <time>2022-07-10T08:11:08Z</time>
      </trkpt>
      <trkpt lat="45.0032" lon="2.7026">
        <ele>1342.63</ele>
        <time>2022-07-10T08:11:23Z</time>
      </trkpt>
      <trkpt lat="45.00329" lon="2.70285">
        <ele>1344.34</ele>
        <time>2022-07-10T08:11:42Z</time>
      </trkpt>
      <trkpt lat="45.0034" lon="2.70303">
        <ele>1347.49</ele>
        <time>2022-07-10T08:12:01Z</time>
      </trkpt>
      <trkpt lat="45.00352" lon="2.7032">
        <ele>1349.72</ele>
        <time>2022-07-10T08:12:18Z</time>
      </trkpt>
      <trkpt lat="45.00363" lon="2.70338">
        <ele>1352.22</ele>
        <time>2022-07-10T08:12:37Z</time>
      </trkpt>
      <trkpt lat="45.00373" lon="2.70352">
        <ele>1353.92</ele>
        <time>2022-07-10T08:12:52Z</time>
      </trkpt>
      <trkpt lat="45.00378" lon="2.70361">
        <ele>1355.24</ele>
        <time>2022-07-10T08:13:01Z</time>
      </trkpt>
      <trkpt lat="45.00383" lon="2.70364">
        <ele>1356.61</ele>
        <time>2022-07-10T08:13:19Z</time>
      </trkpt>
      <trkpt lat="45.00388" lon="2.70369">
        <ele>1356.63</ele>
        <time>2022-07-10T08:13:34Z</time>
      </trkpt>
      <trkpt lat="45.00399" lon="2.7038">
        <ele>1356.76</ele>
        <time>2022-07-10T08:13:46Z</time>
      </trkpt>
      <trkpt lat="45.00401" lon="2.70384">
        <ele>1356.73</ele>
        <time>2022-07-10T08:13:50Z</time>
      </trkpt>
      <trkpt lat="45.00404" lon="2.7039">
        <ele>1356.51</ele>
        <time>2022-07-10T08:14:05Z</time>
      </trkpt>
      <trkpt lat="45.00405" lon="2.70391">
        <ele>1356.5</ele>
        <time>2022-07-10T08:14:08Z</time>
      </trkpt>
      <trkpt lat="45.0041" lon="2.70401">
        <ele>1356.3</ele>
        <time>2022-07-10T08:14:21Z</time>
      </trkpt>
      <trkpt lat="45.0041" lon="2.704">
        <ele>1356</ele>
        <time>2022-07-10T08:14:46Z</time>
      </trkpt>
      <trkpt lat="45.00414" lon="2.7041">
        <ele>1356</ele>
        <time>2022-07-10T08:14:56Z</time>
      </trkpt>
      <trkpt lat="45.0042" lon="2.70419">
        <ele>1355.93</ele>
        <time>2022-07-10T08:15:02Z</time>
      </trkpt>
      <trkpt lat="45.00432" lon="2.7044">
        <ele>1355.22</ele>
        <time>2022-07-10T08:15:17Z</time>
      </trkpt>
      <trkpt lat="45.00446" lon="2.70463">
        <ele>1355.67</ele>
        <time>2022-07-10T08:15:35Z</time>
      </trkpt>
      <trkpt lat="45.00459" lon="2.70486">
        <ele>1357.9</ele>
        <time>2022-07-10T08:15:54Z</time>
      </trkpt>
      <trkpt lat="45.00462" lon="2.7049">
        <ele>1358.39</ele>
        <time>2022-07-10T08:15:57Z</time>
      </trkpt>
      <trkpt lat="45.00463" lon="2.70494">
        <ele>1358.67</ele>
        <time>2022-07-10T08:15:59Z</time>
      </trkpt>
      <trkpt lat="45.00467" lon="2.70499">
        <ele>1359.37</ele>
        <time>2022-07-10T08:16:03Z</time>
      </trkpt>
      <trkpt lat="45.00473" lon="2.7051">
        <ele>1359.79</ele>
        <time>2022-07-10T08:16:11Z</time>
      </trkpt>
      <trkpt lat="45.00481" lon="2.70538">
        <ele>1359.89</ele>
        <time>2022-07-10T08:16:29Z</time>
      </trkpt>
      <trkpt lat="45.00481" lon="2.70546">
        <ele>1359.34</ele>
        <time>2022-07-10T08:16:36Z</time>
      </trkpt>
      <trkpt lat="45.00485" lon="2.70577">
        <ele>1356.6</ele>
        <time>2022-07-10T08:16:53Z</time>
      </trkpt>
      <trkpt lat="45.00485" lon="2.70587">
        <ele>1355.26</ele>
        <time>2022-07-10T08:16:59Z</time>
      </trkpt>
      <trkpt lat="45.00496" lon="2.70614">
        <ele>1352.99</ele>
        <time>2022-07-10T08:17:15Z</time>
      </trkpt>
      <trkpt lat="45.00496" lon="2.70616">
        <ele>1352.98</ele>
        <time>2022-07-10T08:17:16Z</time>
      </trkpt>
      <trkpt lat="45.00501" lon="2.70644">
        <ele>1353.51</ele>
        <time>2022-07-10T08:17:33Z</time>
      </trkpt>
      <trkpt lat="45.00507" lon="2.7067">
        <ele>1355.55</ele>
        <time>2022-07-10T08:17:49Z</time>
      </trkpt>
      <trkpt lat="45.00514" lon="2.70682">
        <ele>1356.35</ele>
        <time>2022-07-10T08:17:58Z</time>
      </trkpt>
      <trkpt lat="45.00514" lon="2.70686">
        <ele>1356.63</ele>
        <time>2022-07-10T08:18:01Z</time>
      </trkpt>
      <trkpt lat="45.00523" lon="2.70706">
        <ele>1358.32</ele>
        <time>2022-07-10T08:18:15Z</time>
      </trkpt>
      <trkpt lat="45.00526" lon="2.70709">
        <ele>1358.52</ele>
        <time>2022-07-10T08:18:18Z</time>
      </trkpt>
      <trkpt lat="45.00529" lon="2.70725">
        <ele>1359.32</ele>
        <time>2022-07-10T08:18:27Z</time>
      </trkpt>
      <trkpt lat="45.00532" lon="2.70736">
        <ele>1360.03</ele>
        <time>2022-07-10T08:18:34Z</time>
      </trkpt>
      <trkpt lat="45.00528" lon="2.70744">
        <ele>1361.33</ele>
        <time>2022-07-10T08:18:41Z</time>
      </trkpt>
      <trkpt lat="45.00519" lon="2.70749">
        <ele>1362.74</ele>
        <time>2022-07-10T08:18:55Z</time>
      </trkpt>
      <trkpt lat="45.0052" lon="2.70749">
        <ele>1363.16</ele>
        <time>2022-07-10T08:19:30Z</time>
      </trkpt>
      <trkpt lat="45.0052" lon="2.70748">
        <ele>1363.28</ele>
        <time>2022-07-10T08:19:37Z</time>
      </trkpt>
      <trkpt lat="45.00525" lon="2.70758">
        <ele>1363.69</ele>
        <time>2022-07-10T08:20:00Z</time>
      </trkpt>
      <trkpt lat="45.00529" lon="2.70761">
        <ele>1363.71</ele>
        <time>2022-07-10T08:20:03Z</time>
      </trkpt>
      <trkpt lat="45.00536" lon="2.70766">
        <ele>1363.8</ele>
        <time>2022-07-10T08:20:12Z</time>
      </trkpt>
      <trkpt lat="45.00537" lon="2.70768">
        <ele>1363.86</ele>
        <time>2022-07-10T08:20:14Z</time>
      </trkpt>
      <trkpt lat="45.00538" lon="2.70774">
        <ele>1363.96</ele>
        <time>2022-07-10T08:20:18Z</time>
      </trkpt>
      <trkpt lat="45.00541" lon="2.70777">
        <ele>1364.14</ele>
        <time>2022-07-10T08:20:21Z</time>
      </trkpt>
      <trkpt lat="45.00544" lon="2.70789">
        <ele>1365.53</ele>
        <time>2022-07-10T08:20:30Z</time>
      </trkpt>
      <trkpt lat="45.00545" lon="2.70795">
        <ele>1366.63</ele>
        <time>2022-07-10T08:20:36Z</time>
      </trkpt>
      <trkpt lat="45.00547" lon="2.70807">
        <ele>1368.64</ele>
        <time>2022-07-10T08:20:50Z</time>
      </trkpt>
      <trkpt lat="45.00549" lon="2.70812">
        <ele>1369.13</ele>
        <time>2022-07-10T08:20:54Z</time>
      </trkpt>
      <trkpt lat="45.0055" lon="2.70815">
        <ele>1369.25</ele>
        <time>2022-07-10T08:20:56Z</time>
      </trkpt>
      <trkpt lat="45.00553" lon="2.70842">
        <ele>1370.69</ele>
        <time>2022-07-10T08:21:13Z</time>
      </trkpt>
      <trkpt lat="45.00553" lon="2.70846">
        <ele>1370.78</ele>
        <time>2022-07-10T08:21:15Z</time>
      </trkpt>
      <trkpt lat="45.00559" lon="2.70863">
        <ele>1372.33</ele>
        <time>2022-07-10T08:21:29Z</time>
      </trkpt>
      <trkpt lat="45.00561" lon="2.70879">
        <ele>1373.35</ele>
        <time>2022-07-10T08:21:38Z</time>
      </trkpt>
      <trkpt lat="45.00566" lon="2.70902">
        <ele>1373.07</ele>
        <time>2022-07-10T08:21:53Z</time>
      </trkpt>
      <trkpt lat="45.00567" lon="2.70922">
        <ele>1372.19</ele>
        <time>2022-07-10T08:22:05Z</time>
      </trkpt>
      <trkpt lat="45.00573" lon="2.70946">
        <ele>1371.91</ele>
        <time>2022-07-10T08:22:21Z</time>
      </trkpt>
      <trkpt lat="45.00576" lon="2.70976">
        <ele>1371.75</ele>
        <time>2022-07-10T08:22:39Z</time>
      </trkpt>
      <trkpt lat="45.00586" lon="2.71003">
        <ele>1373.09</ele>
        <time>2022-07-10T08:22:59Z</time>
      </trkpt>
      <trkpt lat="45.00591" lon="2.71027">
        <ele>1376.14</ele>
        <time>2022-07-10T08:23:19Z</time>
      </trkpt>
      <trkpt lat="45.00594" lon="2.71036">
        <ele>1377.04</ele>
        <time>2022-07-10T08:23:26Z</time>
      </trkpt>
      <trkpt lat="45.00606" lon="2.71052">
        <ele>1379.24</ele>
        <time>2022-07-10T08:23:39Z</time>
      </trkpt>
      <trkpt lat="45.00613" lon="2.71065">
        <ele>1379.58</ele>
        <time>2022-07-10T08:23:50Z</time>
      </trkpt>
      <trkpt lat="45.00623" lon="2.71087">
        <ele>1379.92</ele>
        <time>2022-07-10T08:24:03Z</time>
      </trkpt>
      <trkpt lat="45.00622" lon="2.71095">
        <ele>1380.35</ele>
        <time>2022-07-10T08:24:24Z</time>
      </trkpt>
      <trkpt lat="45.00622" lon="2.71098">
        <ele>1380.42</ele>
        <time>2022-07-10T08:24:29Z</time>
      </trkpt>
      <trkpt lat="45.00625" lon="2.71103">
        <ele>1380.58</ele>
        <time>2022-07-10T08:24:33Z</time>
      </trkpt>
      <trkpt lat="45.00629" lon="2.71114">
        <ele>1381.13</ele>
        <time>2022-07-10T08:24:49Z</time>
      </trkpt>
      <trkpt lat="45.00628" lon="2.71116">
        <ele>1381.19</ele>
        <time>2022-07-10T08:25:00Z</time>
      </trkpt>
      <trkpt lat="45.00633" lon="2.71127">
        <ele>1381.24</ele>
        <time>2022-07-10T08:25:09Z</time>
      </trkpt>
      <trkpt lat="45.00642" lon="2.71144">
        <ele>1382.96</ele>
        <time>2022-07-10T08:25:24Z</time>
      </trkpt>
      <trkpt lat="45.00658" lon="2.71161">
        <ele>1385.23</ele>
        <time>2022-07-10T08:25:41Z</time>
      </trkpt>
      <trkpt lat="45.00675" lon="2.71173">
        <ele>1386.45</ele>
        <time>2022-07-10T08:25:57Z</time>
      </trkpt>
      <trkpt lat="45.00685" lon="2.71188">
        <ele>1387.49</ele>
        <time>2022-07-10T08:26:11Z</time>
      </trkpt>
      <trkpt lat="45.0069" lon="2.71195">
        <ele>1388.38</ele>
        <time>2022-07-10T08:26:21Z</time>
      </trkpt>
      <trkpt lat="45.00702" lon="2.71212">
        <ele>1389.94</ele>
        <time>2022-07-10T08:26:39Z</time>
      </trkpt>
      <trkpt lat="45.00708" lon="2.71216">
        <ele>1390.1</ele>
        <time>2022-07-10T08:26:43Z</time>
      </trkpt>
      <trkpt lat="45.00719" lon="2.71221">
        <ele>1390.41</ele>
        <time>2022-07-10T08:26:50Z</time>
      </trkpt>
      <trkpt lat="45.0074" lon="2.71235">
        <ele>1391.21</ele>
        <time>2022-07-10T08:27:08Z</time>
      </trkpt>
      <trkpt lat="45.00755" lon="2.71249">
        <ele>1392.59</ele>
        <time>2022-07-10T08:27:22Z</time>
      </trkpt>
      <trkpt lat="45.0077" lon="2.7126">
        <ele>1393.72</ele>
        <time>2022-07-10T08:27:36Z</time>
      </trkpt>
      <trkpt lat="45.00782" lon="2.71271">
        <ele>1395.25</ele>
        <time>2022-07-10T08:27:49Z</time>
      </trkpt>
      <trkpt lat="45.00786" lon="2.71274">
        <ele>1395.62</ele>
        <time>2022-07-10T08:27:53Z</time>
      </trkpt>
      <trkpt lat="45.00801" lon="2.71287">
        <ele>1397.31</ele>
        <time>2022-07-10T08:28:14Z</time>
      </trkpt>
      <trkpt lat="45.00816" lon="2.71297">
        <ele>1397.89</ele>
        <time>2022-07-10T08:28:29Z</time>
      </trkpt>
      <trkpt lat="45.00821" lon="2.71302">
        <ele>1398.04</ele>
        <time>2022-07-10T08:28:36Z</time>
      </trkpt>
      <trkpt lat="45.00826" lon="2.71313">
        <ele>1398.37</ele>
        <time>2022-07-10T08:28:46Z</time>
      </trkpt>
      <trkpt lat="45.00842" lon="2.71326">
        <ele>1399.6</ele>
        <time>2022-07-10T08:29:02Z</time>
      </trkpt>
      <trkpt lat="45.00863" lon="2.71336">
        <ele>1401.25</ele>
        <time>2022-07-10T08:29:21Z</time>
      </trkpt>
      <trkpt lat="45.00882" lon="2.71345">
        <ele>1402.17</ele>
        <time>2022-07-10T08:29:38Z</time>
      </trkpt>
      <trkpt lat="45.00901" lon="2.71361">
        <ele>1403.7</ele>
        <time>2022-07-10T08:29:57Z</time>
      </trkpt>
      <trkpt lat="45.00919" lon="2.71376">
        <ele>1405.27</ele>
        <time>2022-07-10T08:30:15Z</time>
      </trkpt>
      <trkpt lat="45.00934" lon="2.71389">
        <ele>1406.86</ele>
        <time>2022-07-10T08:30:32Z</time>
      </trkpt>
      <trkpt lat="45.00948" lon="2.71402">
        <ele>1409.01</ele>
        <time>2022-07-10T08:30:49Z</time>
      </trkpt>
      <trkpt lat="45.00961" lon="2.71412">
        <ele>1410.29</ele>
        <time>2022-07-10T08:31:06Z</time>
      </trkpt>
      <trkpt lat="45.00963" lon="2.71416">
        <ele>1410.58</ele>
        <time>2022-07-10T08:31:10Z</time>
      </trkpt>
      <trkpt lat="45.00965" lon="2.71418">
        <ele>1410.75</ele>
        <time>2022-07-10T08:31:13Z</time>
      </trkpt>
      <trkpt lat="45.00985" lon="2.71428">
        <ele>1412.29</ele>
        <time>2022-07-10T08:31:31Z</time>
      </trkpt>
      <trkpt lat="45.01007" lon="2.71438">
        <ele>1414.24</ele>
        <time>2022-07-10T08:31:51Z</time>
      </trkpt>
      <trkpt lat="45.01024" lon="2.71451">
        <ele>1415.46</ele>
        <time>2022-07-10T08:32:09Z</time>
      </trkpt>
      <trkpt lat="45.01031" lon="2.71457">
        <ele>1416.13</ele>
        <time>2022-07-10T08:32:17Z</time>
      </trkpt>
      <trkpt lat="45.01049" lon="2.71476">
        <ele>1417.68</ele>
        <time>2022-07-10T08:32:36Z</time>
      </trkpt>
      <trkpt lat="45.01061" lon="2.71486">
        <ele>1419.67</ele>
        <time>2022-07-10T08:32:51Z</time>
      </trkpt>
      <trkpt lat="45.01061" lon="2.71477">
        <ele>1421.09</ele>
        <time>2022-07-10T08:33:04Z</time>
      </trkpt>
      <trkpt lat="45.01065" lon="2.71482">
        <ele>1421.15</ele>
        <time>2022-07-10T08:33:06Z</time>
      </trkpt>
      <trkpt lat="45.01072" lon="2.71487">
        <ele>1421.25</ele>
        <time>2022-07-10T08:33:12Z</time>
      </trkpt>
      <trkpt lat="45.0109" lon="2.7151">
        <ele>1422.68</ele>
        <time>2022-07-10T08:33:30Z</time>
      </trkpt>
      <trkpt lat="45.01103" lon="2.71527">
        <ele>1424.8</ele>
        <time>2022-07-10T08:33:46Z</time>
      </trkpt>
      <trkpt lat="45.01107" lon="2.71528">
        <ele>1425.43</ele>
        <time>2022-07-10T08:33:50Z</time>
      </trkpt>
      <trkpt lat="45.01114" lon="2.71528">
        <ele>1426.67</ele>
        <time>2022-07-10T08:33:59Z</time>
      </trkpt>
      <trkpt lat="45.01124" lon="2.71537">
        <ele>1428.66</ele>
        <time>2022-07-10T08:34:10Z</time>
      </trkpt>
      <trkpt lat="45.01127" lon="2.71545">
        <ele>1429.38</ele>
        <time>2022-07-10T08:34:16Z</time>
      </trkpt>
      <trkpt lat="45.0114" lon="2.71567">
        <ele>1430.6</ele>
        <time>2022-07-10T08:34:34Z</time>
      </trkpt>
      <trkpt lat="45.01156" lon="2.71581">
        <ele>1432.72</ele>
        <time>2022-07-10T08:34:52Z</time>
      </trkpt>
      <trkpt lat="45.01167" lon="2.71601">
        <ele>1435.06</ele>
        <time>2022-07-10T08:35:08Z</time>
      </trkpt>
      <trkpt lat="45.01179" lon="2.71618">
        <ele>1437.39</ele>
        <time>2022-07-10T08:35:24Z</time>
      </trkpt>
      <trkpt lat="45.01192" lon="2.71639">
        <ele>1438.84</ele>
        <time>2022-07-10T08:35:41Z</time>
      </trkpt>
      <trkpt lat="45.0121" lon="2.71656">
        <ele>1439.35</ele>
        <time>2022-07-10T08:35:58Z</time>
      </trkpt>
      <trkpt lat="45.01212" lon="2.71657">
        <ele>1439.38</ele>
        <time>2022-07-10T08:36:00Z</time>
      </trkpt>
      <trkpt lat="45.01214" lon="2.71661">
        <ele>1439.46</ele>
        <time>2022-07-10T08:36:04Z</time>
      </trkpt>
      <trkpt lat="45.01216" lon="2.71662">
        <ele>1439.5</ele>
        <time>2022-07-10T08:36:06Z</time>
      </trkpt>
      <trkpt lat="45.01227" lon="2.71681">
        <ele>1439.88</ele>
        <time>2022-07-10T08:36:21Z</time>
      </trkpt>
      <trkpt lat="45.01232" lon="2.71687">
        <ele>1440.29</ele>
        <time>2022-07-10T08:36:26Z</time>
      </trkpt>
      <trkpt lat="45.01247" lon="2.71706">
        <ele>1441.82</ele>
        <time>2022-07-10T08:36:45Z</time>
      </trkpt>
      <trkpt lat="45.01248" lon="2.71709">
        <ele>1441.97</ele>
        <time>2022-07-10T08:36:47Z</time>
      </trkpt>
      <trkpt lat="45.01251" lon="2.71714">
        <ele>1442.58</ele>
        <time>2022-07-10T08:36:52Z</time>
      </trkpt>
      <trkpt lat="45.01268" lon="2.71728">
        <ele>1444.49</ele>
        <time>2022-07-10T08:37:09Z</time>
      </trkpt>
      <trkpt lat="45.01284" lon="2.7174">
        <ele>1446.61</ele>
        <time>2022-07-10T08:37:26Z</time>
      </trkpt>
      <trkpt lat="45.01295" lon="2.71761">
        <ele>1449.54</ele>
        <time>2022-07-10T08:37:45Z</time>
      </trkpt>
      <trkpt lat="45.0131" lon="2.71779">
        <ele>1451.56</ele>
        <time>2022-07-10T08:38:00Z</time>
      </trkpt>
      <trkpt lat="45.01313" lon="2.71783">
        <ele>1452.86</ele>
        <time>2022-07-10T08:38:07Z</time>
      </trkpt>
      <trkpt lat="45.01328" lon="2.71801">
        <ele>1455.1</ele>
        <time>2022-07-10T08:38:23Z</time>
      </trkpt>
      <trkpt lat="45.01334" lon="2.71815">
        <ele>1456.78</ele>
        <time>2022-07-10T08:38:38Z</time>
      </trkpt>
      <trkpt lat="45.01344" lon="2.71835">
        <ele>1459.15</ele>
        <time>2022-07-10T08:38:54Z</time>
      </trkpt>
      <trkpt lat="45.01353" lon="2.71851">
        <ele>1461.05</ele>
        <time>2022-07-10T08:39:08Z</time>
      </trkpt>
      <trkpt lat="45.01358" lon="2.71862">
        <ele>1462.11</ele>
        <time>2022-07-10T08:39:17Z</time>
      </trkpt>
      <trkpt lat="45.01367" lon="2.71885">
        <ele>1464.52</ele>
        <time>2022-07-10T08:39:37Z</time>
      </trkpt>
      <trkpt lat="45.0138" lon="2.71904">
        <ele>1466.27</ele>
        <time>2022-07-10T08:39:55Z</time>
      </trkpt>
      <trkpt lat="45.01395" lon="2.71926">
        <ele>1468.16</ele>
        <time>2022-07-10T08:40:14Z</time>
      </trkpt>
      <trkpt lat="45.01409" lon="2.71943">
        <ele>1469.96</ele>
        <time>2022-07-10T08:40:31Z</time>
      </trkpt>
      <trkpt lat="45.01419" lon="2.71951">
        <ele>1471.17</ele>
        <time>2022-07-10T08:40:48Z</time>
      </trkpt>
      <trkpt lat="45.01426" lon="2.71966">
        <ele>1472.34</ele>
        <time>2022-07-10T08:41:03Z</time>
      </trkpt>
      <trkpt lat="45.01431" lon="2.71974">
        <ele>1474.02</ele>
        <time>2022-07-10T08:41:21Z</time>
      </trkpt>
      <trkpt lat="45.01447" lon="2.72003">
        <ele>1476.09</ele>
        <time>2022-07-10T08:41:45Z</time>
      </trkpt>
      <trkpt lat="45.01459" lon="2.72022">
        <ele>1478.06</ele>
        <time>2022-07-10T08:42:02Z</time>
      </trkpt>
      <trkpt lat="45.01471" lon="2.7204">
        <ele>1480.54</ele>
        <time>2022-07-10T08:42:19Z</time>
      </trkpt>
      <trkpt lat="45.01478" lon="2.7205">
        <ele>1481.69</ele>
        <time>2022-07-10T08:42:29Z</time>
      </trkpt>
      <trkpt lat="45.01488" lon="2.72068">
        <ele>1484.29</ele>
        <time>2022-07-10T08:42:45Z</time>
      </trkpt>
      <trkpt lat="45.01491" lon="2.72073">
        <ele>1485.41</ele>
        <time>2022-07-10T08:42:51Z</time>
      </trkpt>
      <trkpt lat="45.01498" lon="2.72094">
        <ele>1488.36</ele>
        <time>2022-07-10T08:43:09Z</time>
      </trkpt>
      <trkpt lat="45.01505" lon="2.72107">
        <ele>1489.93</ele>
        <time>2022-07-10T08:43:22Z</time>
      </trkpt>
      <trkpt lat="45.01507" lon="2.72118">
        <ele>1491.45</ele>
        <time>2022-07-10T08:43:32Z</time>
      </trkpt>
      <trkpt lat="45.01516" lon="2.72131">
        <ele>1494.56</ele>
        <time>2022-07-10T08:43:48Z</time>
      </trkpt>
      <trkpt lat="45.01528" lon="2.72151">
        <ele>1497.58</ele>
        <time>2022-07-10T08:44:07Z</time>
      </trkpt>
      <trkpt lat="45.0154" lon="2.72166">
        <ele>1500.32</ele>
        <time>2022-07-10T08:44:24Z</time>
      </trkpt>
      <trkpt lat="45.01557" lon="2.72177">
        <ele>1503.36</ele>
        <time>2022-07-10T08:44:44Z</time>
      </trkpt>
      <trkpt lat="45.01573" lon="2.72193">
        <ele>1506.25</ele>
        <time>2022-07-10T08:45:05Z</time>
      </trkpt>
      <trkpt lat="45.01587" lon="2.72212">
        <ele>1508.58</ele>
        <time>2022-07-10T08:45:24Z</time>
      </trkpt>
      <trkpt lat="45.01609" lon="2.72231">
        <ele>1510.94</ele>
        <time>2022-07-10T08:45:45Z</time>
      </trkpt>
      <trkpt lat="45.0162" lon="2.72243">
        <ele>1514.02</ele>
        <time>2022-07-10T08:46:01Z</time>
      </trkpt>
      <trkpt lat="45.01637" lon="2.72258">
        <ele>1517.07</ele>
        <time>2022-07-10T08:46:23Z</time>
      </trkpt>
      <trkpt lat="45.01636" lon="2.72259">
        <ele>1517.85</ele>
        <time>2022-07-10T08:46:48Z</time>
      </trkpt>
      <trkpt lat="45.01642" lon="2.72265">
        <ele>1517.97</ele>
        <time>2022-07-10T08:46:53Z</time>
      </trkpt>
      <trkpt lat="45.01659" lon="2.72281">
        <ele>1519.18</ele>
        <time>2022-07-10T08:47:11Z</time>
      </trkpt>
      <trkpt lat="45.01678" lon="2.72294">
        <ele>1520.98</ele>
        <time>2022-07-10T08:47:29Z</time>
      </trkpt>
      <trkpt lat="45.01696" lon="2.72309">
        <ele>1523.29</ele>
        <time>2022-07-10T08:47:48Z</time>
      </trkpt>
      <trkpt lat="45.01707" lon="2.72332">
        <ele>1525.07</ele>
        <time>2022-07-10T08:48:05Z</time>
      </trkpt>
      <trkpt lat="45.0172" lon="2.72352">
        <ele>1526.03</ele>
        <time>2022-07-10T08:48:22Z</time>
      </trkpt>
      <trkpt lat="45.01733" lon="2.72369">
        <ele>1526.64</ele>
        <time>2022-07-10T08:48:38Z</time>
      </trkpt>
      <trkpt lat="45.01744" lon="2.72377">
        <ele>1527.88</ele>
        <time>2022-07-10T08:48:50Z</time>
      </trkpt>
      <trkpt lat="45.01754" lon="2.72397">
        <ele>1529.69</ele>
        <time>2022-07-10T08:49:05Z</time>
      </trkpt>
      <trkpt lat="45.01767" lon="2.72409">
        <ele>1532.14</ele>
        <time>2022-07-10T08:49:21Z</time>
      </trkpt>
      <trkpt lat="45.01771" lon="2.72411">
        <ele>1532.25</ele>
        <time>2022-07-10T08:49:25Z</time>
      </trkpt>
      <trkpt lat="45.01779" lon="2.72428">
        <ele>1533.17</ele>
        <time>2022-07-10T08:49:36Z</time>
      </trkpt>
      <trkpt lat="45.01792" lon="2.72451">
        <ele>1533.8</ele>
        <time>2022-07-10T08:49:55Z</time>
      </trkpt>
      <trkpt lat="45.01793" lon="2.72451">
        <ele>1533.8</ele>
        <time>2022-07-10T08:49:56Z</time>
      </trkpt>
      <trkpt lat="45.01801" lon="2.72472">
        <ele>1533.26</ele>
        <time>2022-07-10T08:50:12Z</time>
      </trkpt>
      <trkpt lat="45.01804" lon="2.7248">
        <ele>1532.73</ele>
        <time>2022-07-10T08:50:17Z</time>
      </trkpt>
      <trkpt lat="45.01813" lon="2.72506">
        <ele>1532.39</ele>
        <time>2022-07-10T08:50:33Z</time>
      </trkpt>
      <trkpt lat="45.01818" lon="2.72518">
        <ele>1532.01</ele>
        <time>2022-07-10T08:50:42Z</time>
      </trkpt>
      <trkpt lat="45.01824" lon="2.72538">
        <ele>1531.42</ele>
        <time>2022-07-10T08:50:55Z</time>
      </trkpt>
      <trkpt lat="45.01828" lon="2.72552">
        <ele>1530.65</ele>
        <time>2022-07-10T08:51:05Z</time>
      </trkpt>
      <trkpt lat="45.01835" lon="2.72576">
        <ele>1529.36</ele>
        <time>2022-07-10T08:51:19Z</time>
      </trkpt>
      <trkpt lat="45.01844" lon="2.72604">
        <ele>1527.25</ele>
        <time>2022-07-10T08:51:36Z</time>
      </trkpt>
      <trkpt lat="45.01854" lon="2.72632">
        <ele>1525.66</ele>
        <time>2022-07-10T08:51:55Z</time>
      </trkpt>
      <trkpt lat="45.01865" lon="2.72658">
        <ele>1524.06</ele>
        <time>2022-07-10T08:52:13Z</time>
      </trkpt>
      <trkpt lat="45.01876" lon="2.72685">
        <ele>1523.58</ele>
        <time>2022-07-10T08:52:31Z</time>
      </trkpt>
      <trkpt lat="45.01879" lon="2.7269">
        <ele>1523.55</ele>
        <time>2022-07-10T08:52:34Z</time>
      </trkpt>
      <trkpt lat="45.01889" lon="2.72708">
        <ele>1522.46</ele>
        <time>2022-07-10T08:52:51Z</time>
      </trkpt>
      <trkpt lat="45.01904" lon="2.72736">
        <ele>1522.35</ele>
        <time>2022-07-10T08:53:12Z</time>
      </trkpt>
      <trkpt lat="45.01918" lon="2.72761">
        <ele>1523.06</ele>
        <time>2022-07-10T08:53:30Z</time>
      </trkpt>
      <trkpt lat="45.01932" lon="2.72789">
        <ele>1524.09</ele>
        <time>2022-07-10T08:53:49Z</time>
      </trkpt>
      <trkpt lat="45.01944" lon="2.72805">
        <ele>1525.22</ele>
        <time>2022-07-10T08:54:03Z</time>
      </trkpt>
      <trkpt lat="45.01952" lon="2.72812">
        <ele>1525.53</ele>
        <time>2022-07-10T08:54:10Z</time>
      </trkpt>
      <trkpt lat="45.01966" lon="2.72829">
        <ele>1526.69</ele>
        <time>2022-07-10T08:54:27Z</time>
      </trkpt>
      <trkpt lat="45.01967" lon="2.72831">
        <ele>1526.75</ele>
        <time>2022-07-10T08:54:28Z</time>
      </trkpt>
      <trkpt lat="45.01987" lon="2.72849">
        <ele>1528.26</ele>
        <time>2022-07-10T08:54:50Z</time>
      </trkpt>
      <trkpt lat="45.02" lon="2.72863">
        <ele>1529.42</ele>
        <time>2022-07-10T08:55:09Z</time>
      </trkpt>
      <trkpt lat="45.02014" lon="2.72884">
        <ele>1531.27</ele>
        <time>2022-07-10T08:55:25Z</time>
      </trkpt>
      <trkpt lat="45.02032" lon="2.72902">
        <ele>1531.9</ele>
        <time>2022-07-10T08:55:43Z</time>
      </trkpt>
      <trkpt lat="45.02053" lon="2.72916">
        <ele>1534.03</ele>
        <time>2022-07-10T08:56:02Z</time>
      </trkpt>
      <trkpt lat="45.02068" lon="2.72927">
        <ele>1535.44</ele>
        <time>2022-07-10T08:56:19Z</time>
      </trkpt>
      <trkpt lat="45.02079" lon="2.72929">
        <ele>1537.04</ele>
        <time>2022-07-10T08:56:36Z</time>
      </trkpt>
      <trkpt lat="45.02078" lon="2.72934">
        <ele>1538.29</ele>
        <time>2022-07-10T08:56:44Z</time>
      </trkpt>
      <trkpt lat="45.02083" lon="2.72941">
        <ele>1538.17</ele>
        <time>2022-07-10T08:56:51Z</time>
      </trkpt>
      <trkpt lat="45.02095" lon="2.72955">
        <ele>1537.15</ele>
        <time>2022-07-10T08:57:07Z</time>
      </trkpt>
      <trkpt lat="45.02098" lon="2.72959">
        <ele>1538.7</ele>
        <time>2022-07-10T08:57:10Z</time>
      </trkpt>
      <trkpt lat="45.0211" lon="2.72973">
        <ele>1539.69</ele>
        <time>2022-07-10T08:57:24Z</time>
      </trkpt>
      <trkpt lat="45.02119" lon="2.72982">
        <ele>1540.37</ele>
        <time>2022-07-10T08:57:33Z</time>
      </trkpt>
      <trkpt lat="45.02127" lon="2.7298">
        <ele>1542</ele>
        <time>2022-07-10T08:57:47Z</time>
      </trkpt>
      <trkpt lat="45.0212" lon="2.72985">
        <ele>1542.41</ele>
        <time>2022-07-10T08:58:01Z</time>
      </trkpt>
      <trkpt lat="45.02122" lon="2.72979">
        <ele>1542.05</ele>
        <time>2022-07-10T08:58:24Z</time>
      </trkpt>
      <trkpt lat="45.02122" lon="2.72951">
        <ele>1541.37</ele>
        <time>2022-07-10T08:58:40Z</time>
      </trkpt>
      <trkpt lat="45.02114" lon="2.72928">
        <ele>1539.74</ele>
        <time>2022-07-10T08:58:55Z</time>
      </trkpt>
      <trkpt lat="45.02107" lon="2.72917">
        <ele>1537.33</ele>
        <time>2022-07-10T08:59:08Z</time>
      </trkpt>
      <trkpt lat="45.02106" lon="2.7292">
        <ele>1536.37</ele>
        <time>2022-07-10T08:59:38Z</time>
      </trkpt>
      <trkpt lat="45.02108" lon="2.72918">
        <ele>1535.64</ele>
        <time>2022-07-10T08:59:54Z</time>
      </trkpt>
      <trkpt lat="45.02111" lon="2.72916">
        <ele>1535.97</ele>
        <time>2022-07-10T09:00:11Z</time>
      </trkpt>
      <trkpt lat="45.02112" lon="2.72915">
        <ele>1535.76</ele>
        <time>2022-07-10T09:00:37Z</time>
      </trkpt>
      <trkpt lat="45.02114" lon="2.7291">
        <ele>1535.92</ele>
        <time>2022-07-10T09:01:05Z</time>
      </trkpt>
      <trkpt lat="45.02116" lon="2.72911">
        <ele>1535.84</ele>
        <time>2022-07-10T09:01:22Z</time>
      </trkpt>
      <trkpt lat="45.021" lon="2.729">
        <ele>1534.27</ele>
        <time>2022-07-10T09:03:50Z</time>
      </trkpt>
      <trkpt lat="45.02093" lon="2.72889">
        <ele>1533.6</ele>
        <time>2022-07-10T09:03:59Z</time>
      </trkpt>
      <trkpt lat="45.02099" lon="2.72874">
        <ele>1531.87</ele>
        <time>2022-07-10T09:04:10Z</time>
      </trkpt>
      <trkpt lat="45.02104" lon="2.72873">
        <ele>1531.21</ele>
        <time>2022-07-10T09:04:14Z</time>
      </trkpt>
      <trkpt lat="45.0211" lon="2.72871">
        <ele>1529.89</ele>
        <time>2022-07-10T09:04:21Z</time>
      </trkpt>
      <trkpt lat="45.02118" lon="2.72871">
        <ele>1528.88</ele>
        <time>2022-07-10T09:04:29Z</time>
      </trkpt>
      <trkpt lat="45.02123" lon="2.72871">
        <ele>1527.92</ele>
        <time>2022-07-10T09:04:34Z</time>
      </trkpt>
      <trkpt lat="45.02141" lon="2.72872">
        <ele>1525.66</ele>
        <time>2022-07-10T09:04:50Z</time>
      </trkpt>
      <trkpt lat="45.02141" lon="2.72873">
        <ele>1525.59</ele>
        <time>2022-07-10T09:05:13Z</time>
      </trkpt>
      <trkpt lat="45.02145" lon="2.72873">
        <ele>1525.5</ele>
        <time>2022-07-10T09:05:22Z</time>
      </trkpt>
      <trkpt lat="45.0215" lon="2.72872">
        <ele>1525.31</ele>
        <time>2022-07-10T09:05:26Z</time>
      </trkpt>
      <trkpt lat="45.02171" lon="2.72873">
        <ele>1522.95</ele>
        <time>2022-07-10T09:05:44Z</time>
      </trkpt>
      <trkpt lat="45.02191" lon="2.7288">
        <ele>1519.94</ele>
        <time>2022-07-10T09:06:00Z</time>
      </trkpt>
      <trkpt lat="45.02198" lon="2.72882">
        <ele>1518.08</ele>
        <time>2022-07-10T09:06:08Z</time>
      </trkpt>
      <trkpt lat="45.02205" lon="2.72885">
        <ele>1515.95</ele>
        <time>2022-07-10T09:06:20Z</time>
      </trkpt>
      <trkpt lat="45.02215" lon="2.72885">
        <ele>1512.38</ele>
        <time>2022-07-10T09:06:31Z</time>
      </trkpt>
      <trkpt lat="45.02216" lon="2.72885">
        <ele>1512.14</ele>
        <time>2022-07-10T09:06:32Z</time>
      </trkpt>
      <trkpt lat="45.02229" lon="2.72886">
        <ele>1508.99</ele>
        <time>2022-07-10T09:06:45Z</time>
      </trkpt>
      <trkpt lat="45.02238" lon="2.72886">
        <ele>1505.82</ele>
        <time>2022-07-10T09:06:57Z</time>
      </trkpt>
      <trkpt lat="45.02255" lon="2.72892">
        <ele>1502.8</ele>
        <time>2022-07-10T09:07:13Z</time>
      </trkpt>
      <trkpt lat="45.02274" lon="2.72899">
        <ele>1499.86</ele>
        <time>2022-07-10T09:07:30Z</time>
      </trkpt>
      <trkpt lat="45.02288" lon="2.72904">
        <ele>1498.04</ele>
        <time>2022-07-10T09:07:45Z</time>
      </trkpt>
      <trkpt lat="45.02293" lon="2.72905">
        <ele>1497.61</ele>
        <time>2022-07-10T09:07:49Z</time>
      </trkpt>
      <trkpt lat="45.02311" lon="2.72909">
        <ele>1496.23</ele>
        <time>2022-07-10T09:08:05Z</time>
      </trkpt>
      <trkpt lat="45.02333" lon="2.72917">
        <ele>1495.03</ele>
        <time>2022-07-10T09:08:22Z</time>
      </trkpt>
      <trkpt lat="45.02347" lon="2.72922">
        <ele>1494.76</ele>
        <time>2022-07-10T09:08:36Z</time>
      </trkpt>
      <trkpt lat="45.02362" lon="2.72924">
        <ele>1493.19</ele>
        <time>2022-07-10T09:08:52Z</time>
      </trkpt>
      <trkpt lat="45.02385" lon="2.72924">
        <ele>1490.18</ele>
        <time>2022-07-10T09:09:13Z</time>
      </trkpt>
      <trkpt lat="45.02397" lon="2.72924">
        <ele>1489.81</ele>
        <time>2022-07-10T09:09:22Z</time>
      </trkpt>
      <trkpt lat="45.02413" lon="2.72917">
        <ele>1489.08</ele>
        <time>2022-07-10T09:09:41Z</time>
      </trkpt>
      <trkpt lat="45.02432" lon="2.72904">
        <ele>1486.7</ele>
        <time>2022-07-10T09:10:04Z</time>
      </trkpt>
      <trkpt lat="45.0245" lon="2.72894">
        <ele>1485.11</ele>
        <time>2022-07-10T09:10:23Z</time>
      </trkpt>
      <trkpt lat="45.0246" lon="2.72888">
        <ele>1484.99</ele>
        <time>2022-07-10T09:10:32Z</time>
      </trkpt>
      <trkpt lat="45.02487" lon="2.72873">
        <ele>1484.06</ele>
        <time>2022-07-10T09:10:54Z</time>
      </trkpt>
      <trkpt lat="45.02504" lon="2.72863">
        <ele>1482.5</ele>
        <time>2022-07-10T09:11:11Z</time>
      </trkpt>
      <trkpt lat="45.02515" lon="2.72853">
        <ele>1480.09</ele>
        <time>2022-07-10T09:11:25Z</time>
      </trkpt>
      <trkpt lat="45.02533" lon="2.7284">
        <ele>1477.76</ele>
        <time>2022-07-10T09:11:42Z</time>
      </trkpt>
      <trkpt lat="45.02549" lon="2.72827">
        <ele>1475.95</ele>
        <time>2022-07-10T09:11:57Z</time>
      </trkpt>
      <trkpt lat="45.02566" lon="2.72811">
        <ele>1474.65</ele>
        <time>2022-07-10T09:12:15Z</time>
      </trkpt>
      <trkpt lat="45.02569" lon="2.72807">
        <ele>1474.31</ele>
        <time>2022-07-10T09:12:19Z</time>
      </trkpt>
      <trkpt lat="45.02583" lon="2.72797">
        <ele>1473.87</ele>
        <time>2022-07-10T09:12:32Z</time>
      </trkpt>
      <trkpt lat="45.026" lon="2.72787">
        <ele>1473.74</ele>
        <time>2022-07-10T09:12:47Z</time>
      </trkpt>
      <trkpt lat="45.02607" lon="2.72783">
        <ele>1473.82</ele>
        <time>2022-07-10T09:12:53Z</time>
      </trkpt>
      <trkpt lat="45.02618" lon="2.72766">
        <ele>1474.15</ele>
        <time>2022-07-10T09:13:10Z</time>
      </trkpt>
      <trkpt lat="45.02636" lon="2.72748">
        <ele>1474.05</ele>
        <time>2022-07-10T09:13:28Z</time>
      </trkpt>
      <trkpt lat="45.02648" lon="2.72733">
        <ele>1473.51</ele>
        <time>2022-07-10T09:13:44Z</time>
      </trkpt>
      <trkpt lat="45.02669" lon="2.7271">
        <ele>1473.23</ele>
        <time>2022-07-10T09:14:05Z</time>
      </trkpt>
      <trkpt lat="45.02683" lon="2.72694">
        <ele>1473.24</ele>
        <time>2022-07-10T09:14:21Z</time>
      </trkpt>
      <trkpt lat="45.02694" lon="2.72677">
        <ele>1471.38</ele>
        <time>2022-07-10T09:14:38Z</time>
      </trkpt>
      <trkpt lat="45.02698" lon="2.72659">
        <ele>1468.91</ele>
        <time>2022-07-10T09:14:54Z</time>
      </trkpt>
      <trkpt lat="45.02701" lon="2.72646">
        <ele>1467.13</ele>
        <time>2022-07-10T09:15:11Z</time>
      </trkpt>
      <trkpt lat="45.02705" lon="2.72619">
        <ele>1464</ele>
        <time>2022-07-10T09:15:33Z</time>
      </trkpt>
      <trkpt lat="45.02709" lon="2.72599">
        <ele>1461.35</ele>
        <time>2022-07-10T09:15:49Z</time>
      </trkpt>
      <trkpt lat="45.02716" lon="2.72582">
        <ele>1459.12</ele>
        <time>2022-07-10T09:16:04Z</time>
      </trkpt>
      <trkpt lat="45.02722" lon="2.72567">
        <ele>1455.92</ele>
        <time>2022-07-10T09:16:18Z</time>
      </trkpt>
      <trkpt lat="45.02726" lon="2.72551">
        <ele>1452.91</ele>
        <time>2022-07-10T09:16:31Z</time>
      </trkpt>
      <trkpt lat="45.02727" lon="2.72538">
        <ele>1449.62</ele>
        <time>2022-07-10T09:16:43Z</time>
      </trkpt>
      <trkpt lat="45.02727" lon="2.72521">
        <ele>1446.55</ele>
        <time>2022-07-10T09:16:56Z</time>
      </trkpt>
      <trkpt lat="45.02728" lon="2.72505">
        <ele>1443.39</ele>
        <time>2022-07-10T09:17:10Z</time>
      </trkpt>
      <trkpt lat="45.02731" lon="2.72487">
        <ele>1440.33</ele>
        <time>2022-07-10T09:17:24Z</time>
      </trkpt>
      <trkpt lat="45.02732" lon="2.7248">
        <ele>1438.27</ele>
        <time>2022-07-10T09:17:29Z</time>
      </trkpt>
      <trkpt lat="45.02735" lon="2.72456">
        <ele>1435.66</ele>
        <time>2022-07-10T09:17:47Z</time>
      </trkpt>
      <trkpt lat="45.02738" lon="2.72431">
        <ele>1433.39</ele>
        <time>2022-07-10T09:18:04Z</time>
      </trkpt>
      <trkpt lat="45.02739" lon="2.72426">
        <ele>1430.83</ele>
        <time>2022-07-10T09:18:21Z</time>
      </trkpt>
      <trkpt lat="45.02743" lon="2.72406">
        <ele>1430.18</ele>
        <time>2022-07-10T09:18:53Z</time>
      </trkpt>
      <trkpt lat="45.02748" lon="2.72381">
        <ele>1427.33</ele>
        <time>2022-07-10T09:19:12Z</time>
      </trkpt>
      <trkpt lat="45.02755" lon="2.72363">
        <ele>1424.13</ele>
        <time>2022-07-10T09:19:29Z</time>
      </trkpt>
      <trkpt lat="45.02759" lon="2.72354">
        <ele>1422.86</ele>
        <time>2022-07-10T09:19:36Z</time>
      </trkpt>
      <trkpt lat="45.02768" lon="2.72331">
        <ele>1419.41</ele>
        <time>2022-07-10T09:19:54Z</time>
      </trkpt>
      <trkpt lat="45.02769" lon="2.72313">
        <ele>1416.47</ele>
        <time>2022-07-10T09:20:10Z</time>
      </trkpt>
      <trkpt lat="45.0277" lon="2.72296">
        <ele>1413.97</ele>
        <time>2022-07-10T09:20:24Z</time>
      </trkpt>
      <trkpt lat="45.02771" lon="2.72271">
        <ele>1411.26</ele>
        <time>2022-07-10T09:20:42Z</time>
      </trkpt>
      <trkpt lat="45.02773" lon="2.72249">
        <ele>1408.22</ele>
        <time>2022-07-10T09:20:59Z</time>
      </trkpt>
      <trkpt lat="45.02775" lon="2.72227">
        <ele>1405.18</ele>
        <time>2022-07-10T09:21:19Z</time>
      </trkpt>
      <trkpt lat="45.02771" lon="2.72209">
        <ele>1402.16</ele>
        <time>2022-07-10T09:21:34Z</time>
      </trkpt>
      <trkpt lat="45.02771" lon="2.72186">
        <ele>1398.97</ele>
        <time>2022-07-10T09:21:53Z</time>
      </trkpt>
      <trkpt lat="45.02771" lon="2.72163">
        <ele>1395.93</ele>
        <time>2022-07-10T09:22:11Z</time>
      </trkpt>
      <trkpt lat="45.02767" lon="2.72146">
        <ele>1392.87</ele>
        <time>2022-07-10T09:22:25Z</time>
      </trkpt>
      <trkpt lat="45.0277" lon="2.72122">
        <ele>1389.84</ele>
        <time>2022-07-10T09:22:46Z</time>
      </trkpt>
      <trkpt lat="45.02775" lon="2.72106">
        <ele>1386.7</ele>
        <time>2022-07-10T09:23:03Z</time>
      </trkpt>
      <trkpt lat="45.02771" lon="2.72087">
        <ele>1383.63</ele>
        <time>2022-07-10T09:23:22Z</time>
      </trkpt>
      <trkpt lat="45.02767" lon="2.72083">
        <ele>1381.85</ele>
        <time>2022-07-10T09:23:43Z</time>
      </trkpt>
      <trkpt lat="45.02749" lon="2.72062">
        <ele>1379.46</ele>
        <time>2022-07-10T09:24:31Z</time>
      </trkpt>
      <trkpt lat="45.02741" lon="2.72054">
        <ele>1376.45</ele>
        <time>2022-07-10T09:24:44Z</time>
      </trkpt>
      <trkpt lat="45.02726" lon="2.72048">
        <ele>1373.23</ele>
        <time>2022-07-10T09:25:01Z</time>
      </trkpt>
      <trkpt lat="45.02718" lon="2.72046">
        <ele>1371.82</ele>
        <time>2022-07-10T09:25:09Z</time>
      </trkpt>
      <trkpt lat="45.02695" lon="2.72044">
        <ele>1369.02</ele>
        <time>2022-07-10T09:25:31Z</time>
      </trkpt>
      <trkpt lat="45.02681" lon="2.72025">
        <ele>1365.99</ele>
        <time>2022-07-10T09:25:53Z</time>
      </trkpt>
      <trkpt lat="45.02682" lon="2.72014">
        <ele>1362.96</ele>
        <time>2022-07-10T09:26:05Z</time>
      </trkpt>
      <trkpt lat="45.0269" lon="2.71996">
        <ele>1359.75</ele>
        <time>2022-07-10T09:26:23Z</time>
      </trkpt>
      <trkpt lat="45.02691" lon="2.71995">
        <ele>1359.3</ele>
        <time>2022-07-10T09:26:25Z</time>
      </trkpt>
      <trkpt lat="45.0271" lon="2.71878">
        <ele>1332.85</ele>
        <time>2022-07-10T09:28:53Z</time>
      </trkpt>
      <trkpt lat="45.02717" lon="2.71871">
        <ele>1331.42</ele>
        <time>2022-07-10T09:29:03Z</time>
      </trkpt>
      <trkpt lat="45.02735" lon="2.71841">
        <ele>1328.22</ele>
        <time>2022-07-10T09:29:29Z</time>
      </trkpt>
      <trkpt lat="45.02742" lon="2.71817">
        <ele>1325.3</ele>
        <time>2022-07-10T09:29:47Z</time>
      </trkpt>
      <trkpt lat="45.02749" lon="2.71794">
        <ele>1322.14</ele>
        <time>2022-07-10T09:30:05Z</time>
      </trkpt>
      <trkpt lat="45.0275" lon="2.71791">
        <ele>1321.7</ele>
        <time>2022-07-10T09:30:08Z</time>
      </trkpt>
      <trkpt lat="45.02755" lon="2.71773">
        <ele>1318.45</ele>
        <time>2022-07-10T09:30:25Z</time>
      </trkpt>
      <trkpt lat="45.02756" lon="2.71764">
        <ele>1315.44</ele>
        <time>2022-07-10T09:30:37Z</time>
      </trkpt>
      <trkpt lat="45.02757" lon="2.71762">
        <ele>1315.09</ele>
        <time>2022-07-10T09:30:46Z</time>
      </trkpt>
      <trkpt lat="45.02758" lon="2.71756">
        <ele>1315.07</ele>
        <time>2022-07-10T09:30:50Z</time>
      </trkpt>
      <trkpt lat="45.02754" lon="2.71743">
        <ele>1313.59</ele>
        <time>2022-07-10T09:31:05Z</time>
      </trkpt>
      <trkpt lat="45.0275" lon="2.71739">
        <ele>1312.98</ele>
        <time>2022-07-10T09:31:22Z</time>
      </trkpt>
      <trkpt lat="45.02754" lon="2.71742">
        <ele>1312.97</ele>
        <time>2022-07-10T09:31:26Z</time>
      </trkpt>
      <trkpt lat="45.0276" lon="2.71754">
        <ele>1312.27</ele>
        <time>2022-07-10T09:31:37Z</time>
      </trkpt>
      <trkpt lat="45.02769" lon="2.71748">
        <ele>1312.28</ele>
        <time>2022-07-10T09:31:54Z</time>
      </trkpt>
      <trkpt lat="45.02789" lon="2.71734">
        <ele>1309.15</ele>
        <time>2022-07-10T09:32:22Z</time>
      </trkpt>
      <trkpt lat="45.02803" lon="2.71727">
        <ele>1306.11</ele>
        <time>2022-07-10T09:32:36Z</time>
      </trkpt>
      <trkpt lat="45.02815" lon="2.71725">
        <ele>1304.12</ele>
        <time>2022-07-10T09:32:59Z</time>
      </trkpt>
      <trkpt lat="45.02818" lon="2.71725">
        <ele>1303.95</ele>
        <time>2022-07-10T09:33:18Z</time>
      </trkpt>
      <trkpt lat="45.02821" lon="2.71778">
        <ele>1308.62</ele>
        <time>2022-07-10T09:35:20Z</time>
      </trkpt>
      <trkpt lat="45.02825" lon="2.71802">
        <ele>1311.69</ele>
        <time>2022-07-10T09:35:38Z</time>
      </trkpt>
      <trkpt lat="45.02828" lon="2.71829">
        <ele>1314.74</ele>
        <time>2022-07-10T09:35:58Z</time>
      </trkpt>
      <trkpt lat="45.02845" lon="2.71853">
        <ele>1316.04</ele>
        <time>2022-07-10T09:36:20Z</time>
      </trkpt>
      <trkpt lat="45.02857" lon="2.71882">
        <ele>1316.97</ele>
        <time>2022-07-10T09:36:41Z</time>
      </trkpt>
      <trkpt lat="45.02871" lon="2.71897">
        <ele>1316.46</ele>
        <time>2022-07-10T09:36:56Z</time>
      </trkpt>
      <trkpt lat="45.02871" lon="2.71904">
        <ele>1315.47</ele>
        <time>2022-07-10T09:37:04Z</time>
      </trkpt>
      <trkpt lat="45.02875" lon="2.71909">
        <ele>1315.4</ele>
        <time>2022-07-10T09:37:19Z</time>
      </trkpt>
      <trkpt lat="45.02885" lon="2.71917">
        <ele>1315.67</ele>
        <time>2022-07-10T09:37:38Z</time>
      </trkpt>
      <trkpt lat="45.02887" lon="2.7192">
        <ele>1315.71</ele>
        <time>2022-07-10T09:37:42Z</time>
      </trkpt>
      <trkpt lat="45.02897" lon="2.71924">
        <ele>1315.73</ele>
        <time>2022-07-10T09:38:03Z</time>
      </trkpt>
      <trkpt lat="45.02896" lon="2.71922">
        <ele>1315.61</ele>
        <time>2022-07-10T09:38:16Z</time>
      </trkpt>
      <trkpt lat="45.02905" lon="2.71928">
        <ele>1315.62</ele>
        <time>2022-07-10T09:38:39Z</time>
      </trkpt>
      <trkpt lat="45.02914" lon="2.7194">
        <ele>1315.74</ele>
        <time>2022-07-10T09:38:55Z</time>
      </trkpt>
      <trkpt lat="45.02917" lon="2.71953">
        <ele>1315.74</ele>
        <time>2022-07-10T09:39:05Z</time>
      </trkpt>
      <trkpt lat="45.0292" lon="2.71963">
        <ele>1316.16</ele>
        <time>2022-07-10T09:39:14Z</time>
      </trkpt>
      <trkpt lat="45.02924" lon="2.71969">
        <ele>1316.26</ele>
        <time>2022-07-10T09:39:18Z</time>
      </trkpt>
      <trkpt lat="45.02926" lon="2.72003">
        <ele>1318.66</ele>
        <time>2022-07-10T09:39:41Z</time>
      </trkpt>
      <trkpt lat="45.02927" lon="2.72005">
        <ele>1318.98</ele>
        <time>2022-07-10T09:39:43Z</time>
      </trkpt>
      <trkpt lat="45.02928" lon="2.72024">
        <ele>1320.94</ele>
        <time>2022-07-10T09:40:03Z</time>
      </trkpt>
      <trkpt lat="45.02929" lon="2.72063">
        <ele>1321.58</ele>
        <time>2022-07-10T09:40:26Z</time>
      </trkpt>
      <trkpt lat="45.0293" lon="2.72081">
        <ele>1321.95</ele>
        <time>2022-07-10T09:40:41Z</time>
      </trkpt>
      <trkpt lat="45.02928" lon="2.72123">
        <ele>1322.02</ele>
        <time>2022-07-10T09:41:00Z</time>
      </trkpt>
      <trkpt lat="45.02932" lon="2.72152">
        <ele>1322.04</ele>
        <time>2022-07-10T09:41:17Z</time>
      </trkpt>
      <trkpt lat="45.02934" lon="2.72165">
        <ele>1322.14</ele>
        <time>2022-07-10T09:41:27Z</time>
      </trkpt>
      <trkpt lat="45.02936" lon="2.72172">
        <ele>1322.19</ele>
        <time>2022-07-10T09:41:33Z</time>
      </trkpt>
      <trkpt lat="45.02936" lon="2.72176">
        <ele>1322.35</ele>
        <time>2022-07-10T09:41:39Z</time>
      </trkpt>
      <trkpt lat="45.02932" lon="2.72179">
        <ele>1322.35</ele>
        <time>2022-07-10T09:41:51Z</time>
      </trkpt>
      <trkpt lat="45.02934" lon="2.72181">
        <ele>1322.1</ele>
        <time>2022-07-10T09:41:58Z</time>
      </trkpt>
      <trkpt lat="45.02933" lon="2.72189">
        <ele>1322.1</ele>
        <time>2022-07-10T09:42:02Z</time>
      </trkpt>
      <trkpt lat="45.02944" lon="2.72208">
        <ele>1321.97</ele>
        <time>2022-07-10T09:42:16Z</time>
      </trkpt>
      <trkpt lat="45.0295" lon="2.72219">
        <ele>1321.92</ele>
        <time>2022-07-10T09:42:23Z</time>
      </trkpt>
      <trkpt lat="45.02944" lon="2.72227">
        <ele>1321.92</ele>
        <time>2022-07-10T09:42:28Z</time>
      </trkpt>
      <trkpt lat="45.02942" lon="2.7223">
        <ele>1321.9</ele>
        <time>2022-07-10T09:42:31Z</time>
      </trkpt>
      <trkpt lat="45.02951" lon="2.72238">
        <ele>1320.76</ele>
        <time>2022-07-10T09:42:41Z</time>
      </trkpt>
      <trkpt lat="45.02958" lon="2.72247">
        <ele>1320.5</ele>
        <time>2022-07-10T09:42:47Z</time>
      </trkpt>
      <trkpt lat="45.02961" lon="2.72251">
        <ele>1320.27</ele>
        <time>2022-07-10T09:42:50Z</time>
      </trkpt>
      <trkpt lat="45.02961" lon="2.72254">
        <ele>1319.82</ele>
        <time>2022-07-10T09:42:53Z</time>
      </trkpt>
      <trkpt lat="45.02959" lon="2.7226">
        <ele>1319.6</ele>
        <time>2022-07-10T09:43:01Z</time>
      </trkpt>
      <trkpt lat="45.02962" lon="2.72262">
        <ele>1319.65</ele>
        <time>2022-07-10T09:43:04Z</time>
      </trkpt>
      <trkpt lat="45.02963" lon="2.72267">
        <ele>1320.03</ele>
        <time>2022-07-10T09:43:09Z</time>
      </trkpt>
      <trkpt lat="45.0296" lon="2.72272">
        <ele>1320.09</ele>
        <time>2022-07-10T09:43:12Z</time>
      </trkpt>
      <trkpt lat="45.02956" lon="2.7228">
        <ele>1320.34</ele>
        <time>2022-07-10T09:43:17Z</time>
      </trkpt>
      <trkpt lat="45.0296" lon="2.72285">
        <ele>1320.94</ele>
        <time>2022-07-10T09:43:23Z</time>
      </trkpt>
      <trkpt lat="45.02959" lon="2.72292">
        <ele>1321.44</ele>
        <time>2022-07-10T09:43:28Z</time>
      </trkpt>
      <trkpt lat="45.02963" lon="2.72295">
        <ele>1322.21</ele>
        <time>2022-07-10T09:43:35Z</time>
      </trkpt>
      <trkpt lat="45.02961" lon="2.72298">
        <ele>1323.09</ele>
        <time>2022-07-10T09:43:42Z</time>
      </trkpt>
      <trkpt lat="45.02961" lon="2.72309">
        <ele>1323.38</ele>
        <time>2022-07-10T09:43:49Z</time>
      </trkpt>
      <trkpt lat="45.02965" lon="2.72307">
        <ele>1323.43</ele>
        <time>2022-07-10T09:43:54Z</time>
      </trkpt>
      <trkpt lat="45.02979" lon="2.7231">
        <ele>1323.51</ele>
        <time>2022-07-10T09:44:08Z</time>
      </trkpt>
      <trkpt lat="45.02982" lon="2.72312">
        <ele>1324</ele>
        <time>2022-07-10T09:44:15Z</time>
      </trkpt>
      <trkpt lat="45.03031" lon="2.72395">
        <ele>1328.56</ele>
        <time>2022-07-10T09:45:11Z</time>
      </trkpt>
      <trkpt lat="45.03034" lon="2.72411">
        <ele>1329.74</ele>
        <time>2022-07-10T09:45:20Z</time>
      </trkpt>
      <trkpt lat="45.03039" lon="2.72428">
        <ele>1331.74</ele>
        <time>2022-07-10T09:45:36Z</time>
      </trkpt>
      <trkpt lat="45.03037" lon="2.72428">
        <ele>1332.46</ele>
        <time>2022-07-10T09:45:41Z</time>
      </trkpt>
      <trkpt lat="45.03037" lon="2.72462">
        <ele>1335.57</ele>
        <time>2022-07-10T09:46:04Z</time>
      </trkpt>
      <trkpt lat="45.03042" lon="2.72491">
        <ele>1336.86</ele>
        <time>2022-07-10T09:46:23Z</time>
      </trkpt>
      <trkpt lat="45.03048" lon="2.72522">
        <ele>1336.9</ele>
        <time>2022-07-10T09:46:45Z</time>
      </trkpt>
      <trkpt lat="45.0305" lon="2.72528">
        <ele>1336.54</ele>
        <time>2022-07-10T09:46:51Z</time>
      </trkpt>
      <trkpt lat="45.03067" lon="2.72573">
        <ele>1334.27</ele>
        <time>2022-07-10T09:48:02Z</time>
      </trkpt>
      <trkpt lat="45.03072" lon="2.72598">
        <ele>1333.19</ele>
        <time>2022-07-10T09:48:23Z</time>
      </trkpt>
      <trkpt lat="45.0307" lon="2.72618">
        <ele>1334.63</ele>
        <time>2022-07-10T09:48:36Z</time>
      </trkpt>
      <trkpt lat="45.03085" lon="2.7274">
        <ele>1346.34</ele>
        <time>2022-07-10T09:50:03Z</time>
      </trkpt>
      <trkpt lat="45.03088" lon="2.72774">
        <ele>1349.55</ele>
        <time>2022-07-10T09:50:29Z</time>
      </trkpt>
      <trkpt lat="45.03085" lon="2.72791">
        <ele>1351.43</ele>
        <time>2022-07-10T09:50:42Z</time>
      </trkpt>
      <trkpt lat="45.03081" lon="2.72816">
        <ele>1355.39</ele>
        <time>2022-07-10T09:51:07Z</time>
      </trkpt>
      <trkpt lat="45.03076" lon="2.72822">
        <ele>1356.86</ele>
        <time>2022-07-10T09:51:13Z</time>
      </trkpt>
      <trkpt lat="45.03059" lon="2.72911">
        <ele>1370.13</ele>
        <time>2022-07-10T09:52:38Z</time>
      </trkpt>
      <trkpt lat="45.03052" lon="2.72927">
        <ele>1372.33</ele>
        <time>2022-07-10T09:52:51Z</time>
      </trkpt>
      <trkpt lat="45.03049" lon="2.72934">
        <ele>1372.97</ele>
        <time>2022-07-10T09:52:58Z</time>
      </trkpt>
      <trkpt lat="45.03047" lon="2.72945">
        <ele>1374.93</ele>
        <time>2022-07-10T09:53:07Z</time>
      </trkpt>
      <trkpt lat="45.03051" lon="2.73022">
        <ele>1386.02</ele>
        <time>2022-07-10T09:54:29Z</time>
      </trkpt>
      <trkpt lat="45.03053" lon="2.73023">
        <ele>1386.53</ele>
        <time>2022-07-10T09:54:37Z</time>
      </trkpt>
      <trkpt lat="45.03183" lon="2.73132">
        <ele>1404.78</ele>
        <time>2022-07-10T09:57:13Z</time>
      </trkpt>
      <trkpt lat="45.03186" lon="2.73133">
        <ele>1405.37</ele>
        <time>2022-07-10T09:57:15Z</time>
      </trkpt>
      <trkpt lat="45.03188" lon="2.73133">
        <ele>1406.01</ele>
        <time>2022-07-10T09:57:17Z</time>
      </trkpt>
      <trkpt lat="45.03194" lon="2.73135">
        <ele>1407.28</ele>
        <time>2022-07-10T09:57:24Z</time>
      </trkpt>
      <trkpt lat="45.03202" lon="2.73137">
        <ele>1408.74</ele>
        <time>2022-07-10T09:57:33Z</time>
      </trkpt>
      <trkpt lat="45.03291" lon="2.73095">
        <ele>1418.02</ele>
        <time>2022-07-10T09:59:13Z</time>
      </trkpt>
      <trkpt lat="45.03314" lon="2.73071">
        <ele>1420.78</ele>
        <time>2022-07-10T09:59:41Z</time>
      </trkpt>
      <trkpt lat="45.03323" lon="2.7306">
        <ele>1420.84</ele>
        <time>2022-07-10T09:59:51Z</time>
      </trkpt>
      <trkpt lat="45.03343" lon="2.73032">
        <ele>1421.43</ele>
        <time>2022-07-10T10:00:16Z</time>
      </trkpt>
      <trkpt lat="45.03363" lon="2.73007">
        <ele>1424.03</ele>
        <time>2022-07-10T10:00:39Z</time>
      </trkpt>
      <trkpt lat="45.03386" lon="2.7298">
        <ele>1422.11</ele>
        <time>2022-07-10T10:01:04Z</time>
      </trkpt>
      <trkpt lat="45.03388" lon="2.72977">
        <ele>1422.11</ele>
        <time>2022-07-10T10:01:06Z</time>
      </trkpt>
      <trkpt lat="45.03394" lon="2.72971">
        <ele>1422.17</ele>
        <time>2022-07-10T10:01:16Z</time>
      </trkpt>
      <trkpt lat="45.03416" lon="2.72945">
        <ele>1422.75</ele>
        <time>2022-07-10T10:02:29Z</time>
      </trkpt>
      <trkpt lat="45.03431" lon="2.72925">
        <ele>1424.42</ele>
        <time>2022-07-10T10:02:48Z</time>
      </trkpt>
      <trkpt lat="45.03445" lon="2.72903">
        <ele>1425.45</ele>
        <time>2022-07-10T10:03:08Z</time>
      </trkpt>
      <trkpt lat="45.03459" lon="2.72881">
        <ele>1428.61</ele>
        <time>2022-07-10T10:03:29Z</time>
      </trkpt>
      <trkpt lat="45.03477" lon="2.72851">
        <ele>1430.61</ele>
        <time>2022-07-10T10:03:55Z</time>
      </trkpt>
      <trkpt lat="45.03495" lon="2.72829">
        <ele>1431.43</ele>
        <time>2022-07-10T10:04:20Z</time>
      </trkpt>
      <trkpt lat="45.03506" lon="2.72821">
        <ele>1434.58</ele>
        <time>2022-07-10T10:04:36Z</time>
      </trkpt>
      <trkpt lat="45.03507" lon="2.72817">
        <ele>1435.37</ele>
        <time>2022-07-10T10:04:40Z</time>
      </trkpt>
      <trkpt lat="45.03533" lon="2.72779">
        <ele>1438.27</ele>
        <time>2022-07-10T10:05:29Z</time>
      </trkpt>
      <trkpt lat="45.03535" lon="2.72774">
        <ele>1439.9</ele>
        <time>2022-07-10T10:05:35Z</time>
      </trkpt>
      <trkpt lat="45.03572" lon="2.7273">
        <ele>1446.86</ele>
        <time>2022-07-10T10:06:22Z</time>
      </trkpt>
      <trkpt lat="45.03582" lon="2.72723">
        <ele>1448.37</ele>
        <time>2022-07-10T10:06:36Z</time>
      </trkpt>
      <trkpt lat="45.03588" lon="2.72684">
        <ele>1447.94</ele>
        <time>2022-07-10T10:07:15Z</time>
      </trkpt>
      <trkpt lat="45.03581" lon="2.72673">
        <ele>1446.43</ele>
        <time>2022-07-10T10:07:30Z</time>
      </trkpt>
      <trkpt lat="45.03561" lon="2.72641">
        <ele>1439.53</ele>
        <time>2022-07-10T10:08:13Z</time>
      </trkpt>
      <trkpt lat="45.03554" lon="2.72632">
        <ele>1436.44</ele>
        <time>2022-07-10T10:08:25Z</time>
      </trkpt>
      <trkpt lat="45.03548" lon="2.72627">
        <ele>1434.97</ele>
        <time>2022-07-10T10:08:36Z</time>
      </trkpt>
      <trkpt lat="45.03572" lon="2.72652">
        <ele>1438.25</ele>
        <time>2022-07-10T10:52:48Z</time>
      </trkpt>
      <trkpt lat="45.03578" lon="2.72658">
        <ele>1440.03</ele>
        <time>2022-07-10T10:52:56Z</time>
      </trkpt>
      <trkpt lat="45.03581" lon="2.72662">
        <ele>1440.82</ele>
        <time>2022-07-10T10:53:00Z</time>
      </trkpt>
      <trkpt lat="45.03587" lon="2.7267">
        <ele>1442.85</ele>
        <time>2022-07-10T10:53:09Z</time>
      </trkpt>
      <trkpt lat="45.03594" lon="2.72686">
        <ele>1445.34</ele>
        <time>2022-07-10T10:53:22Z</time>
      </trkpt>
      <trkpt lat="45.03594" lon="2.7269">
        <ele>1445.55</ele>
        <time>2022-07-10T10:53:25Z</time>
      </trkpt>
      <trkpt lat="45.03595" lon="2.72702">
        <ele>1446.83</ele>
        <time>2022-07-10T10:53:36Z</time>
      </trkpt>
      <trkpt lat="45.03593" lon="2.7271">
        <ele>1447.18</ele>
        <time>2022-07-10T10:53:41Z</time>
      </trkpt>
      <trkpt lat="45.03589" lon="2.7272">
        <ele>1447.77</ele>
        <time>2022-07-10T10:53:49Z</time>
      </trkpt>
      <trkpt lat="45.03591" lon="2.72722">
        <ele>1448.22</ele>
        <time>2022-07-10T10:53:55Z</time>
      </trkpt>
      <trkpt lat="45.03585" lon="2.72763">
        <ele>1450.11</ele>
        <time>2022-07-10T10:55:00Z</time>
      </trkpt>
      <trkpt lat="45.03586" lon="2.72765">
        <ele>1450.49</ele>
        <time>2022-07-10T10:55:05Z</time>
      </trkpt>
      <trkpt lat="45.03583" lon="2.72775">
        <ele>1451.32</ele>
        <time>2022-07-10T10:55:14Z</time>
      </trkpt>
      <trkpt lat="45.03581" lon="2.72795">
        <ele>1452.61</ele>
        <time>2022-07-10T10:55:27Z</time>
      </trkpt>
      <trkpt lat="45.03581" lon="2.72814">
        <ele>1454.7</ele>
        <time>2022-07-10T10:55:40Z</time>
      </trkpt>
      <trkpt lat="45.03579" lon="2.72821">
        <ele>1456.02</ele>
        <time>2022-07-10T10:55:45Z</time>
      </trkpt>
      <trkpt lat="45.03573" lon="2.72822">
        <ele>1457.41</ele>
        <time>2022-07-10T10:55:51Z</time>
      </trkpt>
      <trkpt lat="45.03568" lon="2.72821">
        <ele>1458.83</ele>
        <time>2022-07-10T10:55:56Z</time>
      </trkpt>
      <trkpt lat="45.03561" lon="2.72822">
        <ele>1460.11</ele>
        <time>2022-07-10T10:56:02Z</time>
      </trkpt>
      <trkpt lat="45.03559" lon="2.72823">
        <ele>1460.42</ele>
        <time>2022-07-10T10:56:04Z</time>
      </trkpt>
      <trkpt lat="45.03551" lon="2.7283">
        <ele>1462.48</ele>
        <time>2022-07-10T10:56:14Z</time>
      </trkpt>
      <trkpt lat="45.03547" lon="2.72842">
        <ele>1464.95</ele>
        <time>2022-07-10T10:56:27Z</time>
      </trkpt>
      <trkpt lat="45.03544" lon="2.72849">
        <ele>1466.15</ele>
        <time>2022-07-10T10:56:32Z</time>
      </trkpt>
      <trkpt lat="45.0354" lon="2.72863">
        <ele>1469.5</ele>
        <time>2022-07-10T10:56:46Z</time>
      </trkpt>
      <trkpt lat="45.03539" lon="2.72865">
        <ele>1471.03</ele>
        <time>2022-07-10T10:56:52Z</time>
      </trkpt>
      <trkpt lat="45.03535" lon="2.72882">
        <ele>1472.33</ele>
        <time>2022-07-10T10:57:53Z</time>
      </trkpt>
      <trkpt lat="45.03533" lon="2.729">
        <ele>1474.15</ele>
        <time>2022-07-10T10:58:05Z</time>
      </trkpt>
      <trkpt lat="45.03531" lon="2.72913">
        <ele>1475.64</ele>
        <time>2022-07-10T10:58:15Z</time>
      </trkpt>
      <trkpt lat="45.03535" lon="2.7292">
        <ele>1476.18</ele>
        <time>2022-07-10T10:58:20Z</time>
      </trkpt>
      <trkpt lat="45.03536" lon="2.72925">
        <ele>1476.63</ele>
        <time>2022-07-10T10:58:24Z</time>
      </trkpt>
      <trkpt lat="45.03537" lon="2.72928">
        <ele>1476.89</ele>
        <time>2022-07-10T10:58:26Z</time>
      </trkpt>
      <trkpt lat="45.03541" lon="2.7295">
        <ele>1477.66</ele>
        <time>2022-07-10T10:58:40Z</time>
      </trkpt>
      <trkpt lat="45.03544" lon="2.72961">
        <ele>1478.57</ele>
        <time>2022-07-10T10:58:49Z</time>
      </trkpt>
      <trkpt lat="45.03544" lon="2.72974">
        <ele>1480.66</ele>
        <time>2022-07-10T10:59:02Z</time>
      </trkpt>
      <trkpt lat="45.03535" lon="2.72989">
        <ele>1482.52</ele>
        <time>2022-07-10T10:59:14Z</time>
      </trkpt>
      <trkpt lat="45.03535" lon="2.7299">
        <ele>1482.6</ele>
        <time>2022-07-10T10:59:15Z</time>
      </trkpt>
      <trkpt lat="45.03531" lon="2.73002">
        <ele>1484.36</ele>
        <time>2022-07-10T10:59:25Z</time>
      </trkpt>
      <trkpt lat="45.03528" lon="2.73016">
        <ele>1485.74</ele>
        <time>2022-07-10T10:59:37Z</time>
      </trkpt>
      <trkpt lat="45.0353" lon="2.73027">
        <ele>1487.62</ele>
        <time>2022-07-10T10:59:47Z</time>
      </trkpt>
      <trkpt lat="45.03518" lon="2.7305">
        <ele>1490.84</ele>
        <time>2022-07-10T11:00:04Z</time>
      </trkpt>
      <trkpt lat="45.03513" lon="2.73063">
        <ele>1492.58</ele>
        <time>2022-07-10T11:00:15Z</time>
      </trkpt>
      <trkpt lat="45.03509" lon="2.73075">
        <ele>1494.18</ele>
        <time>2022-07-10T11:00:24Z</time>
      </trkpt>
      <trkpt lat="45.03505" lon="2.73085">
        <ele>1495.87</ele>
        <time>2022-07-10T11:00:33Z</time>
      </trkpt>
      <trkpt lat="45.03499" lon="2.73101">
        <ele>1497.9</ele>
        <time>2022-07-10T11:00:48Z</time>
      </trkpt>
      <trkpt lat="45.03499" lon="2.73102">
        <ele>1498.21</ele>
        <time>2022-07-10T11:00:51Z</time>
      </trkpt>
      <trkpt lat="45.03509" lon="2.73064">
        <ele>1496.51</ele>
        <time>2022-07-10T11:01:39Z</time>
      </trkpt>
      <trkpt lat="45.03516" lon="2.73041">
        <ele>1493.47</ele>
        <time>2022-07-10T11:01:53Z</time>
      </trkpt>
      <trkpt lat="45.03517" lon="2.73039">
        <ele>1492.91</ele>
        <time>2022-07-10T11:01:56Z</time>
      </trkpt>
      <trkpt lat="45.03519" lon="2.73029">
        <ele>1492.31</ele>
        <time>2022-07-10T11:02:02Z</time>
      </trkpt>
      <trkpt lat="45.0352" lon="2.73019">
        <ele>1491.8</ele>
        <time>2022-07-10T11:02:07Z</time>
      </trkpt>
      <trkpt lat="45.03524" lon="2.73012">
        <ele>1490.57</ele>
        <time>2022-07-10T11:02:13Z</time>
      </trkpt>
      <trkpt lat="45.03531" lon="2.72986">
        <ele>1487.16</ele>
        <time>2022-07-10T11:02:30Z</time>
      </trkpt>
      <trkpt lat="45.0353" lon="2.7297">
        <ele>1484.84</ele>
        <time>2022-07-10T11:02:44Z</time>
      </trkpt>
      <trkpt lat="45.03532" lon="2.72965">
        <ele>1482.98</ele>
        <time>2022-07-10T11:02:54Z</time>
      </trkpt>
      <trkpt lat="45.03557" lon="2.7294">
        <ele>1476.71</ele>
        <time>2022-07-10T11:03:40Z</time>
      </trkpt>
      <trkpt lat="45.0356" lon="2.72941">
        <ele>1475.91</ele>
        <time>2022-07-10T11:03:45Z</time>
      </trkpt>
      <trkpt lat="45.03566" lon="2.73094">
        <ele>1487.11</ele>
        <time>2022-07-10T11:10:15Z</time>
      </trkpt>
      <trkpt lat="45.03565" lon="2.73107">
        <ele>1487.12</ele>
        <time>2022-07-10T11:10:23Z</time>
      </trkpt>
      <trkpt lat="45.03565" lon="2.73135">
        <ele>1487.37</ele>
        <time>2022-07-10T11:10:39Z</time>
      </trkpt>
      <trkpt lat="45.03568" lon="2.73158">
        <ele>1487.8</ele>
        <time>2022-07-10T11:10:52Z</time>
      </trkpt>
      <trkpt lat="45.03571" lon="2.73184">
        <ele>1488.18</ele>
        <time>2022-07-10T11:11:07Z</time>
      </trkpt>
      <trkpt lat="45.03575" lon="2.73213">
        <ele>1489.37</ele>
        <time>2022-07-10T11:11:23Z</time>
      </trkpt>
      <trkpt lat="45.0358" lon="2.73237">
        <ele>1490</ele>
        <time>2022-07-10T11:11:39Z</time>
      </trkpt>
      <trkpt lat="45.03586" lon="2.73259">
        <ele>1490.56</ele>
        <time>2022-07-10T11:11:54Z</time>
      </trkpt>
      <trkpt lat="45.03591" lon="2.73272">
        <ele>1490.95</ele>
        <time>2022-07-10T11:12:01Z</time>
      </trkpt>
      <trkpt lat="45.03596" lon="2.73287">
        <ele>1491.32</ele>
        <time>2022-07-10T11:12:11Z</time>
      </trkpt>
      <trkpt lat="45.036" lon="2.73292">
        <ele>1491.69</ele>
        <time>2022-07-10T11:12:21Z</time>
      </trkpt>
      <trkpt lat="45.03605" lon="2.73312">
        <ele>1491.59</ele>
        <time>2022-07-10T11:12:35Z</time>
      </trkpt>
      <trkpt lat="45.03606" lon="2.73313">
        <ele>1491.55</ele>
        <time>2022-07-10T11:12:36Z</time>
      </trkpt>
      <trkpt lat="45.03606" lon="2.73319">
        <ele>1491.43</ele>
        <time>2022-07-10T11:12:40Z</time>
      </trkpt>
      <trkpt lat="45.03611" lon="2.73337">
        <ele>1491.49</ele>
        <time>2022-07-10T11:12:53Z</time>
      </trkpt>
      <trkpt lat="45.03612" lon="2.73338">
        <ele>1491.51</ele>
        <time>2022-07-10T11:12:54Z</time>
      </trkpt>
      <trkpt lat="45.03621" lon="2.73357">
        <ele>1491.71</ele>
        <time>2022-07-10T11:13:08Z</time>
      </trkpt>
      <trkpt lat="45.03624" lon="2.73369">
        <ele>1492.25</ele>
        <time>2022-07-10T11:13:15Z</time>
      </trkpt>
      <trkpt lat="45.03633" lon="2.73376">
        <ele>1492.39</ele>
        <time>2022-07-10T11:13:23Z</time>
      </trkpt>
      <trkpt lat="45.03637" lon="2.7338">
        <ele>1492.39</ele>
        <time>2022-07-10T11:13:27Z</time>
      </trkpt>
      <trkpt lat="45.03642" lon="2.734">
        <ele>1492.61</ele>
        <time>2022-07-10T11:13:41Z</time>
      </trkpt>
      <trkpt lat="45.03647" lon="2.73402">
        <ele>1493.16</ele>
        <time>2022-07-10T11:13:47Z</time>
      </trkpt>
      <trkpt lat="45.03652" lon="2.73402">
        <ele>1493.45</ele>
        <time>2022-07-10T11:13:51Z</time>
      </trkpt>
      <trkpt lat="45.03653" lon="2.73402">
        <ele>1493.88</ele>
        <time>2022-07-10T11:13:56Z</time>
      </trkpt>
      <trkpt lat="45.03657" lon="2.73412">
        <ele>1493.93</ele>
        <time>2022-07-10T11:14:16Z</time>
      </trkpt>
      <trkpt lat="45.03661" lon="2.73417">
        <ele>1494.08</ele>
        <time>2022-07-10T11:14:20Z</time>
      </trkpt>
      <trkpt lat="45.03663" lon="2.73422">
        <ele>1494.23</ele>
        <time>2022-07-10T11:14:24Z</time>
      </trkpt>
      <trkpt lat="45.03674" lon="2.73437">
        <ele>1494.55</ele>
        <time>2022-07-10T11:14:38Z</time>
      </trkpt>
      <trkpt lat="45.03677" lon="2.73442">
        <ele>1494.44</ele>
        <time>2022-07-10T11:14:48Z</time>
      </trkpt>
      <trkpt lat="45.03677" lon="2.73441">
        <ele>1494.42</ele>
        <time>2022-07-10T11:14:49Z</time>
      </trkpt>
      <trkpt lat="45.0375" lon="2.73485">
        <ele>1497.98</ele>
        <time>2022-07-10T11:19:49Z</time>
      </trkpt>
      <trkpt lat="45.03759" lon="2.73488">
        <ele>1498.25</ele>
        <time>2022-07-10T11:19:58Z</time>
      </trkpt>
      <trkpt lat="45.03773" lon="2.73495">
        <ele>1499.24</ele>
        <time>2022-07-10T11:20:14Z</time>
      </trkpt>
      <trkpt lat="45.03786" lon="2.73499">
        <ele>1501.45</ele>
        <time>2022-07-10T11:20:30Z</time>
      </trkpt>
      <trkpt lat="45.03794" lon="2.73505">
        <ele>1502.74</ele>
        <time>2022-07-10T11:20:44Z</time>
      </trkpt>
      <trkpt lat="45.03807" lon="2.73514">
        <ele>1504.97</ele>
        <time>2022-07-10T11:21:04Z</time>
      </trkpt>
      <trkpt lat="45.03808" lon="2.73514">
        <ele>1505.13</ele>
        <time>2022-07-10T11:21:05Z</time>
      </trkpt>
      <trkpt lat="45.03817" lon="2.73524">
        <ele>1508.05</ele>
        <time>2022-07-10T11:21:23Z</time>
      </trkpt>
      <trkpt lat="45.03829" lon="2.73534">
        <ele>1511.2</ele>
        <time>2022-07-10T11:21:40Z</time>
      </trkpt>
      <trkpt lat="45.0384" lon="2.73543">
        <ele>1514.01</ele>
        <time>2022-07-10T11:21:56Z</time>
      </trkpt>
      <trkpt lat="45.03845" lon="2.73548">
        <ele>1515.43</ele>
        <time>2022-07-10T11:22:04Z</time>
      </trkpt>
      <trkpt lat="45.03865" lon="2.73529">
        <ele>1517.52</ele>
        <time>2022-07-10T11:23:29Z</time>
      </trkpt>
      <trkpt lat="45.03875" lon="2.73509">
        <ele>1514.44</ele>
        <time>2022-07-10T11:23:50Z</time>
      </trkpt>
      <trkpt lat="45.03894" lon="2.73464">
        <ele>1507.23</ele>
        <time>2022-07-10T11:25:37Z</time>
      </trkpt>
      <trkpt lat="45.03907" lon="2.73457">
        <ele>1506.52</ele>
        <time>2022-07-10T11:25:51Z</time>
      </trkpt>
      <trkpt lat="45.03911" lon="2.73457">
        <ele>1506.4</ele>
        <time>2022-07-10T11:25:56Z</time>
      </trkpt>
      <trkpt lat="45.03914" lon="2.73457">
        <ele>1506.4</ele>
        <time>2022-07-10T11:25:59Z</time>
      </trkpt>
      <trkpt lat="45.03919" lon="2.73456">
        <ele>1506.53</ele>
        <time>2022-07-10T11:26:08Z</time>
      </trkpt>
      <trkpt lat="45.03901" lon="2.73439">
        <ele>1502.57</ele>
        <time>2022-07-10T11:30:20Z</time>
      </trkpt>
      <trkpt lat="45.03895" lon="2.73449">
        <ele>1503.23</ele>
        <time>2022-07-10T11:30:30Z</time>
      </trkpt>
      <trkpt lat="45.03892" lon="2.73455">
        <ele>1505.06</ele>
        <time>2022-07-10T11:31:47Z</time>
      </trkpt>
      <trkpt lat="45.03887" lon="2.73462">
        <ele>1505.09</ele>
        <time>2022-07-10T11:31:52Z</time>
      </trkpt>
      <trkpt lat="45.03881" lon="2.73478">
        <ele>1507.45</ele>
        <time>2022-07-10T11:32:04Z</time>
      </trkpt>
      <trkpt lat="45.03828" lon="2.73583">
        <ele>1523.34</ele>
        <time>2022-07-10T11:35:02Z</time>
      </trkpt>
      <trkpt lat="45.03814" lon="2.73597">
        <ele>1526.48</ele>
        <time>2022-07-10T11:35:19Z</time>
      </trkpt>
      <trkpt lat="45.03795" lon="2.73613">
        <ele>1529.77</ele>
        <time>2022-07-10T11:35:39Z</time>
      </trkpt>
      <trkpt lat="45.03777" lon="2.73628">
        <ele>1532.77</ele>
        <time>2022-07-10T11:35:59Z</time>
      </trkpt>
      <trkpt lat="45.03759" lon="2.73641">
        <ele>1535.82</ele>
        <time>2022-07-10T11:36:16Z</time>
      </trkpt>
      <trkpt lat="45.03739" lon="2.73654">
        <ele>1538.53</ele>
        <time>2022-07-10T11:36:36Z</time>
      </trkpt>
      <trkpt lat="45.03723" lon="2.73663">
        <ele>1541.78</ele>
        <time>2022-07-10T11:36:51Z</time>
      </trkpt>
      <trkpt lat="45.03706" lon="2.73669">
        <ele>1544.88</ele>
        <time>2022-07-10T11:37:07Z</time>
      </trkpt>
      <trkpt lat="45.03686" lon="2.73678">
        <ele>1547.64</ele>
        <time>2022-07-10T11:37:28Z</time>
      </trkpt>
      <trkpt lat="45.03668" lon="2.73683">
        <ele>1550.64</ele>
        <time>2022-07-10T11:37:46Z</time>
      </trkpt>
      <trkpt lat="45.03654" lon="2.73686">
        <ele>1553.56</ele>
        <time>2022-07-10T11:38:01Z</time>
      </trkpt>
      <trkpt lat="45.03636" lon="2.73688">
        <ele>1556.58</ele>
        <time>2022-07-10T11:38:21Z</time>
      </trkpt>
      <trkpt lat="45.03608" lon="2.7368">
        <ele>1559.59</ele>
        <time>2022-07-10T11:38:48Z</time>
      </trkpt>
      <trkpt lat="45.03582" lon="2.73675">
        <ele>1562.64</ele>
        <time>2022-07-10T11:39:14Z</time>
      </trkpt>
      <trkpt lat="45.03568" lon="2.73672">
        <ele>1565.73</ele>
        <time>2022-07-10T11:39:30Z</time>
      </trkpt>
      <trkpt lat="45.03556" lon="2.73669">
        <ele>1568.75</ele>
        <time>2022-07-10T11:39:44Z</time>
      </trkpt>
      <trkpt lat="45.0354" lon="2.73662">
        <ele>1571.84</ele>
        <time>2022-07-10T11:40:00Z</time>
      </trkpt>
      <trkpt lat="45.03527" lon="2.73656">
        <ele>1574.93</ele>
        <time>2022-07-10T11:40:15Z</time>
      </trkpt>
      <trkpt lat="45.03513" lon="2.73646">
        <ele>1576.37</ele>
        <time>2022-07-10T11:40:38Z</time>
      </trkpt>
      <trkpt lat="45.03517" lon="2.73646">
        <ele>1576.44</ele>
        <time>2022-07-10T11:40:44Z</time>
      </trkpt>
      <trkpt lat="45.03508" lon="2.73642">
        <ele>1576.56</ele>
        <time>2022-07-10T11:43:48Z</time>
      </trkpt>
      <trkpt lat="45.03505" lon="2.7364">
        <ele>1576.78</ele>
        <time>2022-07-10T11:43:51Z</time>
      </trkpt>
      <trkpt lat="45.03496" lon="2.73635">
        <ele>1577.22</ele>
        <time>2022-07-10T11:43:59Z</time>
      </trkpt>
      <trkpt lat="45.03489" lon="2.73636">
        <ele>1577.38</ele>
        <time>2022-07-10T11:44:04Z</time>
      </trkpt>
      <trkpt lat="45.03487" lon="2.73651">
        <ele>1578.34</ele>
        <time>2022-07-10T11:44:14Z</time>
      </trkpt>
      <trkpt lat="45.03487" lon="2.73652">
        <ele>1578.48</ele>
        <time>2022-07-10T11:44:15Z</time>
      </trkpt>
      <trkpt lat="45.03488" lon="2.73655">
        <ele>1578.79</ele>
        <time>2022-07-10T11:44:17Z</time>
      </trkpt>
      <trkpt lat="45.03493" lon="2.73673">
        <ele>1580.86</ele>
        <time>2022-07-10T11:44:30Z</time>
      </trkpt>
      <trkpt lat="45.03494" lon="2.73675">
        <ele>1581.17</ele>
        <time>2022-07-10T11:44:31Z</time>
      </trkpt>
      <trkpt lat="45.03492" lon="2.73681">
        <ele>1582.28</ele>
        <time>2022-07-10T11:44:37Z</time>
      </trkpt>
      <trkpt lat="45.03491" lon="2.73697">
        <ele>1584.46</ele>
        <time>2022-07-10T11:44:51Z</time>
      </trkpt>
      <trkpt lat="45.03488" lon="2.73712">
        <ele>1586.68</ele>
        <time>2022-07-10T11:45:01Z</time>
      </trkpt>
      <trkpt lat="45.03485" lon="2.73734">
        <ele>1589.18</ele>
        <time>2022-07-10T11:45:15Z</time>
      </trkpt>
      <trkpt lat="45.03486" lon="2.73749">
        <ele>1592.19</ele>
        <time>2022-07-10T11:45:29Z</time>
      </trkpt>
      <trkpt lat="45.03488" lon="2.73768">
        <ele>1595.21</ele>
        <time>2022-07-10T11:45:41Z</time>
      </trkpt>
      <trkpt lat="45.03487" lon="2.73779">
        <ele>1598.27</ele>
        <time>2022-07-10T11:45:50Z</time>
      </trkpt>
      <trkpt lat="45.03488" lon="2.73798">
        <ele>1601.15</ele>
        <time>2022-07-10T11:46:07Z</time>
      </trkpt>
      <trkpt lat="45.03486" lon="2.73822">
        <ele>1603.45</ele>
        <time>2022-07-10T11:46:25Z</time>
      </trkpt>
      <trkpt lat="45.0348" lon="2.73834">
        <ele>1605.06</ele>
        <time>2022-07-10T11:46:36Z</time>
      </trkpt>
      <trkpt lat="45.03467" lon="2.73837">
        <ele>1607.23</ele>
        <time>2022-07-10T11:46:49Z</time>
      </trkpt>
      <trkpt lat="45.03464" lon="2.73837">
        <ele>1607.56</ele>
        <time>2022-07-10T11:46:53Z</time>
      </trkpt>
      <trkpt lat="45.03459" lon="2.73836">
        <ele>1608.15</ele>
        <time>2022-07-10T11:46:57Z</time>
      </trkpt>
      <trkpt lat="45.03458" lon="2.73835">
        <ele>1608.33</ele>
        <time>2022-07-10T11:46:59Z</time>
      </trkpt>
      <trkpt lat="45.03432" lon="2.73822">
        <ele>1611.05</ele>
        <time>2022-07-10T11:47:20Z</time>
      </trkpt>
      <trkpt lat="45.03409" lon="2.73807">
        <ele>1613.34</ele>
        <time>2022-07-10T11:47:40Z</time>
      </trkpt>
      <trkpt lat="45.0339" lon="2.73793">
        <ele>1614.19</ele>
        <time>2022-07-10T11:47:56Z</time>
      </trkpt>
      <trkpt lat="45.03374" lon="2.7378">
        <ele>1614.71</ele>
        <time>2022-07-10T11:48:14Z</time>
      </trkpt>
      <trkpt lat="45.03354" lon="2.73766">
        <ele>1616.81</ele>
        <time>2022-07-10T11:48:34Z</time>
      </trkpt>
      <trkpt lat="45.03334" lon="2.73756">
        <ele>1618.64</ele>
        <time>2022-07-10T11:48:53Z</time>
      </trkpt>
      <trkpt lat="45.03315" lon="2.73743">
        <ele>1619.73</ele>
        <time>2022-07-10T11:49:13Z</time>
      </trkpt>
      <trkpt lat="45.03296" lon="2.73743">
        <ele>1620.3</ele>
        <time>2022-07-10T11:49:31Z</time>
      </trkpt>
      <trkpt lat="45.03274" lon="2.73744">
        <ele>1621.8</ele>
        <time>2022-07-10T11:49:50Z</time>
      </trkpt>
      <trkpt lat="45.03249" lon="2.73752">
        <ele>1622.52</ele>
        <time>2022-07-10T11:50:11Z</time>
      </trkpt>
      <trkpt lat="45.03228" lon="2.7376">
        <ele>1624.23</ele>
        <time>2022-07-10T11:50:31Z</time>
      </trkpt>
      <trkpt lat="45.03207" lon="2.73767">
        <ele>1624.66</ele>
        <time>2022-07-10T11:50:49Z</time>
      </trkpt>
      <trkpt lat="45.0319" lon="2.73781">
        <ele>1624.31</ele>
        <time>2022-07-10T11:51:07Z</time>
      </trkpt>
      <trkpt lat="45.03189" lon="2.73781">
        <ele>1624.23</ele>
        <time>2022-07-10T11:51:11Z</time>
      </trkpt>
      <trkpt lat="45.03196" lon="2.7379">
        <ele>1623.69</ele>
        <time>2022-07-10T11:52:50Z</time>
      </trkpt>
      <trkpt lat="45.03199" lon="2.73792">
        <ele>1623.55</ele>
        <time>2022-07-10T11:52:53Z</time>
      </trkpt>
      <trkpt lat="45.03221" lon="2.73804">
        <ele>1623.31</ele>
        <time>2022-07-10T11:53:13Z</time>
      </trkpt>
      <trkpt lat="45.03225" lon="2.73807">
        <ele>1623.21</ele>
        <time>2022-07-10T11:53:16Z</time>
      </trkpt>
      <trkpt lat="45.03225" lon="2.73809">
        <ele>1623.03</ele>
        <time>2022-07-10T11:53:19Z</time>
      </trkpt>
      <trkpt lat="45.03224" lon="2.73809">
        <ele>1623.01</ele>
        <time>2022-07-10T11:53:23Z</time>
      </trkpt>
      <trkpt lat="45.03234" lon="2.73815">
        <ele>1623.46</ele>
        <time>2022-07-10T11:53:31Z</time>
      </trkpt>
      <trkpt lat="45.03247" lon="2.73821">
        <ele>1623.93</ele>
        <time>2022-07-10T11:53:44Z</time>
      </trkpt>
      <trkpt lat="45.03266" lon="2.73833">
        <ele>1624.78</ele>
        <time>2022-07-10T11:54:02Z</time>
      </trkpt>
      <trkpt lat="45.03287" lon="2.73846">
        <ele>1625.57</ele>
        <time>2022-07-10T11:54:20Z</time>
      </trkpt>
      <trkpt lat="45.03305" lon="2.73857">
        <ele>1626.41</ele>
        <time>2022-07-10T11:54:36Z</time>
      </trkpt>
      <trkpt lat="45.03323" lon="2.73873">
        <ele>1627.69</ele>
        <time>2022-07-10T11:54:57Z</time>
      </trkpt>
      <trkpt lat="45.03343" lon="2.73884">
        <ele>1629.22</ele>
        <time>2022-07-10T11:55:15Z</time>
      </trkpt>
      <trkpt lat="45.03342" lon="2.73885">
        <ele>1629.35</ele>
        <time>2022-07-10T11:55:17Z</time>
      </trkpt>
      <trkpt lat="45.03346" lon="2.73886">
        <ele>1629.54</ele>
        <time>2022-07-10T11:55:20Z</time>
      </trkpt>
      <trkpt lat="45.03363" lon="2.73896">
        <ele>1630.03</ele>
        <time>2022-07-10T11:55:34Z</time>
      </trkpt>
      <trkpt lat="45.03379" lon="2.73907">
        <ele>1630.8</ele>
        <time>2022-07-10T11:55:49Z</time>
      </trkpt>
      <trkpt lat="45.03397" lon="2.73916">
        <ele>1633.07</ele>
        <time>2022-07-10T11:56:05Z</time>
      </trkpt>
      <trkpt lat="45.03413" lon="2.73927">
        <ele>1633.68</ele>
        <time>2022-07-10T11:56:22Z</time>
      </trkpt>
      <trkpt lat="45.03429" lon="2.73939">
        <ele>1634.65</ele>
        <time>2022-07-10T11:56:37Z</time>
      </trkpt>
      <trkpt lat="45.03447" lon="2.73951">
        <ele>1635.84</ele>
        <time>2022-07-10T11:56:53Z</time>
      </trkpt>
      <trkpt lat="45.03458" lon="2.73963">
        <ele>1635.75</ele>
        <time>2022-07-10T11:57:07Z</time>
      </trkpt>
      <trkpt lat="45.03468" lon="2.73976">
        <ele>1635.94</ele>
        <time>2022-07-10T11:57:20Z</time>
      </trkpt>
      <trkpt lat="45.03471" lon="2.73979">
        <ele>1635.56</ele>
        <time>2022-07-10T11:57:29Z</time>
      </trkpt>
      <trkpt lat="45.03473" lon="2.73979">
        <ele>1635.17</ele>
        <time>2022-07-10T11:57:35Z</time>
      </trkpt>
      <trkpt lat="45.03477" lon="2.73982">
        <ele>1635.02</ele>
        <time>2022-07-10T11:57:40Z</time>
      </trkpt>
      <trkpt lat="45.03493" lon="2.73989">
        <ele>1634.13</ele>
        <time>2022-07-10T11:57:59Z</time>
      </trkpt>
      <trkpt lat="45.03498" lon="2.73994">
        <ele>1632.68</ele>
        <time>2022-07-10T11:58:09Z</time>
      </trkpt>
      <trkpt lat="45.03501" lon="2.73996">
        <ele>1632.28</ele>
        <time>2022-07-10T11:58:12Z</time>
      </trkpt>
      <trkpt lat="45.03523" lon="2.74004">
        <ele>1630.32</ele>
        <time>2022-07-10T11:58:31Z</time>
      </trkpt>
      <trkpt lat="45.03533" lon="2.74011">
        <ele>1628.97</ele>
        <time>2022-07-10T11:58:43Z</time>
      </trkpt>
      <trkpt lat="45.03538" lon="2.7401">
        <ele>1627.9</ele>
        <time>2022-07-10T11:58:51Z</time>
      </trkpt>
      <trkpt lat="45.0356" lon="2.74008">
        <ele>1623.66</ele>
        <time>2022-07-10T11:59:24Z</time>
      </trkpt>
      <trkpt lat="45.03575" lon="2.74014">
        <ele>1622.19</ele>
        <time>2022-07-10T11:59:40Z</time>
      </trkpt>
      <trkpt lat="45.03576" lon="2.74015">
        <ele>1621.99</ele>
        <time>2022-07-10T11:59:44Z</time>
      </trkpt>
      <trkpt lat="45.03581" lon="2.74019">
        <ele>1622.07</ele>
        <time>2022-07-10T11:59:49Z</time>
      </trkpt>
      <trkpt lat="45.03598" lon="2.7404">
        <ele>1622.4</ele>
        <time>2022-07-10T12:00:09Z</time>
      </trkpt>
      <trkpt lat="45.03616" lon="2.74049">
        <ele>1624.69</ele>
        <time>2022-07-10T12:00:26Z</time>
      </trkpt>
      <trkpt lat="45.03632" lon="2.74053">
        <ele>1625.83</ele>
        <time>2022-07-10T12:00:42Z</time>
      </trkpt>
      <trkpt lat="45.03636" lon="2.74053">
        <ele>1626.27</ele>
        <time>2022-07-10T12:00:47Z</time>
      </trkpt>
      <trkpt lat="45.03644" lon="2.74051">
        <ele>1627.47</ele>
        <time>2022-07-10T12:00:57Z</time>
      </trkpt>
      <trkpt lat="45.03653" lon="2.74058">
        <ele>1629.11</ele>
        <time>2022-07-10T12:01:12Z</time>
      </trkpt>
      <trkpt lat="45.03657" lon="2.74057">
        <ele>1629.94</ele>
        <time>2022-07-10T12:01:16Z</time>
      </trkpt>
      <trkpt lat="45.03662" lon="2.74061">
        <ele>1630.39</ele>
        <time>2022-07-10T12:01:23Z</time>
      </trkpt>
      <trkpt lat="45.03677" lon="2.74072">
        <ele>1633.3</ele>
        <time>2022-07-10T12:01:42Z</time>
      </trkpt>
      <trkpt lat="45.03692" lon="2.7408">
        <ele>1635.37</ele>
        <time>2022-07-10T12:01:58Z</time>
      </trkpt>
      <trkpt lat="45.03694" lon="2.74082">
        <ele>1636.03</ele>
        <time>2022-07-10T12:02:01Z</time>
      </trkpt>
      <trkpt lat="45.03707" lon="2.74096">
        <ele>1637.57</ele>
        <time>2022-07-10T12:02:18Z</time>
      </trkpt>
      <trkpt lat="45.03722" lon="2.74108">
        <ele>1639.49</ele>
        <time>2022-07-10T12:02:33Z</time>
      </trkpt>
      <trkpt lat="45.03742" lon="2.74118">
        <ele>1640.58</ele>
        <time>2022-07-10T12:02:52Z</time>
      </trkpt>
      <trkpt lat="45.03757" lon="2.74132">
        <ele>1642.36</ele>
        <time>2022-07-10T12:03:08Z</time>
      </trkpt>
      <trkpt lat="45.03771" lon="2.74149">
        <ele>1645.24</ele>
        <time>2022-07-10T12:03:26Z</time>
      </trkpt>
      <trkpt lat="45.03788" lon="2.74164">
        <ele>1647.18</ele>
        <time>2022-07-10T12:03:46Z</time>
      </trkpt>
      <trkpt lat="45.0381" lon="2.74176">
        <ele>1649.59</ele>
        <time>2022-07-10T12:04:04Z</time>
      </trkpt>
      <trkpt lat="45.03819" lon="2.74187">
        <ele>1651.7</ele>
        <time>2022-07-10T12:04:19Z</time>
      </trkpt>
      <trkpt lat="45.03822" lon="2.74191">
        <ele>1653.37</ele>
        <time>2022-07-10T12:04:30Z</time>
      </trkpt>
      <trkpt lat="45.03824" lon="2.74192">
        <ele>1653.44</ele>
        <time>2022-07-10T12:04:32Z</time>
      </trkpt>
      <trkpt lat="45.03847" lon="2.742">
        <ele>1654.47</ele>
        <time>2022-07-10T12:04:52Z</time>
      </trkpt>
      <trkpt lat="45.03848" lon="2.74201">
        <ele>1654.53</ele>
        <time>2022-07-10T12:04:53Z</time>
      </trkpt>
      <trkpt lat="45.03866" lon="2.74213">
        <ele>1656.5</ele>
        <time>2022-07-10T12:05:12Z</time>
      </trkpt>
      <trkpt lat="45.0387" lon="2.74214">
        <ele>1656.77</ele>
        <time>2022-07-10T12:05:17Z</time>
      </trkpt>
      <trkpt lat="45.03883" lon="2.74226">
        <ele>1659.4</ele>
        <time>2022-07-10T12:05:32Z</time>
      </trkpt>
      <trkpt lat="45.03885" lon="2.74225">
        <ele>1659.78</ele>
        <time>2022-07-10T12:05:34Z</time>
      </trkpt>
      <trkpt lat="45.03903" lon="2.74234">
        <ele>1662.02</ele>
        <time>2022-07-10T12:05:51Z</time>
      </trkpt>
      <trkpt lat="45.03905" lon="2.74234">
        <ele>1662.38</ele>
        <time>2022-07-10T12:05:56Z</time>
      </trkpt>
      <trkpt lat="45.03911" lon="2.74236">
        <ele>1662.88</ele>
        <time>2022-07-10T12:06:04Z</time>
      </trkpt>
      <trkpt lat="45.03918" lon="2.74237">
        <ele>1663.23</ele>
        <time>2022-07-10T12:06:14Z</time>
      </trkpt>
      <trkpt lat="45.04013" lon="2.74313">
        <ele>1663.29</ele>
        <time>2022-07-10T12:09:49Z</time>
      </trkpt>
      <trkpt lat="45.04034" lon="2.74331">
        <ele>1662.92</ele>
        <time>2022-07-10T12:10:06Z</time>
      </trkpt>
      <trkpt lat="45.04053" lon="2.74361">
        <ele>1663.94</ele>
        <time>2022-07-10T12:10:29Z</time>
      </trkpt>
      <trkpt lat="45.04064" lon="2.74379">
        <ele>1664.9</ele>
        <time>2022-07-10T12:10:45Z</time>
      </trkpt>
      <trkpt lat="45.04078" lon="2.74407">
        <ele>1667.11</ele>
        <time>2022-07-10T12:11:05Z</time>
      </trkpt>
      <trkpt lat="45.04092" lon="2.74425">
        <ele>1669.92</ele>
        <time>2022-07-10T12:11:23Z</time>
      </trkpt>
      <trkpt lat="45.04102" lon="2.74444">
        <ele>1671.71</ele>
        <time>2022-07-10T12:11:40Z</time>
      </trkpt>
      <trkpt lat="45.0411" lon="2.74456">
        <ele>1673.64</ele>
        <time>2022-07-10T12:11:53Z</time>
      </trkpt>
      <trkpt lat="45.04115" lon="2.74461">
        <ele>1674.07</ele>
        <time>2022-07-10T12:11:58Z</time>
      </trkpt>
      <trkpt lat="45.0413" lon="2.74484">
        <ele>1676.28</ele>
        <time>2022-07-10T12:12:18Z</time>
      </trkpt>
      <trkpt lat="45.04142" lon="2.745">
        <ele>1678.09</ele>
        <time>2022-07-10T12:12:34Z</time>
      </trkpt>
      <trkpt lat="45.04147" lon="2.74508">
        <ele>1679.62</ele>
        <time>2022-07-10T12:12:42Z</time>
      </trkpt>
      <trkpt lat="45.04157" lon="2.74519">
        <ele>1682.28</ele>
        <time>2022-07-10T12:12:55Z</time>
      </trkpt>
      <trkpt lat="45.04173" lon="2.74531">
        <ele>1685.64</ele>
        <time>2022-07-10T12:13:12Z</time>
      </trkpt>
      <trkpt lat="45.04187" lon="2.74538">
        <ele>1688.65</ele>
        <time>2022-07-10T12:13:25Z</time>
      </trkpt>
      <trkpt lat="45.04199" lon="2.74542">
        <ele>1691.15</ele>
        <time>2022-07-10T12:13:39Z</time>
      </trkpt>
      <trkpt lat="45.04201" lon="2.74543">
        <ele>1691.54</ele>
        <time>2022-07-10T12:13:41Z</time>
      </trkpt>
      <trkpt lat="45.0421" lon="2.74534">
        <ele>1694.1</ele>
        <time>2022-07-10T12:13:57Z</time>
      </trkpt>
      <trkpt lat="45.04216" lon="2.7453">
        <ele>1695.36</ele>
        <time>2022-07-10T12:14:08Z</time>
      </trkpt>
      <trkpt lat="45.04196" lon="2.74545">
        <ele>1693.86</ele>
        <time>2022-07-10T12:19:22Z</time>
      </trkpt>
      <trkpt lat="45.04191" lon="2.74545">
        <ele>1692.62</ele>
        <time>2022-07-10T12:19:28Z</time>
      </trkpt>
      <trkpt lat="45.04175" lon="2.74536">
        <ele>1689.47</ele>
        <time>2022-07-10T12:19:46Z</time>
      </trkpt>
      <trkpt lat="45.04174" lon="2.74536">
        <ele>1689.26</ele>
        <time>2022-07-10T12:19:47Z</time>
      </trkpt>
      <trkpt lat="45.04161" lon="2.74525">
        <ele>1686.53</ele>
        <time>2022-07-10T12:20:03Z</time>
      </trkpt>
      <trkpt lat="45.0415" lon="2.74515">
        <ele>1683.45</ele>
        <time>2022-07-10T12:20:16Z</time>
      </trkpt>
      <trkpt lat="45.0414" lon="2.745">
        <ele>1680.11</ele>
        <time>2022-07-10T12:20:33Z</time>
      </trkpt>
      <trkpt lat="45.0413" lon="2.74484">
        <ele>1677.54</ele>
        <time>2022-07-10T12:20:49Z</time>
      </trkpt>
      <trkpt lat="45.04116" lon="2.74461">
        <ele>1675</ele>
        <time>2022-07-10T12:21:09Z</time>
      </trkpt>
      <trkpt lat="45.04106" lon="2.74443">
        <ele>1671.95</ele>
        <time>2022-07-10T12:21:26Z</time>
      </trkpt>
      <trkpt lat="45.04094" lon="2.74424">
        <ele>1669.55</ele>
        <time>2022-07-10T12:21:44Z</time>
      </trkpt>
      <trkpt lat="45.04092" lon="2.7442">
        <ele>1668.88</ele>
        <time>2022-07-10T12:21:48Z</time>
      </trkpt>
      <trkpt lat="45.04079" lon="2.744">
        <ele>1666.93</ele>
        <time>2022-07-10T12:22:07Z</time>
      </trkpt>
      <trkpt lat="45.04077" lon="2.74396">
        <ele>1666.74</ele>
        <time>2022-07-10T12:22:10Z</time>
      </trkpt>
      <trkpt lat="45.04066" lon="2.74378">
        <ele>1664.95</ele>
        <time>2022-07-10T12:22:24Z</time>
      </trkpt>
      <trkpt lat="45.04052" lon="2.74351">
        <ele>1662.75</ele>
        <time>2022-07-10T12:22:45Z</time>
      </trkpt>
      <trkpt lat="45.04041" lon="2.74339">
        <ele>1661.66</ele>
        <time>2022-07-10T12:23:02Z</time>
      </trkpt>
      <trkpt lat="45.04033" lon="2.74332">
        <ele>1660.83</ele>
        <time>2022-07-10T12:23:21Z</time>
      </trkpt>
      <trkpt lat="45.04008" lon="2.74315">
        <ele>1661.85</ele>
        <time>2022-07-10T12:23:42Z</time>
      </trkpt>
      <trkpt lat="45.03991" lon="2.74299">
        <ele>1662.58</ele>
        <time>2022-07-10T12:23:59Z</time>
      </trkpt>
      <trkpt lat="45.0397" lon="2.74282">
        <ele>1662.95</ele>
        <time>2022-07-10T12:24:18Z</time>
      </trkpt>
      <trkpt lat="45.03954" lon="2.74264">
        <ele>1662.73</ele>
        <time>2022-07-10T12:24:34Z</time>
      </trkpt>
      <trkpt lat="45.03934" lon="2.74246">
        <ele>1662.52</ele>
        <time>2022-07-10T12:24:51Z</time>
      </trkpt>
      <trkpt lat="45.03914" lon="2.74238">
        <ele>1662.69</ele>
        <time>2022-07-10T12:25:09Z</time>
      </trkpt>
      <trkpt lat="45.03893" lon="2.74232">
        <ele>1662.8</ele>
        <time>2022-07-10T12:25:26Z</time>
      </trkpt>
      <trkpt lat="45.03888" lon="2.74231">
        <ele>1662.69</ele>
        <time>2022-07-10T12:25:30Z</time>
      </trkpt>
      <trkpt lat="45.0387" lon="2.74218">
        <ele>1660.46</ele>
        <time>2022-07-10T12:25:49Z</time>
      </trkpt>
      <trkpt lat="45.03853" lon="2.74208">
        <ele>1657.68</ele>
        <time>2022-07-10T12:26:04Z</time>
      </trkpt>
      <trkpt lat="45.03833" lon="2.74201">
        <ele>1656.26</ele>
        <time>2022-07-10T12:26:22Z</time>
      </trkpt>
      <trkpt lat="45.03815" lon="2.74186">
        <ele>1654.49</ele>
        <time>2022-07-10T12:26:40Z</time>
      </trkpt>
      <trkpt lat="45.03799" lon="2.74175">
        <ele>1651.65</ele>
        <time>2022-07-10T12:26:57Z</time>
      </trkpt>
      <trkpt lat="45.0379" lon="2.74168">
        <ele>1650.7</ele>
        <time>2022-07-10T12:27:06Z</time>
      </trkpt>
      <trkpt lat="45.03771" lon="2.74151">
        <ele>1647.75</ele>
        <time>2022-07-10T12:27:25Z</time>
      </trkpt>
      <trkpt lat="45.03756" lon="2.74133">
        <ele>1644.59</ele>
        <time>2022-07-10T12:27:42Z</time>
      </trkpt>
      <trkpt lat="45.0374" lon="2.74119">
        <ele>1641.46</ele>
        <time>2022-07-10T12:27:58Z</time>
      </trkpt>
      <trkpt lat="45.03718" lon="2.74109">
        <ele>1639.98</ele>
        <time>2022-07-10T12:28:17Z</time>
      </trkpt>
      <trkpt lat="45.03702" lon="2.74095">
        <ele>1638.07</ele>
        <time>2022-07-10T12:28:35Z</time>
      </trkpt>
      <trkpt lat="45.03682" lon="2.74079">
        <ele>1635.8</ele>
        <time>2022-07-10T12:28:54Z</time>
      </trkpt>
      <trkpt lat="45.03667" lon="2.74067">
        <ele>1633.3</ele>
        <time>2022-07-10T12:29:11Z</time>
      </trkpt>
      <trkpt lat="45.03661" lon="2.74065">
        <ele>1632.59</ele>
        <time>2022-07-10T12:29:17Z</time>
      </trkpt>
      <trkpt lat="45.03657" lon="2.74064">
        <ele>1631.88</ele>
        <time>2022-07-10T12:29:21Z</time>
      </trkpt>
      <trkpt lat="45.0364" lon="2.74054">
        <ele>1629.14</ele>
        <time>2022-07-10T12:29:39Z</time>
      </trkpt>
      <trkpt lat="45.03637" lon="2.74055">
        <ele>1628.56</ele>
        <time>2022-07-10T12:29:44Z</time>
      </trkpt>
      <trkpt lat="45.03624" lon="2.74055">
        <ele>1627.42</ele>
        <time>2022-07-10T12:29:55Z</time>
      </trkpt>
      <trkpt lat="45.03603" lon="2.74047">
        <ele>1625.53</ele>
        <time>2022-07-10T12:30:16Z</time>
      </trkpt>
      <trkpt lat="45.03594" lon="2.74039">
        <ele>1622.18</ele>
        <time>2022-07-10T12:30:29Z</time>
      </trkpt>
      <trkpt lat="45.03589" lon="2.74044">
        <ele>1620.99</ele>
        <time>2022-07-10T12:30:37Z</time>
      </trkpt>
      <trkpt lat="45.03588" lon="2.74052">
        <ele>1620.92</ele>
        <time>2022-07-10T12:30:42Z</time>
      </trkpt>
      <trkpt lat="45.03587" lon="2.74055">
        <ele>1620.92</ele>
        <time>2022-07-10T12:30:45Z</time>
      </trkpt>
      <trkpt lat="45.03586" lon="2.74067">
        <ele>1624.02</ele>
        <time>2022-07-10T12:30:55Z</time>
      </trkpt>
      <trkpt lat="45.03586" lon="2.74068">
        <ele>1624.24</ele>
        <time>2022-07-10T12:30:56Z</time>
      </trkpt>
      <trkpt lat="45.03588" lon="2.74028">
        <ele>1621.95</ele>
        <time>2022-07-10T12:31:59Z</time>
      </trkpt>
      <trkpt lat="45.03573" lon="2.74014">
        <ele>1620.01</ele>
        <time>2022-07-10T12:32:14Z</time>
      </trkpt>
      <trkpt lat="45.03551" lon="2.7401">
        <ele>1620.25</ele>
        <time>2022-07-10T12:32:32Z</time>
      </trkpt>
      <trkpt lat="45.03544" lon="2.74013">
        <ele>1621.52</ele>
        <time>2022-07-10T12:32:40Z</time>
      </trkpt>
      <trkpt lat="45.03536" lon="2.74012">
        <ele>1624.99</ele>
        <time>2022-07-10T12:32:51Z</time>
      </trkpt>
      <trkpt lat="45.03528" lon="2.7401">
        <ele>1626.91</ele>
        <time>2022-07-10T12:33:00Z</time>
      </trkpt>
      <trkpt lat="45.03512" lon="2.74004">
        <ele>1629.14</ele>
        <time>2022-07-10T12:33:16Z</time>
      </trkpt>
      <trkpt lat="45.03494" lon="2.73993">
        <ele>1630.62</ele>
        <time>2022-07-10T12:33:35Z</time>
      </trkpt>
      <trkpt lat="45.03474" lon="2.73981">
        <ele>1633.13</ele>
        <time>2022-07-10T12:33:54Z</time>
      </trkpt>
      <trkpt lat="45.03471" lon="2.7398">
        <ele>1633.73</ele>
        <time>2022-07-10T12:34:01Z</time>
      </trkpt>
      <trkpt lat="45.03463" lon="2.73974">
        <ele>1634.35</ele>
        <time>2022-07-10T12:35:15Z</time>
      </trkpt>
      <trkpt lat="45.03461" lon="2.73969">
        <ele>1634.4</ele>
        <time>2022-07-10T12:35:18Z</time>
      </trkpt>
      <trkpt lat="45.03454" lon="2.73961">
        <ele>1634.74</ele>
        <time>2022-07-10T12:35:25Z</time>
      </trkpt>
      <trkpt lat="45.03452" lon="2.73954">
        <ele>1634.93</ele>
        <time>2022-07-10T12:35:29Z</time>
      </trkpt>
      <trkpt lat="45.03442" lon="2.73948">
        <ele>1634.93</ele>
        <time>2022-07-10T12:35:36Z</time>
      </trkpt>
      <trkpt lat="45.03439" lon="2.73947">
        <ele>1634.91</ele>
        <time>2022-07-10T12:35:38Z</time>
      </trkpt>
      <trkpt lat="45.03426" lon="2.7394">
        <ele>1634.42</ele>
        <time>2022-07-10T12:35:51Z</time>
      </trkpt>
      <trkpt lat="45.03409" lon="2.73928">
        <ele>1633.8</ele>
        <time>2022-07-10T12:36:07Z</time>
      </trkpt>
      <trkpt lat="45.03406" lon="2.73925">
        <ele>1633.53</ele>
        <time>2022-07-10T12:36:11Z</time>
      </trkpt>
      <trkpt lat="45.03389" lon="2.73916">
        <ele>1632.71</ele>
        <time>2022-07-10T12:36:24Z</time>
      </trkpt>
      <trkpt lat="45.03373" lon="2.73909">
        <ele>1631.78</ele>
        <time>2022-07-10T12:36:40Z</time>
      </trkpt>
      <trkpt lat="45.03362" lon="2.73898">
        <ele>1630.45</ele>
        <time>2022-07-10T12:36:54Z</time>
      </trkpt>
      <trkpt lat="45.03335" lon="2.73883">
        <ele>1628.59</ele>
        <time>2022-07-10T12:37:16Z</time>
      </trkpt>
      <trkpt lat="45.03313" lon="2.73865">
        <ele>1627.13</ele>
        <time>2022-07-10T12:37:35Z</time>
      </trkpt>
      <trkpt lat="45.03296" lon="2.73855">
        <ele>1626.52</ele>
        <time>2022-07-10T12:37:49Z</time>
      </trkpt>
      <trkpt lat="45.03288" lon="2.73848">
        <ele>1626.15</ele>
        <time>2022-07-10T12:37:56Z</time>
      </trkpt>
      <trkpt lat="45.03272" lon="2.73843">
        <ele>1625.55</ele>
        <time>2022-07-10T12:38:12Z</time>
      </trkpt>
      <trkpt lat="45.0326" lon="2.73829">
        <ele>1625.11</ele>
        <time>2022-07-10T12:38:57Z</time>
      </trkpt>
      <trkpt lat="45.03238" lon="2.73815">
        <ele>1624.3</ele>
        <time>2022-07-10T12:39:17Z</time>
      </trkpt>
      <trkpt lat="45.03218" lon="2.73804">
        <ele>1623.55</ele>
        <time>2022-07-10T12:39:34Z</time>
      </trkpt>
      <trkpt lat="45.032" lon="2.73791">
        <ele>1623.15</ele>
        <time>2022-07-10T12:39:52Z</time>
      </trkpt>
      <trkpt lat="45.0318" lon="2.73776">
        <ele>1623.26</ele>
        <time>2022-07-10T12:40:10Z</time>
      </trkpt>
      <trkpt lat="45.03173" lon="2.7377">
        <ele>1623.13</ele>
        <time>2022-07-10T12:40:18Z</time>
      </trkpt>
      <trkpt lat="45.03163" lon="2.73764">
        <ele>1623.05</ele>
        <time>2022-07-10T12:40:27Z</time>
      </trkpt>
      <trkpt lat="45.03141" lon="2.73747">
        <ele>1622.82</ele>
        <time>2022-07-10T12:40:48Z</time>
      </trkpt>
      <trkpt lat="45.03133" lon="2.73742">
        <ele>1621.85</ele>
        <time>2022-07-10T12:41:00Z</time>
      </trkpt>
      <trkpt lat="45.03102" lon="2.73713">
        <ele>1618.54</ele>
        <time>2022-07-10T12:41:46Z</time>
      </trkpt>
      <trkpt lat="45.031" lon="2.73711">
        <ele>1618.24</ele>
        <time>2022-07-10T12:41:48Z</time>
      </trkpt>
      <trkpt lat="45.03095" lon="2.73708">
        <ele>1617.03</ele>
        <time>2022-07-10T12:41:57Z</time>
      </trkpt>
      <trkpt lat="45.03073" lon="2.73688">
        <ele>1615.48</ele>
        <time>2022-07-10T12:43:58Z</time>
      </trkpt>
      <trkpt lat="45.03058" lon="2.73676">
        <ele>1614.23</ele>
        <time>2022-07-10T12:44:15Z</time>
      </trkpt>
      <trkpt lat="45.03036" lon="2.73663">
        <ele>1611.61</ele>
        <time>2022-07-10T12:44:34Z</time>
      </trkpt>
      <trkpt lat="45.03016" lon="2.73644">
        <ele>1608.6</ele>
        <time>2022-07-10T12:44:55Z</time>
      </trkpt>
      <trkpt lat="45.03002" lon="2.73632">
        <ele>1606.41</ele>
        <time>2022-07-10T12:45:09Z</time>
      </trkpt>
      <trkpt lat="45.02984" lon="2.73616">
        <ele>1603.18</ele>
        <time>2022-07-10T12:45:27Z</time>
      </trkpt>
      <trkpt lat="45.02972" lon="2.73606">
        <ele>1601</ele>
        <time>2022-07-10T12:45:40Z</time>
      </trkpt>
      <trkpt lat="45.02969" lon="2.73604">
        <ele>1599.9</ele>
        <time>2022-07-10T12:45:47Z</time>
      </trkpt>
      <trkpt lat="45.02958" lon="2.73599">
        <ele>1598.98</ele>
        <time>2022-07-10T12:46:00Z</time>
      </trkpt>
      <trkpt lat="45.02936" lon="2.73589">
        <ele>1597.63</ele>
        <time>2022-07-10T12:46:18Z</time>
      </trkpt>
      <trkpt lat="45.02921" lon="2.73575">
        <ele>1595.35</ele>
        <time>2022-07-10T12:46:33Z</time>
      </trkpt>
      <trkpt lat="45.02895" lon="2.7356">
        <ele>1594.16</ele>
        <time>2022-07-10T12:46:55Z</time>
      </trkpt>
      <trkpt lat="45.02875" lon="2.73542">
        <ele>1592.62</ele>
        <time>2022-07-10T12:47:14Z</time>
      </trkpt>
      <trkpt lat="45.02875" lon="2.73541">
        <ele>1592.55</ele>
        <time>2022-07-10T12:47:15Z</time>
      </trkpt>
      <trkpt lat="45.02856" lon="2.73524">
        <ele>1591.26</ele>
        <time>2022-07-10T12:47:32Z</time>
      </trkpt>
      <trkpt lat="45.02849" lon="2.73514">
        <ele>1590.4</ele>
        <time>2022-07-10T12:47:41Z</time>
      </trkpt>
      <trkpt lat="45.02844" lon="2.73507">
        <ele>1590.31</ele>
        <time>2022-07-10T12:47:47Z</time>
      </trkpt>
      <trkpt lat="45.0284" lon="2.73499">
        <ele>1589.82</ele>
        <time>2022-07-10T12:47:53Z</time>
      </trkpt>
      <trkpt lat="45.0282" lon="2.73473">
        <ele>1588.63</ele>
        <time>2022-07-10T12:48:13Z</time>
      </trkpt>
      <trkpt lat="45.02802" lon="2.73461">
        <ele>1588.52</ele>
        <time>2022-07-10T12:48:30Z</time>
      </trkpt>
      <trkpt lat="45.02801" lon="2.73461">
        <ele>1588.55</ele>
        <time>2022-07-10T12:48:32Z</time>
      </trkpt>
      <trkpt lat="45.02798" lon="2.73454">
        <ele>1588.66</ele>
        <time>2022-07-10T12:48:46Z</time>
      </trkpt>
      <trkpt lat="45.02779" lon="2.73439">
        <ele>1588.8</ele>
        <time>2022-07-10T12:49:05Z</time>
      </trkpt>
      <trkpt lat="45.02753" lon="2.73417">
        <ele>1589.61</ele>
        <time>2022-07-10T12:49:28Z</time>
      </trkpt>
      <trkpt lat="45.02738" lon="2.73394">
        <ele>1591.06</ele>
        <time>2022-07-10T12:49:47Z</time>
      </trkpt>
      <trkpt lat="45.02716" lon="2.73373">
        <ele>1592.19</ele>
        <time>2022-07-10T12:50:08Z</time>
      </trkpt>
      <trkpt lat="45.02705" lon="2.73374">
        <ele>1592.18</ele>
        <time>2022-07-10T12:50:21Z</time>
      </trkpt>
      <trkpt lat="45.02672" lon="2.7331">
        <ele>1592.03</ele>
        <time>2022-07-10T12:52:27Z</time>
      </trkpt>
      <trkpt lat="45.02652" lon="2.73287">
        <ele>1591.22</ele>
        <time>2022-07-10T12:52:46Z</time>
      </trkpt>
      <trkpt lat="45.02643" lon="2.73273">
        <ele>1590.71</ele>
        <time>2022-07-10T12:52:59Z</time>
      </trkpt>
      <trkpt lat="45.02636" lon="2.73238">
        <ele>1590.82</ele>
        <time>2022-07-10T12:53:20Z</time>
      </trkpt>
      <trkpt lat="45.02628" lon="2.73209">
        <ele>1592.26</ele>
        <time>2022-07-10T12:53:39Z</time>
      </trkpt>
      <trkpt lat="45.02625" lon="2.73182">
        <ele>1595.05</ele>
        <time>2022-07-10T12:53:55Z</time>
      </trkpt>
      <trkpt lat="45.02631" lon="2.73157">
        <ele>1596.3</ele>
        <time>2022-07-10T12:54:12Z</time>
      </trkpt>
      <trkpt lat="45.02636" lon="2.73126">
        <ele>1596.28</ele>
        <time>2022-07-10T12:54:31Z</time>
      </trkpt>
      <trkpt lat="45.02635" lon="2.73116">
        <ele>1596.77</ele>
        <time>2022-07-10T12:54:42Z</time>
      </trkpt>
      <trkpt lat="45.02633" lon="2.73115">
        <ele>1596.65</ele>
        <time>2022-07-10T12:59:32Z</time>
      </trkpt>
      <trkpt lat="45.02629" lon="2.73119">
        <ele>1596.61</ele>
        <time>2022-07-10T12:59:37Z</time>
      </trkpt>
      <trkpt lat="45.02618" lon="2.73136">
        <ele>1596.32</ele>
        <time>2022-07-10T12:59:51Z</time>
      </trkpt>
      <trkpt lat="45.026" lon="2.73164">
        <ele>1597.14</ele>
        <time>2022-07-10T13:00:13Z</time>
      </trkpt>
      <trkpt lat="45.02579" lon="2.73186">
        <ele>1596.85</ele>
        <time>2022-07-10T13:00:35Z</time>
      </trkpt>
      <trkpt lat="45.02561" lon="2.73196">
        <ele>1595.83</ele>
        <time>2022-07-10T13:00:51Z</time>
      </trkpt>
      <trkpt lat="45.0256" lon="2.73197">
        <ele>1595.23</ele>
        <time>2022-07-10T13:00:55Z</time>
      </trkpt>
      <trkpt lat="45.0255" lon="2.73199">
        <ele>1593.79</ele>
        <time>2022-07-10T13:01:13Z</time>
      </trkpt>
      <trkpt lat="45.02529" lon="2.732">
        <ele>1591</ele>
        <time>2022-07-10T13:01:30Z</time>
      </trkpt>
      <trkpt lat="45.02513" lon="2.73199">
        <ele>1587.92</ele>
        <time>2022-07-10T13:01:45Z</time>
      </trkpt>
      <trkpt lat="45.02492" lon="2.73207">
        <ele>1585.16</ele>
        <time>2022-07-10T13:02:03Z</time>
      </trkpt>
      <trkpt lat="45.02472" lon="2.73207">
        <ele>1583.09</ele>
        <time>2022-07-10T13:02:20Z</time>
      </trkpt>
      <trkpt lat="45.0245" lon="2.73224">
        <ele>1581.52</ele>
        <time>2022-07-10T13:02:38Z</time>
      </trkpt>
      <trkpt lat="45.02448" lon="2.73228">
        <ele>1581.3</ele>
        <time>2022-07-10T13:02:41Z</time>
      </trkpt>
      <trkpt lat="45.02449" lon="2.73233">
        <ele>1581.01</ele>
        <time>2022-07-10T13:02:44Z</time>
      </trkpt>
      <trkpt lat="45.02445" lon="2.73239">
        <ele>1579.45</ele>
        <time>2022-07-10T13:02:55Z</time>
      </trkpt>
      <trkpt lat="45.02437" lon="2.73245">
        <ele>1578.84</ele>
        <time>2022-07-10T13:03:08Z</time>
      </trkpt>
      <trkpt lat="45.02427" lon="2.73257">
        <ele>1577.41</ele>
        <time>2022-07-10T13:03:22Z</time>
      </trkpt>
      <trkpt lat="45.0242" lon="2.73262">
        <ele>1574.5</ele>
        <time>2022-07-10T13:03:36Z</time>
      </trkpt>
      <trkpt lat="45.02421" lon="2.73259">
        <ele>1573.38</ele>
        <time>2022-07-10T13:03:42Z</time>
      </trkpt>
      <trkpt lat="45.02404" lon="2.73243">
        <ele>1573.57</ele>
        <time>2022-07-10T13:08:34Z</time>
      </trkpt>
      <trkpt lat="45.02395" lon="2.73253">
        <ele>1571.85</ele>
        <time>2022-07-10T13:08:43Z</time>
      </trkpt>
      <trkpt lat="45.02389" lon="2.73254">
        <ele>1571.04</ele>
        <time>2022-07-10T13:08:49Z</time>
      </trkpt>
      <trkpt lat="45.02386" lon="2.73254">
        <ele>1570.55</ele>
        <time>2022-07-10T13:08:53Z</time>
      </trkpt>
      <trkpt lat="45.02364" lon="2.73261">
        <ele>1567.54</ele>
        <time>2022-07-10T13:09:11Z</time>
      </trkpt>
      <trkpt lat="45.02343" lon="2.73267">
        <ele>1565.02</ele>
        <time>2022-07-10T13:09:28Z</time>
      </trkpt>
      <trkpt lat="45.02337" lon="2.7327">
        <ele>1563.24</ele>
        <time>2022-07-10T13:09:41Z</time>
      </trkpt>
      <trkpt lat="45.02325" lon="2.73268">
        <ele>1562.24</ele>
        <time>2022-07-10T13:10:22Z</time>
      </trkpt>
      <trkpt lat="45.02313" lon="2.73263">
        <ele>1561.65</ele>
        <time>2022-07-10T13:10:33Z</time>
      </trkpt>
      <trkpt lat="45.02292" lon="2.73256">
        <ele>1560.45</ele>
        <time>2022-07-10T13:10:50Z</time>
      </trkpt>
      <trkpt lat="45.02272" lon="2.73246">
        <ele>1559.83</ele>
        <time>2022-07-10T13:11:06Z</time>
      </trkpt>
      <trkpt lat="45.02249" lon="2.73237">
        <ele>1558.65</ele>
        <time>2022-07-10T13:11:24Z</time>
      </trkpt>
      <trkpt lat="45.02222" lon="2.73226">
        <ele>1556.89</ele>
        <time>2022-07-10T13:11:45Z</time>
      </trkpt>
      <trkpt lat="45.02196" lon="2.73214">
        <ele>1555.35</ele>
        <time>2022-07-10T13:12:04Z</time>
      </trkpt>
      <trkpt lat="45.02172" lon="2.73203">
        <ele>1553.7</ele>
        <time>2022-07-10T13:12:22Z</time>
      </trkpt>
      <trkpt lat="45.02148" lon="2.73192">
        <ele>1552.09</ele>
        <time>2022-07-10T13:12:42Z</time>
      </trkpt>
      <trkpt lat="45.02122" lon="2.73181">
        <ele>1550.55</ele>
        <time>2022-07-10T13:13:02Z</time>
      </trkpt>
      <trkpt lat="45.02102" lon="2.73172">
        <ele>1549.84</ele>
        <time>2022-07-10T13:13:21Z</time>
      </trkpt>
      <trkpt lat="45.02081" lon="2.73164">
        <ele>1550.02</ele>
        <time>2022-07-10T13:13:37Z</time>
      </trkpt>
      <trkpt lat="45.02051" lon="2.73152">
        <ele>1550.41</ele>
        <time>2022-07-10T13:14:00Z</time>
      </trkpt>
      <trkpt lat="45.0203" lon="2.73144">
        <ele>1550.2</ele>
        <time>2022-07-10T13:14:17Z</time>
      </trkpt>
      <trkpt lat="45.02008" lon="2.73135">
        <ele>1549.44</ele>
        <time>2022-07-10T13:14:33Z</time>
      </trkpt>
      <trkpt lat="45.01998" lon="2.73131">
        <ele>1548.56</ele>
        <time>2022-07-10T13:14:46Z</time>
      </trkpt>
      <trkpt lat="45.01975" lon="2.73119">
        <ele>1547.8</ele>
        <time>2022-07-10T13:15:10Z</time>
      </trkpt>
      <trkpt lat="45.0195" lon="2.73111">
        <ele>1547.29</ele>
        <time>2022-07-10T13:15:29Z</time>
      </trkpt>
      <trkpt lat="45.01928" lon="2.73101">
        <ele>1546.47</ele>
        <time>2022-07-10T13:15:46Z</time>
      </trkpt>
      <trkpt lat="45.01905" lon="2.73093">
        <ele>1545.53</ele>
        <time>2022-07-10T13:16:03Z</time>
      </trkpt>
      <trkpt lat="45.01886" lon="2.73085">
        <ele>1544.83</ele>
        <time>2022-07-10T13:16:17Z</time>
      </trkpt>
      <trkpt lat="45.01864" lon="2.73076">
        <ele>1543.81</ele>
        <time>2022-07-10T13:16:34Z</time>
      </trkpt>
      <trkpt lat="45.01843" lon="2.73067">
        <ele>1542.26</ele>
        <time>2022-07-10T13:16:50Z</time>
      </trkpt>
      <trkpt lat="45.01824" lon="2.73057">
        <ele>1541.37</ele>
        <time>2022-07-10T13:17:07Z</time>
      </trkpt>
      <trkpt lat="45.01799" lon="2.73047">
        <ele>1539.68</ele>
        <time>2022-07-10T13:17:28Z</time>
      </trkpt>
      <trkpt lat="45.01788" lon="2.73044">
        <ele>1539.03</ele>
        <time>2022-07-10T13:17:35Z</time>
      </trkpt>
      <trkpt lat="45.01769" lon="2.73038">
        <ele>1537.39</ele>
        <time>2022-07-10T13:17:50Z</time>
      </trkpt>
      <trkpt lat="45.01749" lon="2.73028">
        <ele>1534.77</ele>
        <time>2022-07-10T13:18:06Z</time>
      </trkpt>
      <trkpt lat="45.0173" lon="2.73021">
        <ele>1532</ele>
        <time>2022-07-10T13:18:23Z</time>
      </trkpt>
      <trkpt lat="45.01709" lon="2.73011">
        <ele>1529.27</ele>
        <time>2022-07-10T13:18:41Z</time>
      </trkpt>
      <trkpt lat="45.01683" lon="2.73">
        <ele>1526.36</ele>
        <time>2022-07-10T13:19:05Z</time>
      </trkpt>
      <trkpt lat="45.01655" lon="2.72989">
        <ele>1523.37</ele>
        <time>2022-07-10T13:19:29Z</time>
      </trkpt>
      <trkpt lat="45.01628" lon="2.7298">
        <ele>1520.34</ele>
        <time>2022-07-10T13:19:49Z</time>
      </trkpt>
      <trkpt lat="45.01602" lon="2.72969">
        <ele>1517.23</ele>
        <time>2022-07-10T13:20:09Z</time>
      </trkpt>
      <trkpt lat="45.0158" lon="2.72962">
        <ele>1515.31</ele>
        <time>2022-07-10T13:20:27Z</time>
      </trkpt>
      <trkpt lat="45.01561" lon="2.72955">
        <ele>1513.43</ele>
        <time>2022-07-10T13:20:44Z</time>
      </trkpt>
      <trkpt lat="45.01541" lon="2.72946">
        <ele>1510.42</ele>
        <time>2022-07-10T13:21:02Z</time>
      </trkpt>
      <trkpt lat="45.0152" lon="2.72938">
        <ele>1507.47</ele>
        <time>2022-07-10T13:21:18Z</time>
      </trkpt>
      <trkpt lat="45.01496" lon="2.72925">
        <ele>1505.18</ele>
        <time>2022-07-10T13:21:37Z</time>
      </trkpt>
      <trkpt lat="45.01472" lon="2.72917">
        <ele>1503.01</ele>
        <time>2022-07-10T13:21:55Z</time>
      </trkpt>
      <trkpt lat="45.01449" lon="2.72907">
        <ele>1501.05</ele>
        <time>2022-07-10T13:22:14Z</time>
      </trkpt>
      <trkpt lat="45.01429" lon="2.72897">
        <ele>1499.42</ele>
        <time>2022-07-10T13:22:31Z</time>
      </trkpt>
      <trkpt lat="45.01408" lon="2.72889">
        <ele>1497.93</ele>
        <time>2022-07-10T13:22:46Z</time>
      </trkpt>
      <trkpt lat="45.01386" lon="2.72883">
        <ele>1496.81</ele>
        <time>2022-07-10T13:23:03Z</time>
      </trkpt>
      <trkpt lat="45.01365" lon="2.72875">
        <ele>1495.32</ele>
        <time>2022-07-10T13:23:21Z</time>
      </trkpt>
      <trkpt lat="45.0134" lon="2.72866">
        <ele>1493.89</ele>
        <time>2022-07-10T13:23:39Z</time>
      </trkpt>
      <trkpt lat="45.0132" lon="2.72856">
        <ele>1492.21</ele>
        <time>2022-07-10T13:23:56Z</time>
      </trkpt>
      <trkpt lat="45.013" lon="2.72847">
        <ele>1491.08</ele>
        <time>2022-07-10T13:24:12Z</time>
      </trkpt>
      <trkpt lat="45.01274" lon="2.72834">
        <ele>1489.48</ele>
        <time>2022-07-10T13:24:32Z</time>
      </trkpt>
      <trkpt lat="45.01251" lon="2.72827">
        <ele>1488.98</ele>
        <time>2022-07-10T13:24:49Z</time>
      </trkpt>
      <trkpt lat="45.01224" lon="2.72816">
        <ele>1488.16</ele>
        <time>2022-07-10T13:25:10Z</time>
      </trkpt>
      <trkpt lat="45.01197" lon="2.72806">
        <ele>1487.81</ele>
        <time>2022-07-10T13:25:31Z</time>
      </trkpt>
      <trkpt lat="45.01171" lon="2.72795">
        <ele>1488.07</ele>
        <time>2022-07-10T13:25:51Z</time>
      </trkpt>
      <trkpt lat="45.01142" lon="2.72782">
        <ele>1487.59</ele>
        <time>2022-07-10T13:26:13Z</time>
      </trkpt>
      <trkpt lat="45.0112" lon="2.72774">
        <ele>1486.51</ele>
        <time>2022-07-10T13:26:30Z</time>
      </trkpt>
      <trkpt lat="45.01096" lon="2.72766">
        <ele>1485.13</ele>
        <time>2022-07-10T13:26:50Z</time>
      </trkpt>
      <trkpt lat="45.01075" lon="2.72755">
        <ele>1483.16</ele>
        <time>2022-07-10T13:27:07Z</time>
      </trkpt>
      <trkpt lat="45.01049" lon="2.72748">
        <ele>1481.88</ele>
        <time>2022-07-10T13:27:25Z</time>
      </trkpt>
      <trkpt lat="45.0103" lon="2.72741">
        <ele>1480.95</ele>
        <time>2022-07-10T13:27:40Z</time>
      </trkpt>
      <trkpt lat="45.01007" lon="2.72731">
        <ele>1479.79</ele>
        <time>2022-07-10T13:27:58Z</time>
      </trkpt>
      <trkpt lat="45.00987" lon="2.72726">
        <ele>1479.36</ele>
        <time>2022-07-10T13:28:13Z</time>
      </trkpt>
      <trkpt lat="45.00968" lon="2.72717">
        <ele>1479.41</ele>
        <time>2022-07-10T13:28:27Z</time>
      </trkpt>
      <trkpt lat="45.00949" lon="2.72708">
        <ele>1479.53</ele>
        <time>2022-07-10T13:28:43Z</time>
      </trkpt>
      <trkpt lat="45.00927" lon="2.727">
        <ele>1480.23</ele>
        <time>2022-07-10T13:29:02Z</time>
      </trkpt>
      <trkpt lat="45.00916" lon="2.72696">
        <ele>1480.82</ele>
        <time>2022-07-10T13:29:15Z</time>
      </trkpt>
      <trkpt lat="45.0089" lon="2.72687">
        <ele>1482.45</ele>
        <time>2022-07-10T13:29:57Z</time>
      </trkpt>
      <trkpt lat="45.00868" lon="2.72679">
        <ele>1483.56</ele>
        <time>2022-07-10T13:30:13Z</time>
      </trkpt>
      <trkpt lat="45.00837" lon="2.72667">
        <ele>1484</ele>
        <time>2022-07-10T13:30:36Z</time>
      </trkpt>
      <trkpt lat="45.00812" lon="2.72658">
        <ele>1484.59</ele>
        <time>2022-07-10T13:30:55Z</time>
      </trkpt>
      <trkpt lat="45.00787" lon="2.72647">
        <ele>1484.61</ele>
        <time>2022-07-10T13:31:14Z</time>
      </trkpt>
      <trkpt lat="45.00765" lon="2.72637">
        <ele>1484.49</ele>
        <time>2022-07-10T13:31:31Z</time>
      </trkpt>
      <trkpt lat="45.00738" lon="2.72624">
        <ele>1483.69</ele>
        <time>2022-07-10T13:31:52Z</time>
      </trkpt>
      <trkpt lat="45.00714" lon="2.72613">
        <ele>1482.87</ele>
        <time>2022-07-10T13:32:11Z</time>
      </trkpt>
      <trkpt lat="45.00687" lon="2.726">
        <ele>1481.68</ele>
        <time>2022-07-10T13:32:33Z</time>
      </trkpt>
      <trkpt lat="45.00665" lon="2.72587">
        <ele>1480.5</ele>
        <time>2022-07-10T13:32:51Z</time>
      </trkpt>
      <trkpt lat="45.00643" lon="2.72577">
        <ele>1479.08</ele>
        <time>2022-07-10T13:33:08Z</time>
      </trkpt>
      <trkpt lat="45.00621" lon="2.7257">
        <ele>1478.41</ele>
        <time>2022-07-10T13:33:25Z</time>
      </trkpt>
      <trkpt lat="45.00598" lon="2.7256">
        <ele>1477.01</ele>
        <time>2022-07-10T13:33:43Z</time>
      </trkpt>
      <trkpt lat="45.00577" lon="2.72552">
        <ele>1475.52</ele>
        <time>2022-07-10T13:34:01Z</time>
      </trkpt>
      <trkpt lat="45.00554" lon="2.72543">
        <ele>1474.37</ele>
        <time>2022-07-10T13:34:19Z</time>
      </trkpt>
      <trkpt lat="45.00549" lon="2.72541">
        <ele>1474.05</ele>
        <time>2022-07-10T13:34:24Z</time>
      </trkpt>
      <trkpt lat="45.00529" lon="2.72535">
        <ele>1472.96</ele>
        <time>2022-07-10T13:34:40Z</time>
      </trkpt>
      <trkpt lat="45.00502" lon="2.72523">
        <ele>1471.87</ele>
        <time>2022-07-10T13:35:00Z</time>
      </trkpt>
      <trkpt lat="45.00478" lon="2.72511">
        <ele>1471.28</ele>
        <time>2022-07-10T13:35:18Z</time>
      </trkpt>
      <trkpt lat="45.00465" lon="2.72504">
        <ele>1470.98</ele>
        <time>2022-07-10T13:35:30Z</time>
      </trkpt>
      <trkpt lat="45.00443" lon="2.725">
        <ele>1471.18</ele>
        <time>2022-07-10T13:35:47Z</time>
      </trkpt>
      <trkpt lat="45.00419" lon="2.72487">
        <ele>1471.48</ele>
        <time>2022-07-10T13:36:05Z</time>
      </trkpt>
      <trkpt lat="45.00393" lon="2.72478">
        <ele>1471.91</ele>
        <time>2022-07-10T13:36:23Z</time>
      </trkpt>
      <trkpt lat="45.00369" lon="2.72468">
        <ele>1471.43</ele>
        <time>2022-07-10T13:36:41Z</time>
      </trkpt>
      <trkpt lat="45.00348" lon="2.72459">
        <ele>1471.09</ele>
        <time>2022-07-10T13:36:56Z</time>
      </trkpt>
      <trkpt lat="45.00324" lon="2.7245">
        <ele>1471.04</ele>
        <time>2022-07-10T13:37:13Z</time>
      </trkpt>
      <trkpt lat="45.00301" lon="2.7244">
        <ele>1471.36</ele>
        <time>2022-07-10T13:37:30Z</time>
      </trkpt>
      <trkpt lat="45.00283" lon="2.72432">
        <ele>1471.51</ele>
        <time>2022-07-10T13:37:44Z</time>
      </trkpt>
      <trkpt lat="45.0027" lon="2.72425">
        <ele>1471.71</ele>
        <time>2022-07-10T13:37:58Z</time>
      </trkpt>
      <trkpt lat="45.00263" lon="2.72422">
        <ele>1472.45</ele>
        <time>2022-07-10T13:38:20Z</time>
      </trkpt>
      <trkpt lat="45.0026" lon="2.72421">
        <ele>1472.47</ele>
        <time>2022-07-10T13:38:23Z</time>
      </trkpt>
      <trkpt lat="45.00236" lon="2.72408">
        <ele>1473.08</ele>
        <time>2022-07-10T13:38:42Z</time>
      </trkpt>
      <trkpt lat="45.00212" lon="2.72395">
        <ele>1473.89</ele>
        <time>2022-07-10T13:39:01Z</time>
      </trkpt>
      <trkpt lat="45.00212" lon="2.72392">
        <ele>1474.02</ele>
        <time>2022-07-10T13:39:07Z</time>
      </trkpt>
      <trkpt lat="45.00206" lon="2.72392">
        <ele>1474.13</ele>
        <time>2022-07-10T13:39:17Z</time>
      </trkpt>
      <trkpt lat="45.00204" lon="2.72391">
        <ele>1474.17</ele>
        <time>2022-07-10T13:39:19Z</time>
      </trkpt>
      <trkpt lat="45.00177" lon="2.72379">
        <ele>1474.44</ele>
        <time>2022-07-10T13:39:39Z</time>
      </trkpt>
      <trkpt lat="45.0015" lon="2.72365">
        <ele>1474.11</ele>
        <time>2022-07-10T13:40:01Z</time>
      </trkpt>
      <trkpt lat="45.00126" lon="2.72353">
        <ele>1473.12</ele>
        <time>2022-07-10T13:40:20Z</time>
      </trkpt>
      <trkpt lat="45.00102" lon="2.72342">
        <ele>1471.75</ele>
        <time>2022-07-10T13:40:41Z</time>
      </trkpt>
      <trkpt lat="45.00085" lon="2.72332">
        <ele>1469.71</ele>
        <time>2022-07-10T13:40:56Z</time>
      </trkpt>
      <trkpt lat="45.00079" lon="2.7233">
        <ele>1468.99</ele>
        <time>2022-07-10T13:41:01Z</time>
      </trkpt>
      <trkpt lat="45.00057" lon="2.72321">
        <ele>1466.1</ele>
        <time>2022-07-10T13:41:21Z</time>
      </trkpt>
      <trkpt lat="45.00032" lon="2.7231">
        <ele>1463.9</ele>
        <time>2022-07-10T13:41:40Z</time>
      </trkpt>
      <trkpt lat="45.00008" lon="2.72299">
        <ele>1461.7</ele>
        <time>2022-07-10T13:41:59Z</time>
      </trkpt>
      <trkpt lat="44.99987" lon="2.72289">
        <ele>1459.03</ele>
        <time>2022-07-10T13:42:17Z</time>
      </trkpt>
      <trkpt lat="44.99966" lon="2.72281">
        <ele>1456.67</ele>
        <time>2022-07-10T13:42:35Z</time>
      </trkpt>
      <trkpt lat="44.9994" lon="2.72266">
        <ele>1453.86</ele>
        <time>2022-07-10T13:42:56Z</time>
      </trkpt>
      <trkpt lat="44.99917" lon="2.72257">
        <ele>1451.79</ele>
        <time>2022-07-10T13:43:16Z</time>
      </trkpt>
      <trkpt lat="44.99896" lon="2.72247">
        <ele>1450.12</ele>
        <time>2022-07-10T13:43:33Z</time>
      </trkpt>
      <trkpt lat="44.99877" lon="2.7224">
        <ele>1449.15</ele>
        <time>2022-07-10T13:43:51Z</time>
      </trkpt>
      <trkpt lat="44.9985" lon="2.72229">
        <ele>1448.11</ele>
        <time>2022-07-10T13:44:10Z</time>
      </trkpt>
      <trkpt lat="44.99826" lon="2.72215">
        <ele>1447.89</ele>
        <time>2022-07-10T13:44:28Z</time>
      </trkpt>
      <trkpt lat="44.99797" lon="2.722">
        <ele>1446.85</ele>
        <time>2022-07-10T13:44:49Z</time>
      </trkpt>
      <trkpt lat="44.99775" lon="2.72189">
        <ele>1446.64</ele>
        <time>2022-07-10T13:45:08Z</time>
      </trkpt>
      <trkpt lat="44.99743" lon="2.72174">
        <ele>1445.88</ele>
        <time>2022-07-10T13:45:30Z</time>
      </trkpt>
      <trkpt lat="44.99716" lon="2.7216">
        <ele>1445.19</ele>
        <time>2022-07-10T13:45:50Z</time>
      </trkpt>
      <trkpt lat="44.99696" lon="2.72151">
        <ele>1444.39</ele>
        <time>2022-07-10T13:46:08Z</time>
      </trkpt>
      <trkpt lat="44.99675" lon="2.72139">
        <ele>1443.41</ele>
        <time>2022-07-10T13:46:24Z</time>
      </trkpt>
      <trkpt lat="44.99657" lon="2.7213">
        <ele>1441.48</ele>
        <time>2022-07-10T13:46:44Z</time>
      </trkpt>
      <trkpt lat="44.99631" lon="2.7212">
        <ele>1438.73</ele>
        <time>2022-07-10T13:47:05Z</time>
      </trkpt>
      <trkpt lat="44.99609" lon="2.72109">
        <ele>1435.66</ele>
        <time>2022-07-10T13:47:23Z</time>
      </trkpt>
      <trkpt lat="44.996" lon="2.72095">
        <ele>1433.12</ele>
        <time>2022-07-10T13:47:37Z</time>
      </trkpt>
      <trkpt lat="44.99582" lon="2.72074">
        <ele>1430.36</ele>
        <time>2022-07-10T13:48:17Z</time>
      </trkpt>
      <trkpt lat="44.99569" lon="2.72058">
        <ele>1427.27</ele>
        <time>2022-07-10T13:48:32Z</time>
      </trkpt>
      <trkpt lat="44.9955" lon="2.72035">
        <ele>1424.09</ele>
        <time>2022-07-10T13:48:52Z</time>
      </trkpt>
      <trkpt lat="44.99537" lon="2.72019">
        <ele>1420.99</ele>
        <time>2022-07-10T13:49:08Z</time>
      </trkpt>
      <trkpt lat="44.99523" lon="2.72">
        <ele>1417.87</ele>
        <time>2022-07-10T13:49:25Z</time>
      </trkpt>
      <trkpt lat="44.99512" lon="2.71984">
        <ele>1414.8</ele>
        <time>2022-07-10T13:49:40Z</time>
      </trkpt>
      <trkpt lat="44.99509" lon="2.71979">
        <ele>1413.48</ele>
        <time>2022-07-10T13:49:46Z</time>
      </trkpt>
      <trkpt lat="44.99501" lon="2.7197">
        <ele>1412.48</ele>
        <time>2022-07-10T13:50:11Z</time>
      </trkpt>
      <trkpt lat="44.995" lon="2.71968">
        <ele>1412.48</ele>
        <time>2022-07-10T13:50:12Z</time>
      </trkpt>
      <trkpt lat="44.99499" lon="2.71967">
        <ele>1412.48</ele>
        <time>2022-07-10T13:50:13Z</time>
      </trkpt>
      <trkpt lat="44.99497" lon="2.71965">
        <ele>1412.47</ele>
        <time>2022-07-10T13:50:14Z</time>
      </trkpt>
      <trkpt lat="44.99496" lon="2.71963">
        <ele>1412.45</ele>
        <time>2022-07-10T13:50:15Z</time>
      </trkpt>
      <trkpt lat="44.99481" lon="2.71946">
        <ele>1409.4</ele>
        <time>2022-07-10T13:50:32Z</time>
      </trkpt>
      <trkpt lat="44.99473" lon="2.71935">
        <ele>1406.32</ele>
        <time>2022-07-10T13:50:47Z</time>
      </trkpt>
      <trkpt lat="44.9947" lon="2.71928">
        <ele>1404.12</ele>
        <time>2022-07-10T13:50:58Z</time>
      </trkpt>
      <trkpt lat="44.99444" lon="2.71898">
        <ele>1399.64</ele>
        <time>2022-07-10T13:51:43Z</time>
      </trkpt>
      <trkpt lat="44.99423" lon="2.71871">
        <ele>1396.71</ele>
        <time>2022-07-10T13:52:02Z</time>
      </trkpt>
      <trkpt lat="44.99407" lon="2.71854">
        <ele>1394.6</ele>
        <time>2022-07-10T13:52:19Z</time>
      </trkpt>
      <trkpt lat="44.99408" lon="2.71834">
        <ele>1392.87</ele>
        <time>2022-07-10T13:52:34Z</time>
      </trkpt>
      <trkpt lat="44.99407" lon="2.71833">
        <ele>1392.86</ele>
        <time>2022-07-10T13:52:35Z</time>
      </trkpt>
      <trkpt lat="44.9941" lon="2.71825">
        <ele>1393.17</ele>
        <time>2022-07-10T13:52:54Z</time>
      </trkpt>
      <trkpt lat="44.99411" lon="2.71824">
        <ele>1393.18</ele>
        <time>2022-07-10T13:52:55Z</time>
      </trkpt>
      <trkpt lat="44.99412" lon="2.71822">
        <ele>1393.19</ele>
        <time>2022-07-10T13:52:56Z</time>
      </trkpt>
      <trkpt lat="44.99421" lon="2.71809">
        <ele>1393.25</ele>
        <time>2022-07-10T13:53:05Z</time>
      </trkpt>
      <trkpt lat="44.99422" lon="2.71808">
        <ele>1393.27</ele>
        <time>2022-07-10T13:53:06Z</time>
      </trkpt>
      <trkpt lat="44.99422" lon="2.71806">
        <ele>1393.29</ele>
        <time>2022-07-10T13:53:07Z</time>
      </trkpt>
      <trkpt lat="44.99423" lon="2.71804">
        <ele>1393.29</ele>
        <time>2022-07-10T13:53:08Z</time>
      </trkpt>
      <trkpt lat="44.99424" lon="2.71803">
        <ele>1393.29</ele>
        <time>2022-07-10T13:53:09Z</time>
      </trkpt>
      <trkpt lat="44.99425" lon="2.71801">
        <ele>1393.29</ele>
        <time>2022-07-10T13:53:10Z</time>
      </trkpt>
      <trkpt lat="44.99446" lon="2.7177">
        <ele>1393.35</ele>
        <time>2022-07-10T13:53:31Z</time>
      </trkpt>
      <trkpt lat="44.99457" lon="2.71756">
        <ele>1393.04</ele>
        <time>2022-07-10T13:53:46Z</time>
      </trkpt>
      <trkpt lat="44.99458" lon="2.71754">
        <ele>1393.03</ele>
        <time>2022-07-10T13:53:47Z</time>
      </trkpt>
      <trkpt lat="44.99459" lon="2.71752">
        <ele>1393.01</ele>
        <time>2022-07-10T13:53:49Z</time>
      </trkpt>
      <trkpt lat="44.99459" lon="2.71751">
        <ele>1393</ele>
        <time>2022-07-10T13:53:50Z</time>
      </trkpt>
      <trkpt lat="44.9946" lon="2.71749">
        <ele>1392.98</ele>
        <time>2022-07-10T13:53:51Z</time>
      </trkpt>
      <trkpt lat="44.99461" lon="2.71748">
        <ele>1392.97</ele>
        <time>2022-07-10T13:53:52Z</time>
      </trkpt>
      <trkpt lat="44.99462" lon="2.71746">
        <ele>1392.96</ele>
        <time>2022-07-10T13:53:53Z</time>
      </trkpt>
      <trkpt lat="44.99481" lon="2.71721">
        <ele>1391.75</ele>
        <time>2022-07-10T13:54:12Z</time>
      </trkpt>
      <trkpt lat="44.99498" lon="2.717">
        <ele>1390.31</ele>
        <time>2022-07-10T13:54:29Z</time>
      </trkpt>
      <trkpt lat="44.99518" lon="2.71685">
        <ele>1389.6</ele>
        <time>2022-07-10T13:54:45Z</time>
      </trkpt>
      <trkpt lat="44.99533" lon="2.71671">
        <ele>1389.48</ele>
        <time>2022-07-10T13:55:00Z</time>
      </trkpt>
      <trkpt lat="44.99552" lon="2.71653">
        <ele>1389.37</ele>
        <time>2022-07-10T13:55:16Z</time>
      </trkpt>
      <trkpt lat="44.99567" lon="2.7164">
        <ele>1388.9</ele>
        <time>2022-07-10T13:55:33Z</time>
      </trkpt>
      <trkpt lat="44.99566" lon="2.71642">
        <ele>1388.49</ele>
        <time>2022-07-10T13:55:40Z</time>
      </trkpt>
      <trkpt lat="44.9957" lon="2.71636">
        <ele>1388.32</ele>
        <time>2022-07-10T13:55:49Z</time>
      </trkpt>
      <trkpt lat="44.99571" lon="2.71634">
        <ele>1388.3</ele>
        <time>2022-07-10T13:55:50Z</time>
      </trkpt>
      <trkpt lat="44.99573" lon="2.71633">
        <ele>1388.29</ele>
        <time>2022-07-10T13:55:51Z</time>
      </trkpt>
      <trkpt lat="44.9959" lon="2.71617">
        <ele>1387.47</ele>
        <time>2022-07-10T13:56:03Z</time>
      </trkpt>
      <trkpt lat="44.99607" lon="2.7161">
        <ele>1386.13</ele>
        <time>2022-07-10T13:56:19Z</time>
      </trkpt>
      <trkpt lat="44.99624" lon="2.71607">
        <ele>1383.1</ele>
        <time>2022-07-10T13:56:33Z</time>
      </trkpt>
      <trkpt lat="44.99648" lon="2.71613">
        <ele>1380.6</ele>
        <time>2022-07-10T13:56:51Z</time>
      </trkpt>
      <trkpt lat="44.99658" lon="2.71613">
        <ele>1379.72</ele>
        <time>2022-07-10T13:57:08Z</time>
      </trkpt>
      <trkpt lat="44.99676" lon="2.71599">
        <ele>1377.22</ele>
        <time>2022-07-10T13:57:22Z</time>
      </trkpt>
      <trkpt lat="44.99692" lon="2.71583">
        <ele>1374.99</ele>
        <time>2022-07-10T13:57:36Z</time>
      </trkpt>
      <trkpt lat="44.99702" lon="2.71577">
        <ele>1372.61</ele>
        <time>2022-07-10T13:57:50Z</time>
      </trkpt>
      <trkpt lat="44.99707" lon="2.71571">
        <ele>1370.53</ele>
        <time>2022-07-10T13:58:04Z</time>
      </trkpt>
      <trkpt lat="44.99706" lon="2.7157">
        <ele>1370.23</ele>
        <time>2022-07-10T13:58:08Z</time>
      </trkpt>
      <trkpt lat="44.99716" lon="2.71574">
        <ele>1369.84</ele>
        <time>2022-07-10T13:58:29Z</time>
      </trkpt>
      <trkpt lat="44.99736" lon="2.71574">
        <ele>1367.75</ele>
        <time>2022-07-10T13:58:44Z</time>
      </trkpt>
      <trkpt lat="44.99762" lon="2.71587">
        <ele>1364.68</ele>
        <time>2022-07-10T13:59:04Z</time>
      </trkpt>
      <trkpt lat="44.99781" lon="2.716">
        <ele>1363.4</ele>
        <time>2022-07-10T13:59:21Z</time>
      </trkpt>
      <trkpt lat="44.99781" lon="2.71584">
        <ele>1362.9</ele>
        <time>2022-07-10T13:59:32Z</time>
      </trkpt>
      <trkpt lat="44.99771" lon="2.71551">
        <ele>1359.84</ele>
        <time>2022-07-10T13:59:50Z</time>
      </trkpt>
      <trkpt lat="44.99765" lon="2.7153">
        <ele>1357.76</ele>
        <time>2022-07-10T14:00:04Z</time>
      </trkpt>
      <trkpt lat="44.99756" lon="2.71509">
        <ele>1356.7</ele>
        <time>2022-07-10T14:00:18Z</time>
      </trkpt>
      <trkpt lat="44.99738" lon="2.71483">
        <ele>1355.29</ele>
        <time>2022-07-10T14:00:37Z</time>
      </trkpt>
      <trkpt lat="44.99725" lon="2.71459">
        <ele>1352.13</ele>
        <time>2022-07-10T14:00:55Z</time>
      </trkpt>
      <trkpt lat="44.99708" lon="2.7144">
        <ele>1349.02</ele>
        <time>2022-07-10T14:01:15Z</time>
      </trkpt>
      <trkpt lat="44.997" lon="2.71436">
        <ele>1348.41</ele>
        <time>2022-07-10T14:01:22Z</time>
      </trkpt>
      <trkpt lat="44.99678" lon="2.71423">
        <ele>1347.54</ele>
        <time>2022-07-10T14:01:43Z</time>
      </trkpt>
      <trkpt lat="44.99656" lon="2.71397">
        <ele>1344.33</ele>
        <time>2022-07-10T14:02:09Z</time>
      </trkpt>
      <trkpt lat="44.99648" lon="2.71377">
        <ele>1341.22</ele>
        <time>2022-07-10T14:02:24Z</time>
      </trkpt>
      <trkpt lat="44.99643" lon="2.71363">
        <ele>1339.38</ele>
        <time>2022-07-10T14:02:34Z</time>
      </trkpt>
      <trkpt lat="44.99641" lon="2.71358">
        <ele>1338.85</ele>
        <time>2022-07-10T14:02:37Z</time>
      </trkpt>
      <trkpt lat="44.99632" lon="2.71352">
        <ele>1337.14</ele>
        <time>2022-07-10T14:02:47Z</time>
      </trkpt>
      <trkpt lat="44.99631" lon="2.7135">
        <ele>1336.37</ele>
        <time>2022-07-10T14:02:53Z</time>
      </trkpt>
      <trkpt lat="44.99616" lon="2.71346">
        <ele>1334.86</ele>
        <time>2022-07-10T14:04:41Z</time>
      </trkpt>
      <trkpt lat="44.99608" lon="2.71345">
        <ele>1334.4</ele>
        <time>2022-07-10T14:04:48Z</time>
      </trkpt>
      <trkpt lat="44.99603" lon="2.71344">
        <ele>1333.85</ele>
        <time>2022-07-10T14:04:55Z</time>
      </trkpt>
      <trkpt lat="44.99605" lon="2.71347">
        <ele>1333.68</ele>
        <time>2022-07-10T14:05:07Z</time>
      </trkpt>
      <trkpt lat="44.9961" lon="2.71346">
        <ele>1333.65</ele>
        <time>2022-07-10T14:05:22Z</time>
      </trkpt>
      <trkpt lat="44.99614" lon="2.71347">
        <ele>1333.5</ele>
        <time>2022-07-10T14:05:26Z</time>
      </trkpt>
      <trkpt lat="44.99628" lon="2.71361">
        <ele>1335.11</ele>
        <time>2022-07-10T14:05:46Z</time>
      </trkpt>
      <trkpt lat="44.99635" lon="2.71367">
        <ele>1336.29</ele>
        <time>2022-07-10T14:05:54Z</time>
      </trkpt>
      <trkpt lat="44.99671" lon="2.71383">
        <ele>1338.57</ele>
        <time>2022-07-10T14:06:36Z</time>
      </trkpt>
      <trkpt lat="44.99674" lon="2.71384">
        <ele>1338.59</ele>
        <time>2022-07-10T14:06:38Z</time>
      </trkpt>
      <trkpt lat="44.99676" lon="2.71384">
        <ele>1338.71</ele>
        <time>2022-07-10T14:06:40Z</time>
      </trkpt>
      <trkpt lat="44.99682" lon="2.71387">
        <ele>1338.97</ele>
        <time>2022-07-10T14:06:47Z</time>
      </trkpt>
      <trkpt lat="44.99693" lon="2.71389">
        <ele>1339.9</ele>
        <time>2022-07-10T14:06:56Z</time>
      </trkpt>
      <trkpt lat="44.99696" lon="2.7139">
        <ele>1339.98</ele>
        <time>2022-07-10T14:06:58Z</time>
      </trkpt>
      <trkpt lat="44.99705" lon="2.71391">
        <ele>1340.36</ele>
        <time>2022-07-10T14:07:05Z</time>
      </trkpt>
      <trkpt lat="44.99726" lon="2.71396">
        <ele>1341.2</ele>
        <time>2022-07-10T14:07:20Z</time>
      </trkpt>
      <trkpt lat="44.99745" lon="2.714">
        <ele>1341.42</ele>
        <time>2022-07-10T14:07:35Z</time>
      </trkpt>
      <trkpt lat="44.99751" lon="2.71402">
        <ele>1341.45</ele>
        <time>2022-07-10T14:07:39Z</time>
      </trkpt>
      <trkpt lat="44.99758" lon="2.71406">
        <ele>1342.32</ele>
        <time>2022-07-10T14:07:51Z</time>
      </trkpt>
      <trkpt lat="44.99773" lon="2.71409">
        <ele>1342.36</ele>
        <time>2022-07-10T14:08:04Z</time>
      </trkpt>
      <trkpt lat="44.9979" lon="2.71415">
        <ele>1341.3</ele>
        <time>2022-07-10T14:08:18Z</time>
      </trkpt>
      <trkpt lat="44.9981" lon="2.71421">
        <ele>1340.64</ele>
        <time>2022-07-10T14:08:34Z</time>
      </trkpt>
      <trkpt lat="44.99833" lon="2.7143">
        <ele>1338.98</ele>
        <time>2022-07-10T14:08:52Z</time>
      </trkpt>
      <trkpt lat="44.99856" lon="2.71441">
        <ele>1338.73</ele>
        <time>2022-07-10T14:09:11Z</time>
      </trkpt>
      <trkpt lat="44.99872" lon="2.71456">
        <ele>1337.49</ele>
        <time>2022-07-10T14:09:28Z</time>
      </trkpt>
      <trkpt lat="44.99884" lon="2.71464">
        <ele>1336.13</ele>
        <time>2022-07-10T14:09:42Z</time>
      </trkpt>
      <trkpt lat="44.99891" lon="2.71477">
        <ele>1335.4</ele>
        <time>2022-07-10T14:11:07Z</time>
      </trkpt>
      <trkpt lat="44.99892" lon="2.71478">
        <ele>1335.38</ele>
        <time>2022-07-10T14:11:08Z</time>
      </trkpt>
      <trkpt lat="44.99893" lon="2.71479">
        <ele>1335.36</ele>
        <time>2022-07-10T14:11:09Z</time>
      </trkpt>
      <trkpt lat="44.99894" lon="2.71481">
        <ele>1335.34</ele>
        <time>2022-07-10T14:11:10Z</time>
      </trkpt>
      <trkpt lat="44.99895" lon="2.71482">
        <ele>1335.26</ele>
        <time>2022-07-10T14:11:11Z</time>
      </trkpt>
      <trkpt lat="44.99903" lon="2.71486">
        <ele>1334.65</ele>
        <time>2022-07-10T14:11:20Z</time>
      </trkpt>
      <trkpt lat="44.99905" lon="2.71486">
        <ele>1334.63</ele>
        <time>2022-07-10T14:11:21Z</time>
      </trkpt>
      <trkpt lat="44.99906" lon="2.71486">
        <ele>1334.62</ele>
        <time>2022-07-10T14:11:22Z</time>
      </trkpt>
      <trkpt lat="44.99907" lon="2.71487">
        <ele>1334.61</ele>
        <time>2022-07-10T14:11:23Z</time>
      </trkpt>
      <trkpt lat="44.99908" lon="2.71488">
        <ele>1334.58</ele>
        <time>2022-07-10T14:11:24Z</time>
      </trkpt>
      <trkpt lat="44.99908" lon="2.71489">
        <ele>1334.56</ele>
        <time>2022-07-10T14:11:25Z</time>
      </trkpt>
      <trkpt lat="44.99924" lon="2.71508">
        <ele>1334.43</ele>
        <time>2022-07-10T14:11:43Z</time>
      </trkpt>
      <trkpt lat="44.9994" lon="2.71526">
        <ele>1334.35</ele>
        <time>2022-07-10T14:12:01Z</time>
      </trkpt>
      <trkpt lat="44.99956" lon="2.71538">
        <ele>1334.56</ele>
        <time>2022-07-10T14:12:18Z</time>
      </trkpt>
      <trkpt lat="44.9996" lon="2.71543">
        <ele>1334.69</ele>
        <time>2022-07-10T14:12:25Z</time>
      </trkpt>
      <trkpt lat="44.99961" lon="2.71544">
        <ele>1334.7</ele>
        <time>2022-07-10T14:12:26Z</time>
      </trkpt>
      <trkpt lat="44.9998" lon="2.71562">
        <ele>1334.87</ele>
        <time>2022-07-10T14:12:47Z</time>
      </trkpt>
      <trkpt lat="45.00003" lon="2.71574">
        <ele>1335.29</ele>
        <time>2022-07-10T14:13:07Z</time>
      </trkpt>
      <trkpt lat="45.00024" lon="2.71577">
        <ele>1335.51</ele>
        <time>2022-07-10T14:13:27Z</time>
      </trkpt>
      <trkpt lat="45.00032" lon="2.71576">
        <ele>1336.06</ele>
        <time>2022-07-10T14:13:35Z</time>
      </trkpt>
      <trkpt lat="45.00033" lon="2.71576">
        <ele>1336.15</ele>
        <time>2022-07-10T14:13:36Z</time>
      </trkpt>
      <trkpt lat="45.00049" lon="2.71574">
        <ele>1336.59</ele>
        <time>2022-07-10T14:13:50Z</time>
      </trkpt>
      <trkpt lat="45.00076" lon="2.71579">
        <ele>1336.24</ele>
        <time>2022-07-10T14:14:12Z</time>
      </trkpt>
      <trkpt lat="45.00078" lon="2.71579">
        <ele>1336.24</ele>
        <time>2022-07-10T14:14:13Z</time>
      </trkpt>
      <trkpt lat="45.001" lon="2.71583">
        <ele>1336.51</ele>
        <time>2022-07-10T14:14:31Z</time>
      </trkpt>
      <trkpt lat="45.00123" lon="2.71591">
        <ele>1335.99</ele>
        <time>2022-07-10T14:14:51Z</time>
      </trkpt>
      <trkpt lat="45.00147" lon="2.71601">
        <ele>1337</ele>
        <time>2022-07-10T14:15:13Z</time>
      </trkpt>
      <trkpt lat="45.00149" lon="2.71605">
        <ele>1337.56</ele>
        <time>2022-07-10T14:15:20Z</time>
      </trkpt>
      <trkpt lat="45.00155" lon="2.71606">
        <ele>1338.27</ele>
        <time>2022-07-10T14:15:42Z</time>
      </trkpt>
      <trkpt lat="45.00181" lon="2.71613">
        <ele>1338.1</ele>
        <time>2022-07-10T14:16:02Z</time>
      </trkpt>
      <trkpt lat="45.00203" lon="2.71617">
        <ele>1337.84</ele>
        <time>2022-07-10T14:16:19Z</time>
      </trkpt>
      <trkpt lat="45.00231" lon="2.71631">
        <ele>1338.17</ele>
        <time>2022-07-10T14:16:42Z</time>
      </trkpt>
      <trkpt lat="45.00257" lon="2.71648">
        <ele>1338.59</ele>
        <time>2022-07-10T14:17:04Z</time>
      </trkpt>
      <trkpt lat="45.00269" lon="2.71653">
        <ele>1338.77</ele>
        <time>2022-07-10T14:17:13Z</time>
      </trkpt>
      <trkpt lat="45.0027" lon="2.71654">
        <ele>1338.79</ele>
        <time>2022-07-10T14:17:14Z</time>
      </trkpt>
      <trkpt lat="45.00271" lon="2.71654">
        <ele>1338.8</ele>
        <time>2022-07-10T14:17:15Z</time>
      </trkpt>
      <trkpt lat="45.00272" lon="2.71654">
        <ele>1338.81</ele>
        <time>2022-07-10T14:17:16Z</time>
      </trkpt>
      <trkpt lat="45.00274" lon="2.71655">
        <ele>1338.83</ele>
        <time>2022-07-10T14:17:17Z</time>
      </trkpt>
      <trkpt lat="45.00293" lon="2.71663">
        <ele>1339.66</ele>
        <time>2022-07-10T14:17:37Z</time>
      </trkpt>
      <trkpt lat="45.00304" lon="2.71666">
        <ele>1340.23</ele>
        <time>2022-07-10T14:17:58Z</time>
      </trkpt>
      <trkpt lat="45.0033" lon="2.71676">
        <ele>1339.98</ele>
        <time>2022-07-10T14:18:19Z</time>
      </trkpt>
      <trkpt lat="45.00354" lon="2.71696">
        <ele>1339.85</ele>
        <time>2022-07-10T14:18:41Z</time>
      </trkpt>
      <trkpt lat="45.00374" lon="2.71711">
        <ele>1339.99</ele>
        <time>2022-07-10T14:18:58Z</time>
      </trkpt>
      <trkpt lat="45.00384" lon="2.71717">
        <ele>1340.22</ele>
        <time>2022-07-10T14:19:09Z</time>
      </trkpt>
      <trkpt lat="45.00394" lon="2.71722">
        <ele>1340.57</ele>
        <time>2022-07-10T14:19:32Z</time>
      </trkpt>
      <trkpt lat="45.00395" lon="2.71723">
        <ele>1340.59</ele>
        <time>2022-07-10T14:19:33Z</time>
      </trkpt>
      <trkpt lat="45.00396" lon="2.71723">
        <ele>1340.65</ele>
        <time>2022-07-10T14:19:34Z</time>
      </trkpt>
      <trkpt lat="45.00397" lon="2.71723">
        <ele>1340.68</ele>
        <time>2022-07-10T14:19:35Z</time>
      </trkpt>
      <trkpt lat="45.00418" lon="2.7173">
        <ele>1340.71</ele>
        <time>2022-07-10T14:19:52Z</time>
      </trkpt>
      <trkpt lat="45.00438" lon="2.71739">
        <ele>1340.48</ele>
        <time>2022-07-10T14:20:09Z</time>
      </trkpt>
      <trkpt lat="45.00458" lon="2.71734">
        <ele>1340.68</ele>
        <time>2022-07-10T14:20:28Z</time>
      </trkpt>
      <trkpt lat="45.00476" lon="2.71724">
        <ele>1340.15</ele>
        <time>2022-07-10T14:20:46Z</time>
      </trkpt>
      <trkpt lat="45.00497" lon="2.71713">
        <ele>1338.34</ele>
        <time>2022-07-10T14:21:04Z</time>
      </trkpt>
      <trkpt lat="45.00513" lon="2.71699">
        <ele>1335.18</ele>
        <time>2022-07-10T14:21:18Z</time>
      </trkpt>
      <trkpt lat="45.00529" lon="2.71679">
        <ele>1332.71</ele>
        <time>2022-07-10T14:21:34Z</time>
      </trkpt>
      <trkpt lat="45.00534" lon="2.71671">
        <ele>1331.48</ele>
        <time>2022-07-10T14:21:43Z</time>
      </trkpt>
      <trkpt lat="45.00535" lon="2.71669">
        <ele>1331.37</ele>
        <time>2022-07-10T14:21:44Z</time>
      </trkpt>
      <trkpt lat="45.00536" lon="2.71668">
        <ele>1331.24</ele>
        <time>2022-07-10T14:21:45Z</time>
      </trkpt>
      <trkpt lat="45.00537" lon="2.71667">
        <ele>1331.12</ele>
        <time>2022-07-10T14:21:46Z</time>
      </trkpt>
      <trkpt lat="45.00538" lon="2.71665">
        <ele>1331.02</ele>
        <time>2022-07-10T14:21:47Z</time>
      </trkpt>
      <trkpt lat="45.00539" lon="2.71665">
        <ele>1330.93</ele>
        <time>2022-07-10T14:21:48Z</time>
      </trkpt>
      <trkpt lat="45.00542" lon="2.71661">
        <ele>1330.47</ele>
        <time>2022-07-10T14:21:54Z</time>
      </trkpt>
      <trkpt lat="45.00544" lon="2.71653">
        <ele>1329.65</ele>
        <time>2022-07-10T14:22:14Z</time>
      </trkpt>
      <trkpt lat="45.00544" lon="2.7164">
        <ele>1329.68</ele>
        <time>2022-07-10T14:22:24Z</time>
      </trkpt>
      <trkpt lat="45.00539" lon="2.7162">
        <ele>1329.43</ele>
        <time>2022-07-10T14:22:36Z</time>
      </trkpt>
      <trkpt lat="45.00538" lon="2.71619">
        <ele>1329.35</ele>
        <time>2022-07-10T14:22:37Z</time>
      </trkpt>
      <trkpt lat="45.00537" lon="2.71618">
        <ele>1329.26</ele>
        <time>2022-07-10T14:22:38Z</time>
      </trkpt>
      <trkpt lat="45.00536" lon="2.71617">
        <ele>1329.15</ele>
        <time>2022-07-10T14:22:39Z</time>
      </trkpt>
      <trkpt lat="45.00535" lon="2.71615">
        <ele>1329</ele>
        <time>2022-07-10T14:22:40Z</time>
      </trkpt>
      <trkpt lat="45.00528" lon="2.71606">
        <ele>1328.69</ele>
        <time>2022-07-10T14:22:48Z</time>
      </trkpt>
      <trkpt lat="45.00524" lon="2.71598">
        <ele>1328.72</ele>
        <time>2022-07-10T14:22:54Z</time>
      </trkpt>
      <trkpt lat="45.00523" lon="2.71597">
        <ele>1328.77</ele>
        <time>2022-07-10T14:22:55Z</time>
      </trkpt>
      <trkpt lat="45.00509" lon="2.71568">
        <ele>1329.1</ele>
        <time>2022-07-10T14:23:15Z</time>
      </trkpt>
      <trkpt lat="45.00502" lon="2.71549">
        <ele>1329.21</ele>
        <time>2022-07-10T14:23:27Z</time>
      </trkpt>
      <trkpt lat="45.00501" lon="2.71546">
        <ele>1329.26</ele>
        <time>2022-07-10T14:23:32Z</time>
      </trkpt>
      <trkpt lat="45.00442" lon="2.71367">
        <ele>1328.83</ele>
        <time>2022-07-10T14:25:37Z</time>
      </trkpt>
      <trkpt lat="45.00437" lon="2.71336">
        <ele>1329.19</ele>
        <time>2022-07-10T14:25:51Z</time>
      </trkpt>
      <trkpt lat="45.00429" lon="2.71312">
        <ele>1331.32</ele>
        <time>2022-07-10T14:26:05Z</time>
      </trkpt>
      <trkpt lat="45.00437" lon="2.71302">
        <ele>1332.76</ele>
        <time>2022-07-10T14:26:20Z</time>
      </trkpt>
      <trkpt lat="45.00437" lon="2.71284">
        <ele>1333.16</ele>
        <time>2022-07-10T14:27:51Z</time>
      </trkpt>
      <trkpt lat="45.00435" lon="2.7128">
        <ele>1332.98</ele>
        <time>2022-07-10T14:27:53Z</time>
      </trkpt>
      <trkpt lat="45.00422" lon="2.71257">
        <ele>1332.01</ele>
        <time>2022-07-10T14:28:11Z</time>
      </trkpt>
      <trkpt lat="45.00411" lon="2.71232">
        <ele>1331.06</ele>
        <time>2022-07-10T14:28:28Z</time>
      </trkpt>
      <trkpt lat="45.00411" lon="2.71217">
        <ele>1331.2</ele>
        <time>2022-07-10T14:28:41Z</time>
      </trkpt>
      <trkpt lat="45.00414" lon="2.71182">
        <ele>1332.59</ele>
        <time>2022-07-10T14:29:29Z</time>
      </trkpt>
      <trkpt lat="45.00411" lon="2.71146">
        <ele>1332.53</ele>
        <time>2022-07-10T14:29:50Z</time>
      </trkpt>
      <trkpt lat="45.00411" lon="2.71122">
        <ele>1334.14</ele>
        <time>2022-07-10T14:30:07Z</time>
      </trkpt>
      <trkpt lat="45.0041" lon="2.71096">
        <ele>1337.24</ele>
        <time>2022-07-10T14:30:25Z</time>
      </trkpt>
      <trkpt lat="45.004" lon="2.71073">
        <ele>1339.44</ele>
        <time>2022-07-10T14:30:40Z</time>
      </trkpt>
      <trkpt lat="45.00394" lon="2.71058">
        <ele>1340.33</ele>
        <time>2022-07-10T14:30:53Z</time>
      </trkpt>
      <trkpt lat="45.00389" lon="2.71041">
        <ele>1341.1</ele>
        <time>2022-07-10T14:31:23Z</time>
      </trkpt>
      <trkpt lat="45.00381" lon="2.71004">
        <ele>1342.31</ele>
        <time>2022-07-10T14:31:45Z</time>
      </trkpt>
      <trkpt lat="45.00373" lon="2.70968">
        <ele>1342.61</ele>
        <time>2022-07-10T14:32:08Z</time>
      </trkpt>
      <trkpt lat="45.00367" lon="2.70943">
        <ele>1342.63</ele>
        <time>2022-07-10T14:32:25Z</time>
      </trkpt>
      <trkpt lat="45.00361" lon="2.70915">
        <ele>1341.56</ele>
        <time>2022-07-10T14:32:41Z</time>
      </trkpt>
      <trkpt lat="45.00354" lon="2.70883">
        <ele>1340.38</ele>
        <time>2022-07-10T14:32:59Z</time>
      </trkpt>
      <trkpt lat="45.00344" lon="2.70848">
        <ele>1340.18</ele>
        <time>2022-07-10T14:33:21Z</time>
      </trkpt>
      <trkpt lat="45.00341" lon="2.70839">
        <ele>1339.73</ele>
        <time>2022-07-10T14:33:29Z</time>
      </trkpt>
      <trkpt lat="45.00335" lon="2.708">
        <ele>1337.16</ele>
        <time>2022-07-10T14:33:51Z</time>
      </trkpt>
      <trkpt lat="45.00336" lon="2.70797">
        <ele>1337.13</ele>
        <time>2022-07-10T14:33:57Z</time>
      </trkpt>
      <trkpt lat="45.00326" lon="2.7071">
        <ele>1336.86</ele>
        <time>2022-07-10T14:35:11Z</time>
      </trkpt>
      <trkpt lat="45.00326" lon="2.70685">
        <ele>1338.76</ele>
        <time>2022-07-10T14:35:31Z</time>
      </trkpt>
      <trkpt lat="45.0032" lon="2.70676">
        <ele>1338.8</ele>
        <time>2022-07-10T14:35:40Z</time>
      </trkpt>
      <trkpt lat="45.00313" lon="2.70666">
        <ele>1338.71</ele>
        <time>2022-07-10T14:35:48Z</time>
      </trkpt>
      <trkpt lat="45.0031" lon="2.70657">
        <ele>1338.88</ele>
        <time>2022-07-10T14:35:54Z</time>
      </trkpt>
      <trkpt lat="45.00309" lon="2.70653">
        <ele>1338.99</ele>
        <time>2022-07-10T14:35:56Z</time>
      </trkpt>
      <trkpt lat="45.00305" lon="2.70636">
        <ele>1339.1</ele>
        <time>2022-07-10T14:36:11Z</time>
      </trkpt>
      <trkpt lat="45.00305" lon="2.70635">
        <ele>1339.08</ele>
        <time>2022-07-10T14:36:12Z</time>
      </trkpt>
      <trkpt lat="45.00305" lon="2.7059">
        <ele>1342.45</ele>
        <time>2022-07-10T14:37:10Z</time>
      </trkpt>
      <trkpt lat="45.00303" lon="2.70587">
        <ele>1342.32</ele>
        <time>2022-07-10T14:37:13Z</time>
      </trkpt>
      <trkpt lat="45.00294" lon="2.70578">
        <ele>1341.91</ele>
        <time>2022-07-10T14:37:22Z</time>
      </trkpt>
      <trkpt lat="45.00287" lon="2.70555">
        <ele>1341.11</ele>
        <time>2022-07-10T14:37:37Z</time>
      </trkpt>
      <trkpt lat="45.00282" lon="2.70549">
        <ele>1341.89</ele>
        <time>2022-07-10T14:39:42Z</time>
      </trkpt>
      <trkpt lat="45.00278" lon="2.70544">
        <ele>1342.11</ele>
        <time>2022-07-10T14:39:47Z</time>
      </trkpt>
      <trkpt lat="45.00266" lon="2.70526">
        <ele>1343.51</ele>
        <time>2022-07-10T14:40:02Z</time>
      </trkpt>
      <trkpt lat="45.00255" lon="2.70505">
        <ele>1345.6</ele>
        <time>2022-07-10T14:40:17Z</time>
      </trkpt>
      <trkpt lat="45.00243" lon="2.70484">
        <ele>1347.35</ele>
        <time>2022-07-10T14:40:32Z</time>
      </trkpt>
      <trkpt lat="45.00228" lon="2.70458">
        <ele>1346.12</ele>
        <time>2022-07-10T14:40:48Z</time>
      </trkpt>
      <trkpt lat="45.00214" lon="2.70442">
        <ele>1344.9</ele>
        <time>2022-07-10T14:41:05Z</time>
      </trkpt>
      <trkpt lat="45.00201" lon="2.70418">
        <ele>1345.03</ele>
        <time>2022-07-10T14:41:22Z</time>
      </trkpt>
      <trkpt lat="45.00191" lon="2.7039">
        <ele>1343.96</ele>
        <time>2022-07-10T14:41:41Z</time>
      </trkpt>
      <trkpt lat="45.00184" lon="2.70357">
        <ele>1343.58</ele>
        <time>2022-07-10T14:42:01Z</time>
      </trkpt>
      <trkpt lat="45.00183" lon="2.7035">
        <ele>1343.33</ele>
        <time>2022-07-10T14:42:10Z</time>
      </trkpt>
      <trkpt lat="45.00183" lon="2.70344">
        <ele>1343.17</ele>
        <time>2022-07-10T14:42:20Z</time>
      </trkpt>
      <trkpt lat="45.00183" lon="2.70341">
        <ele>1343.17</ele>
        <time>2022-07-10T14:42:21Z</time>
      </trkpt>
      <trkpt lat="45.00181" lon="2.70328">
        <ele>1342.92</ele>
        <time>2022-07-10T14:42:28Z</time>
      </trkpt>
      <trkpt lat="45.00178" lon="2.70292">
        <ele>1342.1</ele>
        <time>2022-07-10T14:42:48Z</time>
      </trkpt>
      <trkpt lat="45.00179" lon="2.70283">
        <ele>1342.11</ele>
        <time>2022-07-10T14:42:52Z</time>
      </trkpt>
      <trkpt lat="45.00178" lon="2.70276">
        <ele>1342.11</ele>
        <time>2022-07-10T14:42:55Z</time>
      </trkpt>
      <trkpt lat="45.0018" lon="2.70254">
        <ele>1341.87</ele>
        <time>2022-07-10T14:43:07Z</time>
      </trkpt>
      <trkpt lat="45.00189" lon="2.70231">
        <ele>1341.8</ele>
        <time>2022-07-10T14:43:21Z</time>
      </trkpt>
      <trkpt lat="45.00191" lon="2.70203">
        <ele>1340.35</ele>
        <time>2022-07-10T14:43:38Z</time>
      </trkpt>
      <trkpt lat="45.002" lon="2.70173">
        <ele>1339.22</ele>
        <time>2022-07-10T14:43:52Z</time>
      </trkpt>
      <trkpt lat="45.00203" lon="2.7016">
        <ele>1339.2</ele>
        <time>2022-07-10T14:43:59Z</time>
      </trkpt>
      <trkpt lat="45.00209" lon="2.70131">
        <ele>1340.93</ele>
        <time>2022-07-10T14:44:17Z</time>
      </trkpt>
      <trkpt lat="45.00225" lon="2.70113">
        <ele>1341.57</ele>
        <time>2022-07-10T14:44:34Z</time>
      </trkpt>
      <trkpt lat="45.0023" lon="2.70111">
        <ele>1341.62</ele>
        <time>2022-07-10T14:44:37Z</time>
      </trkpt>
      <trkpt lat="45.00233" lon="2.70081">
        <ele>1342.69</ele>
        <time>2022-07-10T14:44:56Z</time>
      </trkpt>
      <trkpt lat="45.00238" lon="2.7006">
        <ele>1343.99</ele>
        <time>2022-07-10T14:45:09Z</time>
      </trkpt>
      <trkpt lat="45.0024" lon="2.7005">
        <ele>1345.13</ele>
        <time>2022-07-10T14:45:19Z</time>
      </trkpt>
      <trkpt lat="45.00237" lon="2.70033">
        <ele>1346.66</ele>
        <time>2022-07-10T14:46:17Z</time>
      </trkpt>
      <trkpt lat="45.00228" lon="2.70011">
        <ele>1347.03</ele>
        <time>2022-07-10T14:46:33Z</time>
      </trkpt>
      <trkpt lat="45.00217" lon="2.69978">
        <ele>1346.87</ele>
        <time>2022-07-10T14:46:51Z</time>
      </trkpt>
      <trkpt lat="45.00209" lon="2.69955">
        <ele>1345.59</ele>
        <time>2022-07-10T14:47:05Z</time>
      </trkpt>
      <trkpt lat="45.00198" lon="2.69927">
        <ele>1343.77</ele>
        <time>2022-07-10T14:47:22Z</time>
      </trkpt>
      <trkpt lat="45.00186" lon="2.69894">
        <ele>1343.49</ele>
        <time>2022-07-10T14:47:42Z</time>
      </trkpt>
      <trkpt lat="45.00176" lon="2.69872">
        <ele>1343.65</ele>
        <time>2022-07-10T14:47:56Z</time>
      </trkpt>
      <trkpt lat="45.00168" lon="2.69858">
        <ele>1344.51</ele>
        <time>2022-07-10T14:48:07Z</time>
      </trkpt>
      <trkpt lat="45.00156" lon="2.69833">
        <ele>1346.07</ele>
        <time>2022-07-10T14:48:25Z</time>
      </trkpt>
      <trkpt lat="45.00144" lon="2.69811">
        <ele>1347.2</ele>
        <time>2022-07-10T14:48:41Z</time>
      </trkpt>
      <trkpt lat="45.00132" lon="2.69783">
        <ele>1347.87</ele>
        <time>2022-07-10T14:48:57Z</time>
      </trkpt>
      <trkpt lat="45.00121" lon="2.69757">
        <ele>1348.73</ele>
        <time>2022-07-10T14:49:14Z</time>
      </trkpt>
      <trkpt lat="45.00103" lon="2.69717">
        <ele>1350.13</ele>
        <time>2022-07-10T14:49:37Z</time>
      </trkpt>
      <trkpt lat="45.0009" lon="2.69692">
        <ele>1351.36</ele>
        <time>2022-07-10T14:49:56Z</time>
      </trkpt>
      <trkpt lat="45.00083" lon="2.69663">
        <ele>1353.28</ele>
        <time>2022-07-10T14:50:21Z</time>
      </trkpt>
      <trkpt lat="45.00065" lon="2.69639">
        <ele>1355.64</ele>
        <time>2022-07-10T14:50:44Z</time>
      </trkpt>
      <trkpt lat="45.00063" lon="2.69638">
        <ele>1356.34</ele>
        <time>2022-07-10T14:50:49Z</time>
      </trkpt>
      <trkpt lat="45.00035" lon="2.69598">
        <ele>1358.17</ele>
        <time>2022-07-10T14:51:19Z</time>
      </trkpt>
      <trkpt lat="45.00018" lon="2.69572">
        <ele>1359.44</ele>
        <time>2022-07-10T14:51:37Z</time>
      </trkpt>
      <trkpt lat="45.00005" lon="2.6955">
        <ele>1359.95</ele>
        <time>2022-07-10T14:51:52Z</time>
      </trkpt>
      <trkpt lat="44.99991" lon="2.69519">
        <ele>1360.95</ele>
        <time>2022-07-10T14:52:14Z</time>
      </trkpt>
      <trkpt lat="44.99975" lon="2.69478">
        <ele>1361.68</ele>
        <time>2022-07-10T14:52:33Z</time>
      </trkpt>
      <trkpt lat="44.99961" lon="2.69451">
        <ele>1362.34</ele>
        <time>2022-07-10T14:52:51Z</time>
      </trkpt>
      <trkpt lat="44.99946" lon="2.69423">
        <ele>1363.75</ele>
        <time>2022-07-10T14:53:09Z</time>
      </trkpt>
      <trkpt lat="44.9993" lon="2.694">
        <ele>1364.77</ele>
        <time>2022-07-10T14:53:28Z</time>
      </trkpt>
      <trkpt lat="44.99918" lon="2.69372">
        <ele>1366.78</ele>
        <time>2022-07-10T14:53:44Z</time>
      </trkpt>
      <trkpt lat="44.99907" lon="2.69356">
        <ele>1369.68</ele>
        <time>2022-07-10T14:54:02Z</time>
      </trkpt>
      <trkpt lat="44.99895" lon="2.6934">
        <ele>1371.46</ele>
        <time>2022-07-10T14:54:18Z</time>
      </trkpt>
      <trkpt lat="44.99874" lon="2.69318">
        <ele>1374.24</ele>
        <time>2022-07-10T14:54:36Z</time>
      </trkpt>
      <trkpt lat="44.99871" lon="2.69314">
        <ele>1374.66</ele>
        <time>2022-07-10T14:54:40Z</time>
      </trkpt>
      <trkpt lat="44.99859" lon="2.69301">
        <ele>1376.98</ele>
        <time>2022-07-10T14:54:57Z</time>
      </trkpt>
      <trkpt lat="44.99854" lon="2.69302">
        <ele>1377.31</ele>
        <time>2022-07-10T14:55:05Z</time>
      </trkpt>
    </trkseg>
  </trk>
</gpx>